Home > Products > Valid Products > OSO

000
SXUS55 KMSO 120743
OSOMSO
MONTANA AWOS SUMMARY
NATIONAL WEATHER SERVICE MISSOULA MT
1243 AM MST FRI FEB 12 2016

Montana AWOS Reports

TWIN BRIDGES|K7S1 120735Z AUTO 11004KT 40SM 02/M02 A3022 RMK AO1 T00221021
ROUNDUP     |KRPX 120735Z AUTO 00000KT 40SM 01/M03 A3015 RMK AO1 T00061032






000
SXUS55 KMSO 120723
OSOMSO
MONTANA AWOS SUMMARY
NATIONAL WEATHER SERVICE MISSOULA MT
1223 AM MST FRI FEB 12 2016

Montana AWOS Reports

TWIN BRIDGES|K7S1 120715Z AUTO 10004KT 25SM 02/M02 A3022 RMK AO1 T00221021
ROUNDUP     |KRPX 120715Z AUTO 00000KT 40SM 02/M02 A3015 RMK AO1 T00171021
MALTA       |KM75 120715Z AUTO 40SM A3027 RMK AO1 T1093155727






000
SXUS55 KMSO 120713
OSOMSO
MONTANA AWOS SUMMARY
NATIONAL WEATHER SERVICE MISSOULA MT
1212 AM MST FRI FEB 12 2016

Montana AWOS Reports

LAUREL      |K6S8 120655Z AUTO 00000KT 40SM 03/M05 A3022 RMK AO1 T00281049






000
SXUS55 KMSO 120703
OSOMSO
MONTANA AWOS SUMMARY
NATIONAL WEATHER SERVICE MISSOULA MT
1203 AM MST FRI FEB 12 2016

Montana AWOS Reports

ROUNDUP     |KRPX 120655Z AUTO 00000KT 40SM 02/M02 A3015 RMK AO1 T00171021
MALTA       |KM75 120655Z AUTO 25SM A3027 RMK AO1 T1093155727
MALTA       |KM75 120655Z AUTO 25SM A3027 RMK AO1 T0083155727
SCOBEY      |K9S2 120655Z AUTO 34008KT 40SM M09/M15 A3031 RMK AO1 T10881149
EKALAKA     |K97M 120655Z AUTO 31005KT 15SM M03/M06 A3020 RMK AO1 T10321055
TWIN BRIDGES|K7S1 120655Z AUTO 09005KT 40SM 02/M02 A3021 RMK AO1 T00221021






000
SXUS55 KMSO 120644
OSOMSO
MONTANA AWOS SUMMARY
NATIONAL WEATHER SERVICE MISSOULA MT
1143 PM MST THU FEB 11 2016

Montana AWOS Reports

LAUREL      |K6S8 120635Z AUTO 00000KT 40SM 03/M05 A3022 RMK AO1 T00281049
ROUNDUP     |KRPX 120635Z AUTO 00000KT 40SM 02/M03 A3015 RMK AO1 T00171027
TWIN BRIDGES|K7S1 120635Z AUTO 00000KT 40SM 02/M02 A3021 RMK AO1 T00221021






000
SXUS55 KMSO 120644
OSOMSO
MONTANA AWOS SUMMARY
NATIONAL WEATHER SERVICE MISSOULA MT
1143 PM MST THU FEB 11 2016

Montana AWOS Reports

LAUREL      |K6S8 120635Z AUTO 00000KT 40SM 03/M05 A3022 RMK AO1 T00281049
ROUNDUP     |KRPX 120635Z AUTO 00000KT 40SM 02/M03 A3015 RMK AO1 T00171027
TWIN BRIDGES|K7S1 120635Z AUTO 00000KT 40SM 02/M02 A3021 RMK AO1 T00221021






000
SXUS55 KMSO 120633
OSOMSO
MONTANA AWOS SUMMARY
NATIONAL WEATHER SERVICE MISSOULA MT
1133 PM MST THU FEB 11 2016

Montana AWOS Reports

TWIN BRIDGES|K7S1 120615Z AUTO 00000KT 40SM 04/M02 A3021 RMK AO1 T00391021
ROUNDUP     |KRPX 120615Z AUTO 00000KT 40SM 02/M03 A3015 RMK AO1 T00171027






000
SXUS55 KMSO 120633
OSOMSO
MONTANA AWOS SUMMARY
NATIONAL WEATHER SERVICE MISSOULA MT
1133 PM MST THU FEB 11 2016

Montana AWOS Reports

TWIN BRIDGES|K7S1 120615Z AUTO 00000KT 40SM 04/M02 A3021 RMK AO1 T00391021
ROUNDUP     |KRPX 120615Z AUTO 00000KT 40SM 02/M03 A3015 RMK AO1 T00171027






000
SXUS55 KMSO 120623
OSOMSO
MONTANA AWOS SUMMARY
NATIONAL WEATHER SERVICE MISSOULA MT
1123 PM MST THU FEB 11 2016

Montana AWOS Reports

LAUREL      |K6S8 120615Z AUTO 00000KT 40SM 05/M07 A3022 RMK AO1 T00501071






000
SXUS55 KMSO 120613
OSOMSO
MONTANA AWOS SUMMARY
NATIONAL WEATHER SERVICE MISSOULA MT
1113 PM MST THU FEB 11 2016

Montana AWOS Reports

LAUREL      |K6S8 120555Z AUTO 40SM 04/M08 A3022 RMK AO1 T00441077






000
SXUS55 KMSO 120613
OSOMSO
MONTANA AWOS SUMMARY
NATIONAL WEATHER SERVICE MISSOULA MT
1113 PM MST THU FEB 11 2016

Montana AWOS Reports

LAUREL      |K6S8 120555Z AUTO 40SM 04/M08 A3022 RMK AO1 T00441077






000
SXUS55 KMSO 120604
OSOMSO
MONTANA AWOS SUMMARY
NATIONAL WEATHER SERVICE MISSOULA MT
1103 PM MST THU FEB 11 2016

Montana AWOS Reports

LAUREL      |K6S8 120555Z AUTO 40SM 04/M08 A3022 RMK AO1 T00441077
ROUNDUP     |KRPX 120555Z AUTO 00000KT 40SM 02/M02 A3014 RMK AO1 T00221021
SCOBEY      |K9S2 120555Z AUTO 34007KT 15SM M08/M13 A3028 RMK AO1 T10771127
TWIN BRIDGES|K7S1 120555Z AUTO 00000KT 40SM 03/M03 A3021 RMK AO1 T00331027
EKALAKA     |K97M 120555Z AUTO 30004KT 15SM M03/M06 A3019 RMK AO1 T10321055






000
SXUS55 KMSO 120604
OSOMSO
MONTANA AWOS SUMMARY
NATIONAL WEATHER SERVICE MISSOULA MT
1103 PM MST THU FEB 11 2016

Montana AWOS Reports

LAUREL      |K6S8 120555Z AUTO 40SM 04/M08 A3022 RMK AO1 T00441077
ROUNDUP     |KRPX 120555Z AUTO 00000KT 40SM 02/M02 A3014 RMK AO1 T00221021
SCOBEY      |K9S2 120555Z AUTO 34007KT 15SM M08/M13 A3028 RMK AO1 T10771127
TWIN BRIDGES|K7S1 120555Z AUTO 00000KT 40SM 03/M03 A3021 RMK AO1 T00331027
EKALAKA     |K97M 120555Z AUTO 30004KT 15SM M03/M06 A3019 RMK AO1 T10321055






000
SXUS55 KMSO 120543
OSOMSO
MONTANA AWOS SUMMARY
NATIONAL WEATHER SERVICE MISSOULA MT
1043 PM MST THU FEB 11 2016

Montana AWOS Reports

ROUNDUP     |KRPX 120535Z AUTO 00000KT 40SM 02/M02 A3015 RMK AO1 T00221021
TWIN BRIDGES|K7S1 120535Z AUTO 11005KT 40SM 03/M02 A3022 RMK AO1 T00281021






000
SXUS55 KMSO 120543
OSOMSO
MONTANA AWOS SUMMARY
NATIONAL WEATHER SERVICE MISSOULA MT
1043 PM MST THU FEB 11 2016

Montana AWOS Reports

ROUNDUP     |KRPX 120535Z AUTO 00000KT 40SM 02/M02 A3015 RMK AO1 T00221021
TWIN BRIDGES|K7S1 120535Z AUTO 11005KT 40SM 03/M02 A3022 RMK AO1 T00281021






000
SXUS55 KMSO 120534
OSOMSO
MONTANA AWOS SUMMARY
NATIONAL WEATHER SERVICE MISSOULA MT
1033 PM MST THU FEB 11 2016

Montana AWOS Reports

TWIN BRIDGES|K7S1 120515Z AUTO 00000KT 40SM 03/M02 A3022 RMK AO1 T00331021






000
SXUS55 KMSO 120534
OSOMSO
MONTANA AWOS SUMMARY
NATIONAL WEATHER SERVICE MISSOULA MT
1033 PM MST THU FEB 11 2016

Montana AWOS Reports

TWIN BRIDGES|K7S1 120515Z AUTO 00000KT 40SM 03/M02 A3022 RMK AO1 T00331021






000
SXUS55 KMSO 120524
OSOMSO
MONTANA AWOS SUMMARY
NATIONAL WEATHER SERVICE MISSOULA MT
1023 PM MST THU FEB 11 2016

Montana AWOS Reports

LAUREL      |K6S8 120515Z AUTO 40SM 04/M08 A3022 RMK AO1 T00391082
ROUNDUP     |KRPX 120515Z AUTO 00000KT 40SM 03/M02 A3015 RMK AO1 T00281021






000
SXUS55 KMSO 120513
OSOMSO
MONTANA AWOS SUMMARY
NATIONAL WEATHER SERVICE MISSOULA MT
1013 PM MST THU FEB 11 2016

Montana AWOS Reports

LAUREL      |K6S8 120455Z AUTO 00000KT 40SM 05/M06 A3021 RMK AO1 T00501060






000
SXUS55 KMSO 120513
OSOMSO
MONTANA AWOS SUMMARY
NATIONAL WEATHER SERVICE MISSOULA MT
1013 PM MST THU FEB 11 2016

Montana AWOS Reports

LAUREL      |K6S8 120455Z AUTO 00000KT 40SM 05/M06 A3021 RMK AO1 T00501060






000
SXUS55 KMSO 120503
OSOMSO
MONTANA AWOS SUMMARY
NATIONAL WEATHER SERVICE MISSOULA MT
1003 PM MST THU FEB 11 2016

Montana AWOS Reports

LAUREL      |K6S8 120455Z AUTO 00000KT 40SM 05/M06 A3021 RMK AO1 T00501060
PLAINS      |KS34 120455Z AUTO 00000KT 25SM 05/02 A3023 RMK AO1 T00500017
TWIN BRIDGES|K7S1 120455Z AUTO 00000KT 40SM 03/M03 A3022 RMK AO1 T00281027
ROUNDUP     |KRPX 120455Z AUTO 00000KT 40SM 03/M02 A3014 RMK AO1 T00281021
SCOBEY      |K9S2 120455Z AUTO 34006KT 10SM M07/M12 A3027 RMK AO1 T10711116
EKALAKA     |K97M 120455Z AUTO VRB06KT 15SM M03/M06 A3018 RMK AO1 T10321055






000
SXUS55 KMSO 120503
OSOMSO
MONTANA AWOS SUMMARY
NATIONAL WEATHER SERVICE MISSOULA MT
1003 PM MST THU FEB 11 2016

Montana AWOS Reports

LAUREL      |K6S8 120455Z AUTO 00000KT 40SM 05/M06 A3021 RMK AO1 T00501060
PLAINS      |KS34 120455Z AUTO 00000KT 25SM 05/02 A3023 RMK AO1 T00500017
TWIN BRIDGES|K7S1 120455Z AUTO 00000KT 40SM 03/M03 A3022 RMK AO1 T00281027
ROUNDUP     |KRPX 120455Z AUTO 00000KT 40SM 03/M02 A3014 RMK AO1 T00281021
SCOBEY      |K9S2 120455Z AUTO 34006KT 10SM M07/M12 A3027 RMK AO1 T10711116
EKALAKA     |K97M 120455Z AUTO VRB06KT 15SM M03/M06 A3018 RMK AO1 T10321055






000
SXUS55 KMSO 120443
OSOMSO
MONTANA AWOS SUMMARY
NATIONAL WEATHER SERVICE MISSOULA MT
943 PM MST THU FEB 11 2016

Montana AWOS Reports

TWIN BRIDGES|K7S1 120435Z AUTO 00000KT 40SM 03/M02 A3022 RMK AO1 T00281021
ROUNDUP     |KRPX 120435Z AUTO 00000KT 40SM 03/M02 A3014 RMK AO1 T00281021






000
SXUS55 KMSO 120423
OSOMSO
MONTANA AWOS SUMMARY
NATIONAL WEATHER SERVICE MISSOULA MT
923 PM MST THU FEB 11 2016

Montana AWOS Reports

LAUREL      |K6S8 120415Z AUTO 00000KT 40SM 06/M07 A3020 RMK AO1 T00611071
ROUNDUP     |KRPX 120415Z AUTO 00000KT 40SM 03/M02 A3014 RMK AO1 T00331021






000
SXUS55 KMSO 120423
OSOMSO
MONTANA AWOS SUMMARY
NATIONAL WEATHER SERVICE MISSOULA MT
923 PM MST THU FEB 11 2016

Montana AWOS Reports

LAUREL      |K6S8 120415Z AUTO 00000KT 40SM 06/M07 A3020 RMK AO1 T00611071
ROUNDUP     |KRPX 120415Z AUTO 00000KT 40SM 03/M02 A3014 RMK AO1 T00331021






000
SXUS55 KMSO 120413
OSOMSO
MONTANA AWOS SUMMARY
NATIONAL WEATHER SERVICE MISSOULA MT
912 PM MST THU FEB 11 2016

Montana AWOS Reports

LAUREL      |K6S8 120355Z AUTO 00000KT 40SM 08/M07 A3020 RMK AO1 T00781066






000
SXUS55 KMSO 120413
OSOMSO
MONTANA AWOS SUMMARY
NATIONAL WEATHER SERVICE MISSOULA MT
912 PM MST THU FEB 11 2016

Montana AWOS Reports

LAUREL      |K6S8 120355Z AUTO 00000KT 40SM 08/M07 A3020 RMK AO1 T00781066






000
SXUS55 KMSO 120404
OSOMSO
MONTANA AWOS SUMMARY
NATIONAL WEATHER SERVICE MISSOULA MT
903 PM MST THU FEB 11 2016

Montana AWOS Reports

LAUREL      |K6S8 120355Z AUTO 00000KT 40SM 08/M07 A3020 RMK AO1 T00781066
EKALAKA     |K97M 120355Z AUTO 33004KT 15SM M03/M06 A3016 RMK AO1 T10321055
ROUNDUP     |KRPX 120355Z AUTO 00000KT 40SM 04/M02 A3013 RMK AO1 T00391021
SCOBEY      |K9S2 120355Z AUTO 34006KT 10SM M06/M11 A3025 RMK AO1 T10601110
TWIN BRIDGES|K7S1 120355Z AUTO 11004KT 40SM 03/M02 A3022 RMK AO1 T00281021






000
SXUS55 KMSO 120404
OSOMSO
MONTANA AWOS SUMMARY
NATIONAL WEATHER SERVICE MISSOULA MT
903 PM MST THU FEB 11 2016

Montana AWOS Reports

LAUREL      |K6S8 120355Z AUTO 00000KT 40SM 08/M07 A3020 RMK AO1 T00781066
EKALAKA     |K97M 120355Z AUTO 33004KT 15SM M03/M06 A3016 RMK AO1 T10321055
ROUNDUP     |KRPX 120355Z AUTO 00000KT 40SM 04/M02 A3013 RMK AO1 T00391021
SCOBEY      |K9S2 120355Z AUTO 34006KT 10SM M06/M11 A3025 RMK AO1 T10601110
TWIN BRIDGES|K7S1 120355Z AUTO 11004KT 40SM 03/M02 A3022 RMK AO1 T00281021






000
SXUS55 KMSO 120343
OSOMSO
MONTANA AWOS SUMMARY
NATIONAL WEATHER SERVICE MISSOULA MT
843 PM MST THU FEB 11 2016

Montana AWOS Reports

LAUREL      |K6S8 120335Z AUTO 00000KT 40SM 08/M07 A3019 RMK AO1 T00831066
ROUNDUP     |KRPX 120335Z AUTO 00000KT 40SM 05/M02 A3013 RMK AO1 T00501016
TWIN BRIDGES|K7S1 120335Z AUTO 10005KT 40SM 03/M02 A3022 RMK AO1 T00281021






000
SXUS55 KMSO 120333
OSOMSO
MONTANA AWOS SUMMARY
NATIONAL WEATHER SERVICE MISSOULA MT
833 PM MST THU FEB 11 2016

Montana AWOS Reports

TWIN BRIDGES|K7S1 120315Z AUTO 11004KT 40SM 03/M03 A3022 RMK AO1 T00331027
ROUNDUP     |KRPX 120315Z AUTO 40SM 06/M03 A3012 RMK AO1 T00561032






000
SXUS55 KMSO 120323
OSOMSO
MONTANA AWOS SUMMARY
NATIONAL WEATHER SERVICE MISSOULA MT
823 PM MST THU FEB 11 2016

Montana AWOS Reports

LAUREL      |K6S8 120315Z AUTO 34005KT 40SM 09/M07 A3019 RMK AO1 T00891066






000
SXUS55 KMSO 120323
OSOMSO
MONTANA AWOS SUMMARY
NATIONAL WEATHER SERVICE MISSOULA MT
823 PM MST THU FEB 11 2016

Montana AWOS Reports

LAUREL      |K6S8 120315Z AUTO 34005KT 40SM 09/M07 A3019 RMK AO1 T00891066






000
SXUS55 KMSO 120313
OSOMSO
MONTANA AWOS SUMMARY
NATIONAL WEATHER SERVICE MISSOULA MT
813 PM MST THU FEB 11 2016

Montana AWOS Reports

LAUREL      |K6S8 120255Z AUTO 34006KT 40SM 09/M07 A3019 RMK AO1 T00891066






000
SXUS55 KMSO 120303
OSOMSO
MONTANA AWOS SUMMARY
NATIONAL WEATHER SERVICE MISSOULA MT
803 PM MST THU FEB 11 2016

Montana AWOS Reports

LAUREL      |K6S8 120255Z AUTO 34006KT 40SM 09/M07 A3019 RMK AO1 T00891066
TWIN BRIDGES|K7S1 120255Z AUTO 00000KT 40SM 03/M03 A3022 RMK AO1 T00331027
ROUNDUP     |KRPX 120255Z AUTO 00000KT 40SM 06/M03 A3013 RMK AO1 T00611032
SCOBEY      |K9S2 120255Z AUTO 34005KT 25SM M06/M11 A3024 RMK AO1 T10551105
EKALAKA     |K97M 120255Z AUTO 32007KT 10SM M03/M05 A3015 RMK AO1 T10271049






000
SXUS55 KMSO 120303
OSOMSO
MONTANA AWOS SUMMARY
NATIONAL WEATHER SERVICE MISSOULA MT
803 PM MST THU FEB 11 2016

Montana AWOS Reports

LAUREL      |K6S8 120255Z AUTO 34006KT 40SM 09/M07 A3019 RMK AO1 T00891066
TWIN BRIDGES|K7S1 120255Z AUTO 00000KT 40SM 03/M03 A3022 RMK AO1 T00331027
ROUNDUP     |KRPX 120255Z AUTO 00000KT 40SM 06/M03 A3013 RMK AO1 T00611032
SCOBEY      |K9S2 120255Z AUTO 34005KT 25SM M06/M11 A3024 RMK AO1 T10551105
EKALAKA     |K97M 120255Z AUTO 32007KT 10SM M03/M05 A3015 RMK AO1 T10271049






000
SXUS55 KMSO 120253
OSOMSO
MONTANA AWOS SUMMARY
NATIONAL WEATHER SERVICE MISSOULA MT
753 PM MST THU FEB 11 2016

Montana AWOS Reports

TWIN BRIDGES|K7S1 120235Z AUTO 00000KT 40SM 03/M03 A3022 RMK AO1 T00331027






000
SXUS55 KMSO 120243
OSOMSO
MONTANA AWOS SUMMARY
NATIONAL WEATHER SERVICE MISSOULA MT
743 PM MST THU FEB 11 2016

Montana AWOS Reports

LAUREL      |K6S8 120235Z AUTO 00000KT 40SM 09/M07 A3018 RMK AO1 T00891066
ROUNDUP     |KRPX 120235Z AUTO 00000KT 40SM 06/M04 A3012 RMK AO1 T00611038






000
SXUS55 KMSO 120223
OSOMSO
MONTANA AWOS SUMMARY
NATIONAL WEATHER SERVICE MISSOULA MT
723 PM MST THU FEB 11 2016

Montana AWOS Reports

ROUNDUP     |KRPX 120215Z AUTO 00000KT 40SM 07/M05 A3012 RMK AO1 T00671049






000
SXUS55 KMSO 120203
OSOMSO
MONTANA AWOS SUMMARY
NATIONAL WEATHER SERVICE MISSOULA MT
703 PM MST THU FEB 11 2016

Montana AWOS Reports

TWIN BRIDGES|K7S1 120155Z AUTO 10006KT 40SM 03/M02 A3022 RMK AO1 T00331021
ROUNDUP     |KRPX 120155Z AUTO 00000KT 40SM 07/M06 A3012 RMK AO1 T00671060
TWIN BRIDGES|K7S1 120155Z AUTO 10006KT 40SM 03/M02 A3022 RMK AO1 T00331021
SCOBEY      |K9S2 120155Z AUTO 34006KT 25SM M05/M10 A3022 RMK AO1 T10491099
EKALAKA     |K97M 120155Z AUTO 34006KT 15SM M02/M04 A3015 RMK AO1 T10161038
LAUREL      |K6S8 120155Z AUTO 00000KT 40SM 09/M08 A3018 RMK AO1 T00891077






000
SXUS55 KMSO 120203
OSOMSO
MONTANA AWOS SUMMARY
NATIONAL WEATHER SERVICE MISSOULA MT
703 PM MST THU FEB 11 2016

Montana AWOS Reports

TWIN BRIDGES|K7S1 120155Z AUTO 10006KT 40SM 03/M02 A3022 RMK AO1 T00331021
ROUNDUP     |KRPX 120155Z AUTO 00000KT 40SM 07/M06 A3012 RMK AO1 T00671060
TWIN BRIDGES|K7S1 120155Z AUTO 10006KT 40SM 03/M02 A3022 RMK AO1 T00331021
SCOBEY      |K9S2 120155Z AUTO 34006KT 25SM M05/M10 A3022 RMK AO1 T10491099
EKALAKA     |K97M 120155Z AUTO 34006KT 15SM M02/M04 A3015 RMK AO1 T10161038
LAUREL      |K6S8 120155Z AUTO 00000KT 40SM 09/M08 A3018 RMK AO1 T00891077






000
SXUS55 KMSO 120143
OSOMSO
MONTANA AWOS SUMMARY
NATIONAL WEATHER SERVICE MISSOULA MT
642 PM MST THU FEB 11 2016

Montana AWOS Reports

LAUREL      |K6S8 120115Z AUTO 00000KT 40SM 09/M07 A3018 RMK AO1 T00941071
TWIN BRIDGES|K7S1 120115Z AUTO 09004KT 40SM 04/M02 A3022 RMK AO1 T00441021
ROUNDUP     |KRPX 120115Z AUTO 00000KT 40SM 07/M07 A3011 RMK AO1 T00721066
MALTA       |KM75 120115Z AUTO 40SM A3020 RMK AO1 T1077155727
LAUREL      |K6S8 120135Z AUTO 00000KT 40SM 09/M07 A3017 RMK AO1 T00941071
ROUNDUP     |KRPX 120135Z AUTO 00000KT 40SM 07/M07 A3011 RMK AO1 T00671066






000
SXUS55 KMSO 120143
OSOMSO
MONTANA AWOS SUMMARY
NATIONAL WEATHER SERVICE MISSOULA MT
642 PM MST THU FEB 11 2016

Montana AWOS Reports

LAUREL      |K6S8 120115Z AUTO 00000KT 40SM 09/M07 A3018 RMK AO1 T00941071
TWIN BRIDGES|K7S1 120115Z AUTO 09004KT 40SM 04/M02 A3022 RMK AO1 T00441021
ROUNDUP     |KRPX 120115Z AUTO 00000KT 40SM 07/M07 A3011 RMK AO1 T00721066
MALTA       |KM75 120115Z AUTO 40SM A3020 RMK AO1 T1077155727
LAUREL      |K6S8 120135Z AUTO 00000KT 40SM 09/M07 A3017 RMK AO1 T00941071
ROUNDUP     |KRPX 120135Z AUTO 00000KT 40SM 07/M07 A3011 RMK AO1 T00671066






000
SXUS55 KMSO 120113
OSOMSO
MONTANA AWOS SUMMARY
NATIONAL WEATHER SERVICE MISSOULA MT
612 PM MST THU FEB 11 2016

Montana AWOS Reports

LAUREL      |K6S8 120055Z AUTO 00000KT 40SM 10/M07 A3017 RMK AO1 T01001071






000
SXUS55 KMSO 120113
OSOMSO
MONTANA AWOS SUMMARY
NATIONAL WEATHER SERVICE MISSOULA MT
612 PM MST THU FEB 11 2016

Montana AWOS Reports

LAUREL      |K6S8 120055Z AUTO 00000KT 40SM 10/M07 A3017 RMK AO1 T01001071






000
SXUS55 KMSO 120103
OSOMSO
MONTANA AWOS SUMMARY
NATIONAL WEATHER SERVICE MISSOULA MT
603 PM MST THU FEB 11 2016

Montana AWOS Reports

LAUREL      |K6S8 120055Z AUTO 00000KT 40SM 10/M07 A3017 RMK AO1 T01001071
ROUNDUP     |KRPX 120055Z AUTO 31004KT 40SM 08/M07 A3010 RMK AO1 T00831066
MALTA       |KM75 120055Z AUTO 40SM A3020 RMK AO1 T1071155727
SCOBEY      |K9S2 120055Z AUTO 00000KT 25SM M05/M11 A3021 RMK AO1 T10491105
EKALAKA     |K97M 120055Z AUTO 00000KT 15SM M02/M04 A3014 RMK AO1 T10161043
MALTA       |KM75 120055Z AUTO 40SM A3020 RMK AO1 T1016155727
TWIN BRIDGES|K7S1 120055Z AUTO 00000KT 40SM 05/M02 A3022 RMK AO1 T00501021






000
SXUS55 KMSO 120103
OSOMSO
MONTANA AWOS SUMMARY
NATIONAL WEATHER SERVICE MISSOULA MT
603 PM MST THU FEB 11 2016

Montana AWOS Reports

LAUREL      |K6S8 120055Z AUTO 00000KT 40SM 10/M07 A3017 RMK AO1 T01001071
ROUNDUP     |KRPX 120055Z AUTO 31004KT 40SM 08/M07 A3010 RMK AO1 T00831066
MALTA       |KM75 120055Z AUTO 40SM A3020 RMK AO1 T1071155727
SCOBEY      |K9S2 120055Z AUTO 00000KT 25SM M05/M11 A3021 RMK AO1 T10491105
EKALAKA     |K97M 120055Z AUTO 00000KT 15SM M02/M04 A3014 RMK AO1 T10161043
MALTA       |KM75 120055Z AUTO 40SM A3020 RMK AO1 T1016155727
TWIN BRIDGES|K7S1 120055Z AUTO 00000KT 40SM 05/M02 A3022 RMK AO1 T00501021






000
SXUS55 KMSO 120043
OSOMSO
MONTANA AWOS SUMMARY
NATIONAL WEATHER SERVICE MISSOULA MT
542 PM MST THU FEB 11 2016

Montana AWOS Reports

LAUREL      |K6S8 120035Z AUTO 00000KT 40SM 11/M07 A3017 RMK AO1 T01111071






000
SXUS55 KMSO 120043
OSOMSO
MONTANA AWOS SUMMARY
NATIONAL WEATHER SERVICE MISSOULA MT
542 PM MST THU FEB 11 2016

Montana AWOS Reports

LAUREL      |K6S8 120035Z AUTO 00000KT 40SM 11/M07 A3017 RMK AO1 T01111071






000
SXUS55 KMSO 120023
OSOMSO
MONTANA AWOS SUMMARY
NATIONAL WEATHER SERVICE MISSOULA MT
523 PM MST THU FEB 11 2016

Montana AWOS Reports

ROUNDUP     |KRPX 120015Z AUTO 32008KT 40SM 10/M07 A3008 RMK AO1 T01001066






000
SXUS55 KMSO 120023
OSOMSO
MONTANA AWOS SUMMARY
NATIONAL WEATHER SERVICE MISSOULA MT
523 PM MST THU FEB 11 2016

Montana AWOS Reports

ROUNDUP     |KRPX 120015Z AUTO 32008KT 40SM 10/M07 A3008 RMK AO1 T01001066






000
SXUS55 KMSO 120014
OSOMSO
MONTANA AWOS SUMMARY
NATIONAL WEATHER SERVICE MISSOULA MT
513 PM MST THU FEB 11 2016

Montana AWOS Reports

ROUNDUP     |KRPX 112355Z AUTO 31007KT 40SM 11/M07 A3008 RMK AO1 T01061066






000
SXUS55 KMSO 120014
OSOMSO
MONTANA AWOS SUMMARY
NATIONAL WEATHER SERVICE MISSOULA MT
513 PM MST THU FEB 11 2016

Montana AWOS Reports

ROUNDUP     |KRPX 112355Z AUTO 31007KT 40SM 11/M07 A3008 RMK AO1 T01061066






000
SXUS55 KMSO 120003
OSOMSO
MONTANA AWOS SUMMARY
NATIONAL WEATHER SERVICE MISSOULA MT
503 PM MST THU FEB 11 2016

Montana AWOS Reports

LAUREL      |K6S8 112355Z AUTO 29007KT 40SM 12/M07 A3016 RMK AO1 T01221071






000
SXUS55 KMSO 120003
OSOMSO
MONTANA AWOS SUMMARY
NATIONAL WEATHER SERVICE MISSOULA MT
503 PM MST THU FEB 11 2016

Montana AWOS Reports

LAUREL      |K6S8 112355Z AUTO 29007KT 40SM 12/M07 A3016 RMK AO1 T01221071






000
SXUS55 KMSO 112344
OSOMSO
MONTANA AWOS SUMMARY
NATIONAL WEATHER SERVICE MISSOULA MT
443 PM MST THU FEB 11 2016

Montana AWOS Reports

TWIN BRIDGES|K7S1 112335Z AUTO 00000KT 40SM 05/M02 A3021 RMK AO1 T00501021
ROUNDUP     |KRPX 112335Z AUTO 32009G13KT 40SM 11/M07 A3007 RMK AO1 T01111071






000
SXUS55 KMSO 112344
OSOMSO
MONTANA AWOS SUMMARY
NATIONAL WEATHER SERVICE MISSOULA MT
443 PM MST THU FEB 11 2016

Montana AWOS Reports

TWIN BRIDGES|K7S1 112335Z AUTO 00000KT 40SM 05/M02 A3021 RMK AO1 T00501021
ROUNDUP     |KRPX 112335Z AUTO 32009G13KT 40SM 11/M07 A3007 RMK AO1 T01111071






000
SXUS55 KMSO 112323
OSOMSO
MONTANA AWOS SUMMARY
NATIONAL WEATHER SERVICE MISSOULA MT
423 PM MST THU FEB 11 2016

Montana AWOS Reports

LAUREL      |K6S8 112315Z AUTO 31004KT 40SM 13/M08 A3016 RMK AO1 T01281077
TWIN BRIDGES|K7S1 112315Z AUTO 08004KT 40SM 04/M03 A3021 RMK AO1 T00441027
ROUNDUP     |KRPX 112315Z AUTO 31011G19KT 40SM 12/M07 A3007 RMK AO1 T01171071






000
SXUS55 KMSO 112323
OSOMSO
MONTANA AWOS SUMMARY
NATIONAL WEATHER SERVICE MISSOULA MT
423 PM MST THU FEB 11 2016

Montana AWOS Reports

LAUREL      |K6S8 112315Z AUTO 31004KT 40SM 13/M08 A3016 RMK AO1 T01281077
TWIN BRIDGES|K7S1 112315Z AUTO 08004KT 40SM 04/M03 A3021 RMK AO1 T00441027
ROUNDUP     |KRPX 112315Z AUTO 31011G19KT 40SM 12/M07 A3007 RMK AO1 T01171071






000
SXUS55 KMSO 112313
OSOMSO
MONTANA AWOS SUMMARY
NATIONAL WEATHER SERVICE MISSOULA MT
413 PM MST THU FEB 11 2016

Montana AWOS Reports

TWIN BRIDGES|K7S1 112255Z AUTO 00000KT 40SM 05/M02 A3021 RMK AO1 T00501021
ROUNDUP     |KRPX 112255Z AUTO 30014G21KT 40SM 12/M07 A3006 RMK AO1 T01221066
PLAINS      |KS34 112255Z AUTO 00000KT 40SM 11/03 A3024 RMK AO1 T01110028
SCOBEY      |K9S2 112255Z AUTO 00000KT 15SM M04/M11 A3018 RMK AO1 T10431105
LAUREL      |K6S8 112255Z AUTO 30010G15KT 40SM 13/M08 A3015 RMK AO1 T01331077






000
SXUS55 KMSO 112313
OSOMSO
MONTANA AWOS SUMMARY
NATIONAL WEATHER SERVICE MISSOULA MT
413 PM MST THU FEB 11 2016

Montana AWOS Reports

TWIN BRIDGES|K7S1 112255Z AUTO 00000KT 40SM 05/M02 A3021 RMK AO1 T00501021
ROUNDUP     |KRPX 112255Z AUTO 30014G21KT 40SM 12/M07 A3006 RMK AO1 T01221066
PLAINS      |KS34 112255Z AUTO 00000KT 40SM 11/03 A3024 RMK AO1 T01110028
SCOBEY      |K9S2 112255Z AUTO 00000KT 15SM M04/M11 A3018 RMK AO1 T10431105
LAUREL      |K6S8 112255Z AUTO 30010G15KT 40SM 13/M08 A3015 RMK AO1 T01331077






000
SXUS55 KMSO 112303
OSOMSO
MONTANA AWOS SUMMARY
NATIONAL WEATHER SERVICE MISSOULA MT
403 PM MST THU FEB 11 2016

Montana AWOS Reports

LAUREL      |K6S8 112255Z AUTO 30010G15KT 40SM 13/M08 A3015 RMK AO1 T01331077






000
SXUS55 KMSO 112303
OSOMSO
MONTANA AWOS SUMMARY
NATIONAL WEATHER SERVICE MISSOULA MT
403 PM MST THU FEB 11 2016

Montana AWOS Reports

LAUREL      |K6S8 112255Z AUTO 30010G15KT 40SM 13/M08 A3015 RMK AO1 T01331077






000
SXUS55 KMSO 112244
OSOMSO
MONTANA AWOS SUMMARY
NATIONAL WEATHER SERVICE MISSOULA MT
343 PM MST THU FEB 11 2016

Montana AWOS Reports

TWIN BRIDGES|K7S1 112235Z AUTO 00000KT 40SM 05/M03 A3021 RMK AO1 T00501027
ROUNDUP     |KRPX 112235Z AUTO 31013G18KT 40SM 13/M07 A3006 RMK AO1 T01331071






000
SXUS55 KMSO 112244
OSOMSO
MONTANA AWOS SUMMARY
NATIONAL WEATHER SERVICE MISSOULA MT
343 PM MST THU FEB 11 2016

Montana AWOS Reports

TWIN BRIDGES|K7S1 112235Z AUTO 00000KT 40SM 05/M03 A3021 RMK AO1 T00501027
ROUNDUP     |KRPX 112235Z AUTO 31013G18KT 40SM 13/M07 A3006 RMK AO1 T01331071






000
SXUS55 KMSO 112233
OSOMSO
MONTANA AWOS SUMMARY
NATIONAL WEATHER SERVICE MISSOULA MT
332 PM MST THU FEB 11 2016

Montana AWOS Reports

TWIN BRIDGES|K7S1 112215Z AUTO 00000KT 40SM 04/M03 A3021 RMK AO1 T00441027
ROUNDUP     |KRPX 112215Z AUTO 30018G22KT 40SM 13/M07 A3005 RMK AO1 T01331071






000
SXUS55 KMSO 112223
OSOMSO
MONTANA AWOS SUMMARY
NATIONAL WEATHER SERVICE MISSOULA MT
322 PM MST THU FEB 11 2016

Montana AWOS Reports

LAUREL      |K6S8 112215Z AUTO 28011G16KT 40SM 14/M08 A3013 RMK AO1 T01441077






000
SXUS55 KMSO 112213
OSOMSO
MONTANA AWOS SUMMARY
NATIONAL WEATHER SERVICE MISSOULA MT
313 PM MST THU FEB 11 2016

Montana AWOS Reports

TWIN BRIDGES|K7S1 112155Z AUTO 08004KT 40SM 05/M02 A3021 RMK AO1 T00501021
ROUNDUP     |KRPX 112155Z AUTO 30016G21KT 40SM 14/M07 A3004 RMK AO1 T01391066
SCOBEY      |K9S2 112155Z AUTO 35005KT 15SM M04/M11 A3017 RMK AO1 T10431105
EKALAKA     |K97M 112155Z AUTO 31014G18KT 40SM 04/M01 A3006 RMK AO1 T00391010
PLAINS      |KS34 112155Z AUTO 00000KT 40SM 11/03 A3025 RMK AO1 T01110028
LAUREL      |K6S8 112155Z AUTO 29015G21KT 40SM 15/M07 A3012 RMK AO1 T01501066






000
SXUS55 KMSO 112203
OSOMSO
MONTANA AWOS SUMMARY
NATIONAL WEATHER SERVICE MISSOULA MT
302 PM MST THU FEB 11 2016

Montana AWOS Reports

LAUREL      |K6S8 112155Z AUTO 29015G21KT 40SM 15/M07 A3012 RMK AO1 T01501066






000
SXUS55 KMSO 112143
OSOMSO
MONTANA AWOS SUMMARY
NATIONAL WEATHER SERVICE MISSOULA MT
243 PM MST THU FEB 11 2016

Montana AWOS Reports

TWIN BRIDGES|K7S1 112135Z AUTO 00000KT 40SM 06/M02 A3022 RMK AO1 T00611021
ROUNDUP     |KRPX 112135Z AUTO 31016G23KT 40SM 14/M07 A3004 RMK AO1 T01391066






000
SXUS55 KMSO 112123
OSOMSO
MONTANA AWOS SUMMARY
NATIONAL WEATHER SERVICE MISSOULA MT
223 PM MST THU FEB 11 2016

Montana AWOS Reports

LAUREL      |K6S8 112115Z AUTO 31013G22KT 40SM 15/M07 A3012 RMK AO1 T01501071
ROUNDUP     |KRPX 112115Z AUTO 31015G22KT 40SM 14/M06 A3004 RMK AO1 T01391060
TWIN BRIDGES|K7S1 112115Z AUTO 00000KT 40SM 06/M02 A3023 RMK AO1 T00611021






000
SXUS55 KMSO 112113
OSOMSO
MONTANA AWOS SUMMARY
NATIONAL WEATHER SERVICE MISSOULA MT
213 PM MST THU FEB 11 2016

Montana AWOS Reports

LAUREL      |K6S8 112055Z AUTO 31016G21KT 40SM 15/M07 A3012 RMK AO1 T01501071






000
SXUS55 KMSO 112113
OSOMSO
MONTANA AWOS SUMMARY
NATIONAL WEATHER SERVICE MISSOULA MT
213 PM MST THU FEB 11 2016

Montana AWOS Reports

LAUREL      |K6S8 112055Z AUTO 31016G21KT 40SM 15/M07 A3012 RMK AO1 T01501071






000
SXUS55 KMSO 112103
OSOMSO
MONTANA AWOS SUMMARY
NATIONAL WEATHER SERVICE MISSOULA MT
203 PM MST THU FEB 11 2016

Montana AWOS Reports

ROUNDUP     |KRPX 112055Z AUTO 30014G23KT 40SM 14/M06 A3004 RMK AO1 T01391055
SCOBEY      |K9S2 112055Z AUTO 35004KT 15SM M05/M11 A3014 RMK AO1 T10491110
EKALAKA     |K97M 112055Z AUTO 31018G24KT 40SM 05/M02 A3004 RMK AO1 T00501016
PLAINS      |KS34 112055Z AUTO 00000KT 40SM 09/03 A3026 RMK AO1 T00940028
TWIN BRIDGES|K7S1 112055Z AUTO 00000KT 40SM 06/M02 A3023 RMK AO1 T00561016






000
SXUS55 KMSO 112043
OSOMSO
MONTANA AWOS SUMMARY
NATIONAL WEATHER SERVICE MISSOULA MT
143 PM MST THU FEB 11 2016

Montana AWOS Reports

LAUREL      |K6S8 112035Z AUTO 30018G23KT 40SM 15/M08 A3013 RMK AO1 T01501077






000
SXUS55 KMSO 112043
OSOMSO
MONTANA AWOS SUMMARY
NATIONAL WEATHER SERVICE MISSOULA MT
143 PM MST THU FEB 11 2016

Montana AWOS Reports

LAUREL      |K6S8 112035Z AUTO 30018G23KT 40SM 15/M08 A3013 RMK AO1 T01501077






000
SXUS55 KMSO 112023
OSOMSO
MONTANA AWOS SUMMARY
NATIONAL WEATHER SERVICE MISSOULA MT
123 PM MST THU FEB 11 2016

Montana AWOS Reports

ROUNDUP     |KRPX 112015Z AUTO 29017G23KT 40SM 14/M06 A3004 RMK AO1 T01391055






000
SXUS55 KMSO 112013
OSOMSO
MONTANA AWOS SUMMARY
NATIONAL WEATHER SERVICE MISSOULA MT
113 PM MST THU FEB 11 2016

Montana AWOS Reports

LAUREL      |K6S8 111955Z AUTO 30013G21KT 40SM 15/M07 A3013 RMK AO1 T01501066






000
SXUS55 KMSO 112004
OSOMSO
MONTANA AWOS SUMMARY
NATIONAL WEATHER SERVICE MISSOULA MT
103 PM MST THU FEB 11 2016

Montana AWOS Reports

LAUREL      |K6S8 111955Z AUTO 30013G21KT 40SM 15/M07 A3013 RMK AO1 T01501066
SCOBEY      |K9S2 111955Z AUTO 00000KT 25SM M05/M11 A3014 RMK AO1 T10491105
ROUNDUP     |KRPX 111955Z AUTO 30017G26KT 40SM 14/M06 A3004 RMK AO1 T01391055
EKALAKA     |K97M 111955Z AUTO 31022G26KT 40SM 06/M02 A3002 RMK AO1 T00611016
TWIN BRIDGES|K7S1 111955Z AUTO 11004KT 40SM 04/M02 A3024 RMK AO1 T00441021






000
SXUS55 KMSO 111943
OSOMSO
MONTANA AWOS SUMMARY
NATIONAL WEATHER SERVICE MISSOULA MT
1243 PM MST THU FEB 11 2016

Montana AWOS Reports

TWIN BRIDGES|K7S1 111935Z AUTO 00000KT 40SM 03/M03 A3025 RMK AO1 T00331027
ROUNDUP     |KRPX 111935Z AUTO 28015G23KT 40SM 14/M06 A3004 RMK AO1 T01391060
MALTA       |KM75 111935Z AUTO 40SM A3013 RMK AO1 T1021155727






000
SXUS55 KMSO 111923
OSOMSO
MONTANA AWOS SUMMARY
NATIONAL WEATHER SERVICE MISSOULA MT
1223 PM MST THU FEB 11 2016

Montana AWOS Reports

ROUNDUP     |KRPX 111915Z AUTO 28019G26KT 40SM 14/M06 A3004 RMK AO1 T01391060
MALTA       |KM75 111915Z AUTO 40SM A3013 RMK AO1 T1071155727






000
SXUS55 KMSO 111923
OSOMSO
MONTANA AWOS SUMMARY
NATIONAL WEATHER SERVICE MISSOULA MT
1223 PM MST THU FEB 11 2016

Montana AWOS Reports

ROUNDUP     |KRPX 111915Z AUTO 28019G26KT 40SM 14/M06 A3004 RMK AO1 T01391060
MALTA       |KM75 111915Z AUTO 40SM A3013 RMK AO1 T1071155727






000
SXUS55 KMSO 111913
OSOMSO
MONTANA AWOS SUMMARY
NATIONAL WEATHER SERVICE MISSOULA MT
1213 PM MST THU FEB 11 2016

Montana AWOS Reports

EKALAKA     |K97M 111855Z AUTO 29018G26KT 40SM 06/M02 A3002 RMK AO1 T00561016
LAUREL      |K6S8 111855Z AUTO 29018G23KT 40SM 15/M08 A3014 RMK AO1 T01501077






000
SXUS55 KMSO 111913
OSOMSO
MONTANA AWOS SUMMARY
NATIONAL WEATHER SERVICE MISSOULA MT
1213 PM MST THU FEB 11 2016

Montana AWOS Reports

EKALAKA     |K97M 111855Z AUTO 29018G26KT 40SM 06/M02 A3002 RMK AO1 T00561016
LAUREL      |K6S8 111855Z AUTO 29018G23KT 40SM 15/M08 A3014 RMK AO1 T01501077






000
SXUS55 KMSO 111903
OSOMSO
MONTANA AWOS SUMMARY
NATIONAL WEATHER SERVICE MISSOULA MT
1203 PM MST THU FEB 11 2016

Montana AWOS Reports

ROUNDUP     |KRPX 111855Z AUTO 30017G24KT 40SM 13/M06 A3005 RMK AO1 T01331060
SCOBEY      |K9S2 111855Z AUTO 00000KT 15SM M06/M11 A3013 RMK AO1 T10551110
PLAINS      |KS34 111855Z AUTO 00000KT 25SM 05/02 A3031 RMK AO1 T00500017
TWIN BRIDGES|K7S1 111855Z AUTO 00000KT 40SM 03/M02 A3026 RMK AO1 T00331021






000
SXUS55 KMSO 111844
OSOMSO
MONTANA AWOS SUMMARY
NATIONAL WEATHER SERVICE MISSOULA MT
1143 AM MST THU FEB 11 2016

Montana AWOS Reports

ROUNDUP     |KRPX 111835Z AUTO 29018G26KT 40SM 13/M06 A3005 RMK AO1 T01281060
TWIN BRIDGES|K7S1 111835Z AUTO 00000KT 40SM 03/M03 A3026 RMK AO1 T00281027






000
SXUS55 KMSO 111844
OSOMSO
MONTANA AWOS SUMMARY
NATIONAL WEATHER SERVICE MISSOULA MT
1143 AM MST THU FEB 11 2016

Montana AWOS Reports

ROUNDUP     |KRPX 111835Z AUTO 29018G26KT 40SM 13/M06 A3005 RMK AO1 T01281060
TWIN BRIDGES|K7S1 111835Z AUTO 00000KT 40SM 03/M03 A3026 RMK AO1 T00281027






000
SXUS55 KMSO 111833
OSOMSO
MONTANA AWOS SUMMARY
NATIONAL WEATHER SERVICE MISSOULA MT
1133 AM MST THU FEB 11 2016

Montana AWOS Reports

ROUNDUP     |KRPX 111815Z AUTO 28021G26KT 40SM 13/M06 A3005 RMK AO1 T01331060






000
SXUS55 KMSO 111823
OSOMSO
MONTANA AWOS SUMMARY
NATIONAL WEATHER SERVICE MISSOULA MT
1123 AM MST THU FEB 11 2016

Montana AWOS Reports

LAUREL      |K6S8 111815Z AUTO 28023G31KT 40SM 14/M06 A3013 RMK AO1 T01441060






000
SXUS55 KMSO 111814
OSOMSO
MONTANA AWOS SUMMARY
NATIONAL WEATHER SERVICE MISSOULA MT
1113 AM MST THU FEB 11 2016

Montana AWOS Reports

LAUREL      |K6S8 111755Z AUTO 29016G23KT 40SM 14/M04 A3013 RMK AO1 T01441043






000
SXUS55 KMSO 111814
OSOMSO
MONTANA AWOS SUMMARY
NATIONAL WEATHER SERVICE MISSOULA MT
1113 AM MST THU FEB 11 2016

Montana AWOS Reports

LAUREL      |K6S8 111755Z AUTO 29016G23KT 40SM 14/M04 A3013 RMK AO1 T01441043






000
SXUS55 KMSO 111803
OSOMSO
MONTANA AWOS SUMMARY
NATIONAL WEATHER SERVICE MISSOULA MT
1103 AM MST THU FEB 11 2016

Montana AWOS Reports

LAUREL      |K6S8 111755Z AUTO 29016G23KT 40SM 14/M04 A3013 RMK AO1 T01441043
SCOBEY      |K9S2 111755Z AUTO 35006KT 7SM M06/M11 A3012 RMK AO1 T10551105
TWIN BRIDGES|K7S1 111755Z AUTO 00000KT 40SM 02/M04 A3027 RMK AO1 T00171038
ROUNDUP     |KRPX 111755Z AUTO 26013G20KT 40SM 12/M06 A3004 RMK AO1 T01221055
EKALAKA     |K97M 111755Z AUTO 29020G25KT 40SM 05/00 A3000 RMK AO1 T00500000






000
SXUS55 KMSO 111744
OSOMSO
MONTANA AWOS SUMMARY
NATIONAL WEATHER SERVICE MISSOULA MT
1043 AM MST THU FEB 11 2016

Montana AWOS Reports

TWIN BRIDGES|K7S1 111735Z AUTO 11005KT 40SM 02/M04 A3026 RMK AO1 T00171043
ROUNDUP     |KRPX 111735Z AUTO 24013G18KT 40SM 12/M04 A3004 RMK AO1 T01171043






000
SXUS55 KMSO 111744
OSOMSO
MONTANA AWOS SUMMARY
NATIONAL WEATHER SERVICE MISSOULA MT
1043 AM MST THU FEB 11 2016

Montana AWOS Reports

TWIN BRIDGES|K7S1 111735Z AUTO 11005KT 40SM 02/M04 A3026 RMK AO1 T00171043
ROUNDUP     |KRPX 111735Z AUTO 24013G18KT 40SM 12/M04 A3004 RMK AO1 T01171043






000
SXUS55 KMSO 111723
OSOMSO
MONTANA AWOS SUMMARY
NATIONAL WEATHER SERVICE MISSOULA MT
1022 AM MST THU FEB 11 2016

Montana AWOS Reports

LAUREL      |K6S8 111715Z AUTO 27011KT 40SM 13/M03 A3013 RMK AO1 T01281032
TWIN BRIDGES|K7S1 111715Z AUTO 00000KT 40SM 01/M05 A3026 RMK AO1 T00061049
ROUNDUP     |KRPX 111715Z AUTO 24014G22KT 40SM 11/M05 A3003 RMK AO1 T01111049






000
SXUS55 KMSO 111713
OSOMSO
MONTANA AWOS SUMMARY
NATIONAL WEATHER SERVICE MISSOULA MT
1013 AM MST THU FEB 11 2016

Montana AWOS Reports

LAUREL      |K6S8 111655Z AUTO 28013G18KT 40SM 12/M04 A3013 RMK AO1 T01221038
EKALAKA     |K97M 111655Z AUTO 29018G24KT 40SM 06/M02 A2998 RMK AO1 T00611016






000
SXUS55 KMSO 111713
OSOMSO
MONTANA AWOS SUMMARY
NATIONAL WEATHER SERVICE MISSOULA MT
1013 AM MST THU FEB 11 2016

Montana AWOS Reports

LAUREL      |K6S8 111655Z AUTO 28013G18KT 40SM 12/M04 A3013 RMK AO1 T01221038
EKALAKA     |K97M 111655Z AUTO 29018G24KT 40SM 06/M02 A2998 RMK AO1 T00611016






000
SXUS55 KMSO 111703
OSOMSO
MONTANA AWOS SUMMARY
NATIONAL WEATHER SERVICE MISSOULA MT
1003 AM MST THU FEB 11 2016

Montana AWOS Reports

TWIN BRIDGES|K7S1 111655Z AUTO 09006KT 40SM 00/M06 A3025 RMK AO1 T00001055
SCOBEY      |K9S2 111655Z AUTO 35006KT 3/4SM HZ M06/M10 A3010 RMK AO1 T10601099
ROUNDUP     |KRPX 111655Z AUTO 24007KT 40SM 11/M03 A3003 RMK AO1 T01061032






000
SXUS55 KMSO 111703
OSOMSO
MONTANA AWOS SUMMARY
NATIONAL WEATHER SERVICE MISSOULA MT
1003 AM MST THU FEB 11 2016

Montana AWOS Reports

TWIN BRIDGES|K7S1 111655Z AUTO 09006KT 40SM 00/M06 A3025 RMK AO1 T00001055
SCOBEY      |K9S2 111655Z AUTO 35006KT 3/4SM HZ M06/M10 A3010 RMK AO1 T10601099
ROUNDUP     |KRPX 111655Z AUTO 24007KT 40SM 11/M03 A3003 RMK AO1 T01061032






000
SXUS55 KMSO 111643
OSOMSO
MONTANA AWOS SUMMARY
NATIONAL WEATHER SERVICE MISSOULA MT
943 AM MST THU FEB 11 2016

Montana AWOS Reports

LAUREL      |K6S8 111635Z AUTO 28009G13KT 40SM 11/M04 A3013 RMK AO1 T01111038






000
SXUS55 KMSO 111623
OSOMSO
MONTANA AWOS SUMMARY
NATIONAL WEATHER SERVICE MISSOULA MT
922 AM MST THU FEB 11 2016

Montana AWOS Reports

LAUREL      |K6S8 111615Z AUTO 00000KT 40SM 10/M04 A3012 RMK AO1 T01001043
TWIN BRIDGES|K7S1 111615Z AUTO 00000KT 40SM M01/M07 A3024 RMK AO1 T10051066
ROUNDUP     |KRPX 111615Z AUTO 00000KT 40SM 08/M03 A3002 RMK AO1 T00781032






000
SXUS55 KMSO 111613
OSOMSO
MONTANA AWOS SUMMARY
NATIONAL WEATHER SERVICE MISSOULA MT
913 AM MST THU FEB 11 2016

Montana AWOS Reports

LAUREL      |K6S8 111555Z AUTO 00000KT 40SM 09/M04 A3012 RMK AO1 T00891038






000
SXUS55 KMSO 111604
OSOMSO
MONTANA AWOS SUMMARY
NATIONAL WEATHER SERVICE MISSOULA MT
903 AM MST THU FEB 11 2016

Montana AWOS Reports

LAUREL      |K6S8 111555Z AUTO 00000KT 40SM 09/M04 A3012 RMK AO1 T00891038
SCOBEY      |K9S2 111555Z AUTO 35007KT 1 1/2SM HZ M06/M09 A3007 RMK AO1 T10551093
PLAINS      |KS34 111555Z AUTO 00000KT 15SM 00/M02 A3029 RMK AO1 T00001021






000
SXUS55 KMSO 111543
OSOMSO
MONTANA AWOS SUMMARY
NATIONAL WEATHER SERVICE MISSOULA MT
843 AM MST THU FEB 11 2016

Montana AWOS Reports

TWIN BRIDGES|K7S1 111535Z AUTO 00000KT 40SM M01/M07 A3023 RMK AO1 T10051066
ROUNDUP     |KRPX 111535Z AUTO 00000KT 40SM 07/M04 A3001 RMK AO1 T00671038






000
SXUS55 KMSO 111543
OSOMSO
MONTANA AWOS SUMMARY
NATIONAL WEATHER SERVICE MISSOULA MT
843 AM MST THU FEB 11 2016

Montana AWOS Reports

TWIN BRIDGES|K7S1 111535Z AUTO 00000KT 40SM M01/M07 A3023 RMK AO1 T10051066
ROUNDUP     |KRPX 111535Z AUTO 00000KT 40SM 07/M04 A3001 RMK AO1 T00671038






000
SXUS55 KMSO 111523
OSOMSO
MONTANA AWOS SUMMARY
NATIONAL WEATHER SERVICE MISSOULA MT
823 AM MST THU FEB 11 2016

Montana AWOS Reports

LAUREL      |K6S8 111515Z AUTO 00000KT 40SM 06/M06 A3010 RMK AO1 T00611055
ROUNDUP     |KRPX 111515Z AUTO 00000KT 40SM 08/M04 A3000 RMK AO1 T00781038






000
SXUS55 KMSO 111513
OSOMSO
MONTANA AWOS SUMMARY
NATIONAL WEATHER SERVICE MISSOULA MT
813 AM MST THU FEB 11 2016

Montana AWOS Reports

EKALAKA     |K97M 111455Z AUTO 26013G21KT 40SM 03/M03 A2994 RMK AO1 T00331027






000
SXUS55 KMSO 111503
OSOMSO
MONTANA AWOS SUMMARY
NATIONAL WEATHER SERVICE MISSOULA MT
803 AM MST THU FEB 11 2016

Montana AWOS Reports

TWIN BRIDGES|K7S1 111455Z AUTO 00000KT 40SM M01/M07 A3022 RMK AO1 T10051071
ROUNDUP     |KRPX 111455Z AUTO 00000KT 40SM 06/M04 A2999 RMK AO1 T00611038
SCOBEY      |K9S2 111455Z AUTO 35005KT 1SM HZ M06/M09 A3004 RMK AO1 T10551093






000
SXUS55 KMSO 111503
OSOMSO
MONTANA AWOS SUMMARY
NATIONAL WEATHER SERVICE MISSOULA MT
803 AM MST THU FEB 11 2016

Montana AWOS Reports

TWIN BRIDGES|K7S1 111455Z AUTO 00000KT 40SM M01/M07 A3022 RMK AO1 T10051071
ROUNDUP     |KRPX 111455Z AUTO 00000KT 40SM 06/M04 A2999 RMK AO1 T00611038
SCOBEY      |K9S2 111455Z AUTO 35005KT 1SM HZ M06/M09 A3004 RMK AO1 T10551093






000
SXUS55 KMSO 111444
OSOMSO
MONTANA AWOS SUMMARY
NATIONAL WEATHER SERVICE MISSOULA MT
743 AM MST THU FEB 11 2016

Montana AWOS Reports

ROUNDUP     |KRPX 111435Z AUTO 00000KT 40SM 06/M04 A2998 RMK AO1 T00611043
TWIN BRIDGES|K7S1 111435Z AUTO 00000KT 40SM 01/M07 A3022 RMK AO1 T00111066






000
SXUS55 KMSO 111423
OSOMSO
MONTANA AWOS SUMMARY
NATIONAL WEATHER SERVICE MISSOULA MT
723 AM MST THU FEB 11 2016

Montana AWOS Reports

LAUREL      |K6S8 111415Z AUTO 00000KT 40SM 04/M08 A3007 RMK AO1 T00441077
ROUNDUP     |KRPX 111415Z AUTO 00000KT 40SM 07/M04 A2998 RMK AO1 T00721043






000
SXUS55 KMSO 111423
OSOMSO
MONTANA AWOS SUMMARY
NATIONAL WEATHER SERVICE MISSOULA MT
723 AM MST THU FEB 11 2016

Montana AWOS Reports

LAUREL      |K6S8 111415Z AUTO 00000KT 40SM 04/M08 A3007 RMK AO1 T00441077
ROUNDUP     |KRPX 111415Z AUTO 00000KT 40SM 07/M04 A2998 RMK AO1 T00721043






000
SXUS55 KMSO 111413
OSOMSO
MONTANA AWOS SUMMARY
NATIONAL WEATHER SERVICE MISSOULA MT
713 AM MST THU FEB 11 2016

Montana AWOS Reports

SCOBEY      |K9S2 111355Z AUTO 00000KT 1 1/4SM HZ M06/M09 A3002 RMK AO1 T10551093
EKALAKA     |K97M 111355Z AUTO 24007KT 40SM 03/M03 A2994 RMK AO1 T00331032
LAUREL      |K6S8 111355Z AUTO 00000KT 40SM 06/M07 A3007 RMK AO1 T00561066
TWIN BRIDGES|K7S1 111355Z AUTO 11004KT 40SM 03/M06 A3021 RMK AO1 T00331055
PLAINS      |KS34 111355Z AUTO 00000KT 25SM 01/M02 A3027 RMK AO1 T00111016






000
SXUS55 KMSO 111403
OSOMSO
MONTANA AWOS SUMMARY
NATIONAL WEATHER SERVICE MISSOULA MT
702 AM MST THU FEB 11 2016

Montana AWOS Reports

LAUREL      |K6S8 111355Z AUTO 00000KT 40SM 06/M07 A3007 RMK AO1 T00561066






000
SXUS55 KMSO 111343
OSOMSO
MONTANA AWOS SUMMARY
NATIONAL WEATHER SERVICE MISSOULA MT
643 AM MST THU FEB 11 2016

Montana AWOS Reports

ROUNDUP     |KRPX 111335Z AUTO 40SM 08/M04 A2996 RMK AO1 T00831038






000
SXUS55 KMSO 111343
OSOMSO
MONTANA AWOS SUMMARY
NATIONAL WEATHER SERVICE MISSOULA MT
643 AM MST THU FEB 11 2016

Montana AWOS Reports

ROUNDUP     |KRPX 111335Z AUTO 40SM 08/M04 A2996 RMK AO1 T00831038






000
SXUS55 KMSO 111324
OSOMSO
MONTANA AWOS SUMMARY
NATIONAL WEATHER SERVICE MISSOULA MT
623 AM MST THU FEB 11 2016

Montana AWOS Reports

TWIN BRIDGES|K7S1 111315Z AUTO 07006KT 40SM 01/M06 A3020 RMK AO1 T00111060
ROUNDUP     |KRPX 111315Z AUTO 24009KT 40SM 08/M04 A2996 RMK AO1 T00781043






000
SXUS55 KMSO 111324
OSOMSO
MONTANA AWOS SUMMARY
NATIONAL WEATHER SERVICE MISSOULA MT
623 AM MST THU FEB 11 2016

Montana AWOS Reports

TWIN BRIDGES|K7S1 111315Z AUTO 07006KT 40SM 01/M06 A3020 RMK AO1 T00111060
ROUNDUP     |KRPX 111315Z AUTO 24009KT 40SM 08/M04 A2996 RMK AO1 T00781043






000
SXUS55 KMSO 111313
OSOMSO
MONTANA AWOS SUMMARY
NATIONAL WEATHER SERVICE MISSOULA MT
613 AM MST THU FEB 11 2016

Montana AWOS Reports

TWIN BRIDGES|K7S1 111255Z AUTO 09006KT 40SM 01/M06 A3020 RMK AO1 T00061060






000
SXUS55 KMSO 111304
OSOMSO
MONTANA AWOS SUMMARY
NATIONAL WEATHER SERVICE MISSOULA MT
603 AM MST THU FEB 11 2016

Montana AWOS Reports

ROUNDUP     |KRPX 111255Z AUTO 25010G14KT 40SM 08/M04 A2996 RMK AO1 T00781038
SCOBEY      |K9S2 111255Z AUTO 35005KT 1 1/2SM HZ M05/M09 A3002 RMK AO1 T10491088
EKALAKA     |K97M 111255Z AUTO 25008KT 40SM 04/M03 A2993 RMK AO1 T00391027
LAUREL      |K6S8 111255Z AUTO 00000KT 40SM 07/M07 A3005 RMK AO1 T00671066






000
SXUS55 KMSO 111304
OSOMSO
MONTANA AWOS SUMMARY
NATIONAL WEATHER SERVICE MISSOULA MT
603 AM MST THU FEB 11 2016

Montana AWOS Reports

ROUNDUP     |KRPX 111255Z AUTO 25010G14KT 40SM 08/M04 A2996 RMK AO1 T00781038
SCOBEY      |K9S2 111255Z AUTO 35005KT 1 1/2SM HZ M05/M09 A3002 RMK AO1 T10491088
EKALAKA     |K97M 111255Z AUTO 25008KT 40SM 04/M03 A2993 RMK AO1 T00391027
LAUREL      |K6S8 111255Z AUTO 00000KT 40SM 07/M07 A3005 RMK AO1 T00671066






000
SXUS55 KMSO 111243
OSOMSO
MONTANA AWOS SUMMARY
NATIONAL WEATHER SERVICE MISSOULA MT
543 AM MST THU FEB 11 2016

Montana AWOS Reports

ROUNDUP     |KRPX 111235Z AUTO 25010KT 40SM 08/M04 A2996 RMK AO1 T00831038
TWIN BRIDGES|K7S1 111235Z AUTO 09007KT 40SM 02/M06 A3020 RMK AO1 T00221055






000
SXUS55 KMSO 111243
OSOMSO
MONTANA AWOS SUMMARY
NATIONAL WEATHER SERVICE MISSOULA MT
543 AM MST THU FEB 11 2016

Montana AWOS Reports

ROUNDUP     |KRPX 111235Z AUTO 25010KT 40SM 08/M04 A2996 RMK AO1 T00831038
TWIN BRIDGES|K7S1 111235Z AUTO 09007KT 40SM 02/M06 A3020 RMK AO1 T00221055






000
SXUS55 KMSO 111233
OSOMSO
MONTANA AWOS SUMMARY
NATIONAL WEATHER SERVICE MISSOULA MT
533 AM MST THU FEB 11 2016

Montana AWOS Reports

ROUNDUP     |KRPX 111215Z AUTO 25012G18KT 40SM 08/M04 A2995 RMK AO1 T00831038






000
SXUS55 KMSO 111233
OSOMSO
MONTANA AWOS SUMMARY
NATIONAL WEATHER SERVICE MISSOULA MT
533 AM MST THU FEB 11 2016

Montana AWOS Reports

ROUNDUP     |KRPX 111215Z AUTO 25012G18KT 40SM 08/M04 A2995 RMK AO1 T00831038






000
SXUS55 KMSO 111223
OSOMSO
MONTANA AWOS SUMMARY
NATIONAL WEATHER SERVICE MISSOULA MT
523 AM MST THU FEB 11 2016

Montana AWOS Reports

LAUREL      |K6S8 111215Z AUTO 00000KT 40SM 07/M07 A3004 RMK AO1 T00671066






000
SXUS55 KMSO 111223
OSOMSO
MONTANA AWOS SUMMARY
NATIONAL WEATHER SERVICE MISSOULA MT
523 AM MST THU FEB 11 2016

Montana AWOS Reports

LAUREL      |K6S8 111215Z AUTO 00000KT 40SM 07/M07 A3004 RMK AO1 T00671066






000
SXUS55 KMSO 111214
OSOMSO
MONTANA AWOS SUMMARY
NATIONAL WEATHER SERVICE MISSOULA MT
513 AM MST THU FEB 11 2016

Montana AWOS Reports

LAUREL      |K6S8 111155Z AUTO 00000KT 40SM 06/M07 A3003 RMK AO1 T00611066






000
SXUS55 KMSO 111214
OSOMSO
MONTANA AWOS SUMMARY
NATIONAL WEATHER SERVICE MISSOULA MT
513 AM MST THU FEB 11 2016

Montana AWOS Reports

LAUREL      |K6S8 111155Z AUTO 00000KT 40SM 06/M07 A3003 RMK AO1 T00611066






000
SXUS55 KMSO 111203
OSOMSO
MONTANA AWOS SUMMARY
NATIONAL WEATHER SERVICE MISSOULA MT
503 AM MST THU FEB 11 2016

Montana AWOS Reports

LAUREL      |K6S8 111155Z AUTO 00000KT 40SM 06/M07 A3003 RMK AO1 T00611066
SCOBEY      |K9S2 111155Z AUTO 34007KT 1 1/4SM HZ M05/M09 A3000 RMK AO1 T10491088
ROUNDUP     |KRPX 111155Z AUTO 25011G16KT 40SM 09/M04 A2994 RMK AO1 T00941038
EKALAKA     |K97M 111155Z AUTO 13005KT 40SM 01/M03 A2993 RMK AO1 T00061032
TWIN BRIDGES|K7S1 111155Z AUTO 14010KT 40SM 03/M05 A3019 RMK AO1 T00281049






000
SXUS55 KMSO 111203
OSOMSO
MONTANA AWOS SUMMARY
NATIONAL WEATHER SERVICE MISSOULA MT
503 AM MST THU FEB 11 2016

Montana AWOS Reports

LAUREL      |K6S8 111155Z AUTO 00000KT 40SM 06/M07 A3003 RMK AO1 T00611066
SCOBEY      |K9S2 111155Z AUTO 34007KT 1 1/4SM HZ M05/M09 A3000 RMK AO1 T10491088
ROUNDUP     |KRPX 111155Z AUTO 25011G16KT 40SM 09/M04 A2994 RMK AO1 T00941038
EKALAKA     |K97M 111155Z AUTO 13005KT 40SM 01/M03 A2993 RMK AO1 T00061032
TWIN BRIDGES|K7S1 111155Z AUTO 14010KT 40SM 03/M05 A3019 RMK AO1 T00281049






000
SXUS55 KMSO 111144
OSOMSO
MONTANA AWOS SUMMARY
NATIONAL WEATHER SERVICE MISSOULA MT
443 AM MST THU FEB 11 2016

Montana AWOS Reports

TWIN BRIDGES|K7S1 111135Z AUTO 19008KT 40SM 03/M05 A3018 RMK AO1 T00331049
ROUNDUP     |KRPX 111135Z AUTO 25012G16KT 40SM 10/M04 A2993 RMK AO1 T01001038






000
SXUS55 KMSO 111144
OSOMSO
MONTANA AWOS SUMMARY
NATIONAL WEATHER SERVICE MISSOULA MT
443 AM MST THU FEB 11 2016

Montana AWOS Reports

TWIN BRIDGES|K7S1 111135Z AUTO 19008KT 40SM 03/M05 A3018 RMK AO1 T00331049
ROUNDUP     |KRPX 111135Z AUTO 25012G16KT 40SM 10/M04 A2993 RMK AO1 T01001038






000
SXUS55 KMSO 111123
OSOMSO
MONTANA AWOS SUMMARY
NATIONAL WEATHER SERVICE MISSOULA MT
423 AM MST THU FEB 11 2016

Montana AWOS Reports

LAUREL      |K6S8 111115Z AUTO 00000KT 40SM 05/M07 A3001 RMK AO1 T00501066
TWIN BRIDGES|K7S1 111115Z AUTO 18008KT 40SM 03/M04 A3018 RMK AO1 T00331043
ROUNDUP     |KRPX 111115Z AUTO 25015KT 40SM 10/M04 A2992 RMK AO1 T01001043






000
SXUS55 KMSO 111113
OSOMSO
MONTANA AWOS SUMMARY
NATIONAL WEATHER SERVICE MISSOULA MT
413 AM MST THU FEB 11 2016

Montana AWOS Reports

LAUREL      |K6S8 111055Z AUTO 00000KT 40SM 06/M07 A3001 RMK AO1 T00611071
EKALAKA     |K97M 111055Z AUTO 13007KT 40SM 01/M02 A2993 RMK AO1 T00061021






000
SXUS55 KMSO 111113
OSOMSO
MONTANA AWOS SUMMARY
NATIONAL WEATHER SERVICE MISSOULA MT
413 AM MST THU FEB 11 2016

Montana AWOS Reports

LAUREL      |K6S8 111055Z AUTO 00000KT 40SM 06/M07 A3001 RMK AO1 T00611071
EKALAKA     |K97M 111055Z AUTO 13007KT 40SM 01/M02 A2993 RMK AO1 T00061021






000
SXUS55 KMSO 111103
OSOMSO
MONTANA AWOS SUMMARY
NATIONAL WEATHER SERVICE MISSOULA MT
403 AM MST THU FEB 11 2016

Montana AWOS Reports

ROUNDUP     |KRPX 111055Z AUTO 25012G17KT 40SM 10/M04 A2991 RMK AO1 T01001043
SCOBEY      |K9S2 111055Z AUTO 34004KT 3/4SM HZ M05/M09 A3000 RMK AO1 T10491088
TWIN BRIDGES|K7S1 111055Z AUTO 16006KT 40SM 04/M05 A3018 RMK AO1 T00391049






000
SXUS55 KMSO 111103
OSOMSO
MONTANA AWOS SUMMARY
NATIONAL WEATHER SERVICE MISSOULA MT
403 AM MST THU FEB 11 2016

Montana AWOS Reports

ROUNDUP     |KRPX 111055Z AUTO 25012G17KT 40SM 10/M04 A2991 RMK AO1 T01001043
SCOBEY      |K9S2 111055Z AUTO 34004KT 3/4SM HZ M05/M09 A3000 RMK AO1 T10491088
TWIN BRIDGES|K7S1 111055Z AUTO 16006KT 40SM 04/M05 A3018 RMK AO1 T00391049






000
SXUS55 KMSO 111053
OSOMSO
MONTANA AWOS SUMMARY
NATIONAL WEATHER SERVICE MISSOULA MT
352 AM MST THU FEB 11 2016

Montana AWOS Reports

TWIN BRIDGES|K7S1 111035Z AUTO 14008KT 40SM 04/M05 A3019 RMK AO1 T00441049
ROUNDUP     |KRPX 111035Z AUTO 24013G22KT 40SM 11/M04 A2991 RMK AO1 T01061043






000
SXUS55 KMSO 111043
OSOMSO
MONTANA AWOS SUMMARY
NATIONAL WEATHER SERVICE MISSOULA MT
343 AM MST THU FEB 11 2016

Montana AWOS Reports

LAUREL      |K6S8 111035Z AUTO 00000KT 40SM 07/M07 A3002 RMK AO1 T00671071






000
SXUS55 KMSO 111043
OSOMSO
MONTANA AWOS SUMMARY
NATIONAL WEATHER SERVICE MISSOULA MT
343 AM MST THU FEB 11 2016

Montana AWOS Reports

LAUREL      |K6S8 111035Z AUTO 00000KT 40SM 07/M07 A3002 RMK AO1 T00671071






000
SXUS55 KMSO 111023
OSOMSO
MONTANA AWOS SUMMARY
NATIONAL WEATHER SERVICE MISSOULA MT
323 AM MST THU FEB 11 2016

Montana AWOS Reports

LAUREL      |K6S8 111015Z AUTO 00000KT 40SM 07/M07 A3002 RMK AO1 T00671066
ROUNDUP     |KRPX 111015Z AUTO 24014G19KT 40SM 11/M05 A2991 RMK AO1 T01111049






000
SXUS55 KMSO 111023
OSOMSO
MONTANA AWOS SUMMARY
NATIONAL WEATHER SERVICE MISSOULA MT
323 AM MST THU FEB 11 2016

Montana AWOS Reports

LAUREL      |K6S8 111015Z AUTO 00000KT 40SM 07/M07 A3002 RMK AO1 T00671066
ROUNDUP     |KRPX 111015Z AUTO 24014G19KT 40SM 11/M05 A2991 RMK AO1 T01111049






000
SXUS55 KMSO 111003
OSOMSO
MONTANA AWOS SUMMARY
NATIONAL WEATHER SERVICE MISSOULA MT
303 AM MST THU FEB 11 2016

Montana AWOS Reports

ROUNDUP     |KRPX 110955Z AUTO 25016G22KT 40SM 11/M05 A2991 RMK AO1 T01111049
SCOBEY      |K9S2 110955Z AUTO 00000KT 1 1/4SM HZ M05/M09 A3001 RMK AO1 T10491093
EKALAKA     |K97M 110955Z AUTO 12009G13KT 25SM M01/M03 A2994 RMK AO1 T10051027
TWIN BRIDGES|K7S1 110955Z AUTO 17006KT 40SM 04/M04 A3019 RMK AO1 T00441043
LAUREL      |K6S8 110955Z AUTO 00000KT 40SM 06/M07 A3002 RMK AO1 T00611071






000
SXUS55 KMSO 110953
OSOMSO
MONTANA AWOS SUMMARY
NATIONAL WEATHER SERVICE MISSOULA MT
252 AM MST THU FEB 11 2016

Montana AWOS Reports

TWIN BRIDGES|K7S1 110935Z AUTO 12008KT 40SM 04/M04 A3019 RMK AO1 T00441043
ROUNDUP     |KRPX 110935Z AUTO 25017G23KT 40SM 11/M05 A2991 RMK AO1 T01111049






000
SXUS55 KMSO 110943
OSOMSO
MONTANA AWOS SUMMARY
NATIONAL WEATHER SERVICE MISSOULA MT
243 AM MST THU FEB 11 2016

Montana AWOS Reports

LAUREL      |K6S8 110935Z AUTO 00000KT 40SM 06/M07 A3002 RMK AO1 T00611071






000
SXUS55 KMSO 110933
OSOMSO
MONTANA AWOS SUMMARY
NATIONAL WEATHER SERVICE MISSOULA MT
233 AM MST THU FEB 11 2016

Montana AWOS Reports

TWIN BRIDGES|K7S1 110915Z AUTO 17006KT 40SM 05/M05 A3019 RMK AO1 T00501049
ROUNDUP     |KRPX 110915Z AUTO 25019G24KT 40SM 11/M05 A2990 RMK AO1 T01111049






000
SXUS55 KMSO 110923
OSOMSO
MONTANA AWOS SUMMARY
NATIONAL WEATHER SERVICE MISSOULA MT
223 AM MST THU FEB 11 2016

Montana AWOS Reports

LAUREL      |K6S8 110915Z AUTO 00000KT 40SM 07/M07 A3001 RMK AO1 T00671066






000
SXUS55 KMSO 110923
OSOMSO
MONTANA AWOS SUMMARY
NATIONAL WEATHER SERVICE MISSOULA MT
223 AM MST THU FEB 11 2016

Montana AWOS Reports

LAUREL      |K6S8 110915Z AUTO 00000KT 40SM 07/M07 A3001 RMK AO1 T00671066






000
SXUS55 KMSO 110903
OSOMSO
MONTANA AWOS SUMMARY
NATIONAL WEATHER SERVICE MISSOULA MT
203 AM MST THU FEB 11 2016

Montana AWOS Reports

TWIN BRIDGES|K7S1 110855Z AUTO 09007KT 40SM 04/M05 A3018 RMK AO1 T00391049
ROUNDUP     |KRPX 110855Z AUTO 25016G22KT 40SM 11/M05 A2990 RMK AO1 T01061049
SCOBEY      |K9S2 110855Z AUTO 34005KT 10SM M04/M08 A3002 RMK AO1 T10431082
PLAINS      |KS34 110855Z AUTO 00000KT 25SM 02/M01 A3022 RMK AO1 T00171010
EKALAKA     |K97M 110855Z AUTO 12008KT 25SM M01/M03 A2997 RMK AO1 T10051027
LAUREL      |K6S8 110855Z AUTO 00000KT 40SM 06/M07 A3001 RMK AO1 T00611071






000
SXUS55 KMSO 110844
OSOMSO
MONTANA AWOS SUMMARY
NATIONAL WEATHER SERVICE MISSOULA MT
143 AM MST THU FEB 11 2016

Montana AWOS Reports

ROUNDUP     |KRPX 110835Z AUTO 25016G22KT 40SM 11/M05 A2989 RMK AO1 T01111049






000
SXUS55 KMSO 110833
OSOMSO
MONTANA AWOS SUMMARY
NATIONAL WEATHER SERVICE MISSOULA MT
133 AM MST THU FEB 11 2016

Montana AWOS Reports

TWIN BRIDGES|K7S1 110815Z AUTO 13006KT 40SM 04/M05 A3018 RMK AO1 T00391049






000
SXUS55 KMSO 110833
OSOMSO
MONTANA AWOS SUMMARY
NATIONAL WEATHER SERVICE MISSOULA MT
133 AM MST THU FEB 11 2016

Montana AWOS Reports

TWIN BRIDGES|K7S1 110815Z AUTO 13006KT 40SM 04/M05 A3018 RMK AO1 T00391049






000
SXUS55 KMSO 110823
OSOMSO
MONTANA AWOS SUMMARY
NATIONAL WEATHER SERVICE MISSOULA MT
123 AM MST THU FEB 11 2016

Montana AWOS Reports

LAUREL      |K6S8 110815Z AUTO 00000KT 40SM 07/M06 A3001 RMK AO1 T00671060
ROUNDUP     |KRPX 110815Z AUTO 25014G19KT 40SM 09/M05 A2989 RMK AO1 T00891049






000
SXUS55 KMSO 110813
OSOMSO
MONTANA AWOS SUMMARY
NATIONAL WEATHER SERVICE MISSOULA MT
113 AM MST THU FEB 11 2016

Montana AWOS Reports

LAUREL      |K6S8 110755Z AUTO 22004KT 40SM 07/M06 A3002 RMK AO1 T00671060






000
SXUS55 KMSO 110803
OSOMSO
MONTANA AWOS SUMMARY
NATIONAL WEATHER SERVICE MISSOULA MT
103 AM MST THU FEB 11 2016

Montana AWOS Reports

LAUREL      |K6S8 110755Z AUTO 22004KT 40SM 07/M06 A3002 RMK AO1 T00671060
TWIN BRIDGES|K7S1 110755Z AUTO 11005KT 40SM 03/M04 A3018 RMK AO1 T00281043
ROUNDUP     |KRPX 110755Z AUTO 00000KT 40SM 05/M04 A2990 RMK AO1 T00501043
MALTA       |KM75 110755Z AUTO 40SM A2998 RMK AO1 T0006155727
PLAINS      |KS34 110755Z AUTO 00000KT 25SM 03/01 A3021 RMK AO1 T00280006
SCOBEY      |K9S2 110755Z AUTO 00000KT 15SM M04/M08 A3004 RMK AO1 T10381077
EKALAKA     |K97M 110755Z AUTO 11007KT 25SM M01/M03 A2999 RMK AO1 T10101032






000
SXUS55 KMSO 110743
OSOMSO
MONTANA AWOS SUMMARY
NATIONAL WEATHER SERVICE MISSOULA MT
1243 AM MST THU FEB 11 2016

Montana AWOS Reports

ROUNDUP     |KRPX 110735Z AUTO 00000KT 40SM 04/M04 A2991 RMK AO1 T00441043






000
SXUS55 KMSO 110724
OSOMSO
MONTANA AWOS SUMMARY
NATIONAL WEATHER SERVICE MISSOULA MT
1223 AM MST THU FEB 11 2016

Montana AWOS Reports

ROUNDUP     |KRPX 110715Z AUTO 00000KT 40SM 04/M04 A2992 RMK AO1 T00391038






000
SXUS55 KMSO 110724
OSOMSO
MONTANA AWOS SUMMARY
NATIONAL WEATHER SERVICE MISSOULA MT
1223 AM MST THU FEB 11 2016

Montana AWOS Reports

ROUNDUP     |KRPX 110715Z AUTO 00000KT 40SM 04/M04 A2992 RMK AO1 T00391038






000
SXUS55 KMSO 110713
OSOMSO
MONTANA AWOS SUMMARY
NATIONAL WEATHER SERVICE MISSOULA MT
1213 AM MST THU FEB 11 2016

Montana AWOS Reports

LAUREL      |K6S8 110655Z AUTO 00000KT 40SM 07/M06 A3003 RMK AO1 T00721060






000
SXUS55 KMSO 110713
OSOMSO
MONTANA AWOS SUMMARY
NATIONAL WEATHER SERVICE MISSOULA MT
1213 AM MST THU FEB 11 2016

Montana AWOS Reports

LAUREL      |K6S8 110655Z AUTO 00000KT 40SM 07/M06 A3003 RMK AO1 T00721060






000
SXUS55 KMSO 110704
OSOMSO
MONTANA AWOS SUMMARY
NATIONAL WEATHER SERVICE MISSOULA MT
1203 AM MST THU FEB 11 2016

Montana AWOS Reports

LAUREL      |K6S8 110655Z AUTO 00000KT 40SM 07/M06 A3003 RMK AO1 T00721060
TWIN BRIDGES|K7S1 110655Z AUTO 11010G16KT 40SM 04/M04 A3019 RMK AO1 T00391043
PLAINS      |KS34 110655Z AUTO 00000KT 15SM 02/00 A3023 RMK AO1 T00220000
SCOBEY      |K9S2 110655Z AUTO 00000KT 15SM M04/M08 A3006 RMK AO1 T10381077
EKALAKA     |K97M 110655Z AUTO 12006KT 15SM M02/M04 A3002 RMK AO1 T10161038






000
SXUS55 KMSO 110704
OSOMSO
MONTANA AWOS SUMMARY
NATIONAL WEATHER SERVICE MISSOULA MT
1203 AM MST THU FEB 11 2016

Montana AWOS Reports

LAUREL      |K6S8 110655Z AUTO 00000KT 40SM 07/M06 A3003 RMK AO1 T00721060
TWIN BRIDGES|K7S1 110655Z AUTO 11010G16KT 40SM 04/M04 A3019 RMK AO1 T00391043
PLAINS      |KS34 110655Z AUTO 00000KT 15SM 02/00 A3023 RMK AO1 T00220000
SCOBEY      |K9S2 110655Z AUTO 00000KT 15SM M04/M08 A3006 RMK AO1 T10381077
EKALAKA     |K97M 110655Z AUTO 12006KT 15SM M02/M04 A3002 RMK AO1 T10161038






000
SXUS55 KMSO 110643
OSOMSO
MONTANA AWOS SUMMARY
NATIONAL WEATHER SERVICE MISSOULA MT
1143 PM MST WED FEB 10 2016

Montana AWOS Reports

LAUREL      |K6S8 110635Z AUTO 21009KT 40SM 07/M06 A3003 RMK AO1 T00721060
ROUNDUP     |KRPX 110635Z AUTO 00000KT 40SM 03/M04 A2993 RMK AO1 T00331038






000
SXUS55 KMSO 110643
OSOMSO
MONTANA AWOS SUMMARY
NATIONAL WEATHER SERVICE MISSOULA MT
1143 PM MST WED FEB 10 2016

Montana AWOS Reports

LAUREL      |K6S8 110635Z AUTO 21009KT 40SM 07/M06 A3003 RMK AO1 T00721060
ROUNDUP     |KRPX 110635Z AUTO 00000KT 40SM 03/M04 A2993 RMK AO1 T00331038






000
SXUS55 KMSO 110624
OSOMSO
MONTANA AWOS SUMMARY
NATIONAL WEATHER SERVICE MISSOULA MT
1123 PM MST WED FEB 10 2016

Montana AWOS Reports

LAUREL      |K6S8 110615Z AUTO 00000KT 40SM 07/M06 A3003 RMK AO1 T00721060
ROUNDUP     |KRPX 110615Z AUTO 00000KT 40SM 03/M04 A2994 RMK AO1 T00281038
TWIN BRIDGES|K7S1 110615Z AUTO 11009KT 40SM 03/M05 A3019 RMK AO1 T00281049






000
SXUS55 KMSO 110624
OSOMSO
MONTANA AWOS SUMMARY
NATIONAL WEATHER SERVICE MISSOULA MT
1123 PM MST WED FEB 10 2016

Montana AWOS Reports

LAUREL      |K6S8 110615Z AUTO 00000KT 40SM 07/M06 A3003 RMK AO1 T00721060
ROUNDUP     |KRPX 110615Z AUTO 00000KT 40SM 03/M04 A2994 RMK AO1 T00281038
TWIN BRIDGES|K7S1 110615Z AUTO 11009KT 40SM 03/M05 A3019 RMK AO1 T00281049






000
SXUS55 KMSO 110613
OSOMSO
MONTANA AWOS SUMMARY
NATIONAL WEATHER SERVICE MISSOULA MT
1113 PM MST WED FEB 10 2016

Montana AWOS Reports

EKALAKA     |K97M 110555Z AUTO 13005KT 15SM M02/M04 A3003 RMK AO1 T10161038
LAUREL      |K6S8 110555Z AUTO 21006KT 40SM 07/M06 A3004 RMK AO1 T00721060






000
SXUS55 KMSO 110613
OSOMSO
MONTANA AWOS SUMMARY
NATIONAL WEATHER SERVICE MISSOULA MT
1113 PM MST WED FEB 10 2016

Montana AWOS Reports

EKALAKA     |K97M 110555Z AUTO 13005KT 15SM M02/M04 A3003 RMK AO1 T10161038
LAUREL      |K6S8 110555Z AUTO 21006KT 40SM 07/M06 A3004 RMK AO1 T00721060






000
SXUS55 KMSO 110604
OSOMSO
MONTANA AWOS SUMMARY
NATIONAL WEATHER SERVICE MISSOULA MT
1103 PM MST WED FEB 10 2016

Montana AWOS Reports

LAUREL      |K6S8 110555Z AUTO 21006KT 40SM 07/M06 A3004 RMK AO1 T00721060
PLAINS      |KS34 110555Z AUTO 00000KT 15SM 02/M01 A3021 RMK AO1 T00221005
TWIN BRIDGES|K7S1 110555Z AUTO 09008KT 40SM 02/M04 A3019 RMK AO1 T00221043






000
SXUS55 KMSO 110604
OSOMSO
MONTANA AWOS SUMMARY
NATIONAL WEATHER SERVICE MISSOULA MT
1103 PM MST WED FEB 10 2016

Montana AWOS Reports

LAUREL      |K6S8 110555Z AUTO 21006KT 40SM 07/M06 A3004 RMK AO1 T00721060
PLAINS      |KS34 110555Z AUTO 00000KT 15SM 02/M01 A3021 RMK AO1 T00221005
TWIN BRIDGES|K7S1 110555Z AUTO 09008KT 40SM 02/M04 A3019 RMK AO1 T00221043






000
SXUS55 KMSO 110543
OSOMSO
MONTANA AWOS SUMMARY
NATIONAL WEATHER SERVICE MISSOULA MT
1043 PM MST WED FEB 10 2016

Montana AWOS Reports

LAUREL      |K6S8 110535Z AUTO 00000KT 40SM 08/M06 A3004 RMK AO1 T00781060
TWIN BRIDGES|K7S1 110535Z AUTO 11007KT 40SM 02/M04 A3019 RMK AO1 T00221043






000
SXUS55 KMSO 110523
OSOMSO
MONTANA AWOS SUMMARY
NATIONAL WEATHER SERVICE MISSOULA MT
1023 PM MST WED FEB 10 2016

Montana AWOS Reports

LAUREL      |K6S8 110515Z AUTO 00000KT 40SM 09/M06 A3005 RMK AO1 T00941060






000
SXUS55 KMSO 110523
OSOMSO
MONTANA AWOS SUMMARY
NATIONAL WEATHER SERVICE MISSOULA MT
1023 PM MST WED FEB 10 2016

Montana AWOS Reports

LAUREL      |K6S8 110515Z AUTO 00000KT 40SM 09/M06 A3005 RMK AO1 T00941060






000
SXUS55 KMSO 110513
OSOMSO
MONTANA AWOS SUMMARY
NATIONAL WEATHER SERVICE MISSOULA MT
1012 PM MST WED FEB 10 2016

Montana AWOS Reports

SCOBEY      |K9S2 110455Z AUTO 00000KT 15SM M04/M08 A3008 RMK AO1 T10381082
LAUREL      |K6S8 110455Z AUTO 00000KT 40SM 08/M07 A3005 RMK AO1 T00781066






000
SXUS55 KMSO 110513
OSOMSO
MONTANA AWOS SUMMARY
NATIONAL WEATHER SERVICE MISSOULA MT
1012 PM MST WED FEB 10 2016

Montana AWOS Reports

SCOBEY      |K9S2 110455Z AUTO 00000KT 15SM M04/M08 A3008 RMK AO1 T10381082
LAUREL      |K6S8 110455Z AUTO 00000KT 40SM 08/M07 A3005 RMK AO1 T00781066






000
SXUS55 KMSO 110503
OSOMSO
MONTANA AWOS SUMMARY
NATIONAL WEATHER SERVICE MISSOULA MT
1003 PM MST WED FEB 10 2016

Montana AWOS Reports

LAUREL      |K6S8 110455Z AUTO 00000KT 40SM 08/M07 A3005 RMK AO1 T00781066
ROUNDUP     |KRPX 110455Z AUTO 00000KT 40SM 03/M04 A2996 RMK AO1 T00281038
TWIN BRIDGES|K7S1 110455Z AUTO 09009KT 40SM 02/M04 A3018 RMK AO1 T00221043
PLAINS      |KS34 110455Z AUTO 00000KT 15SM 03/00 A3021 RMK AO1 T00280000






000
SXUS55 KMSO 110503
OSOMSO
MONTANA AWOS SUMMARY
NATIONAL WEATHER SERVICE MISSOULA MT
1003 PM MST WED FEB 10 2016

Montana AWOS Reports

LAUREL      |K6S8 110455Z AUTO 00000KT 40SM 08/M07 A3005 RMK AO1 T00781066
ROUNDUP     |KRPX 110455Z AUTO 00000KT 40SM 03/M04 A2996 RMK AO1 T00281038
TWIN BRIDGES|K7S1 110455Z AUTO 09009KT 40SM 02/M04 A3018 RMK AO1 T00221043
PLAINS      |KS34 110455Z AUTO 00000KT 15SM 03/00 A3021 RMK AO1 T00280000






000
SXUS55 KMSO 110443
OSOMSO
MONTANA AWOS SUMMARY
NATIONAL WEATHER SERVICE MISSOULA MT
943 PM MST WED FEB 10 2016

Montana AWOS Reports

LAUREL      |K6S8 110435Z AUTO 00000KT 40SM 08/M07 A3006 RMK AO1 T00781066
ROUNDUP     |KRPX 110435Z AUTO 00000KT 40SM 04/M04 A2996 RMK AO1 T00391038
TWIN BRIDGES|K7S1 110435Z AUTO 11008KT 40SM 03/M04 A3018 RMK AO1 T00281038






000
SXUS55 KMSO 110423
OSOMSO
MONTANA AWOS SUMMARY
NATIONAL WEATHER SERVICE MISSOULA MT
923 PM MST WED FEB 10 2016

Montana AWOS Reports

ROUNDUP     |KRPX 110415Z AUTO 00000KT 40SM 04/M04 A2996 RMK AO1 T00441038
LAUREL      |K6S8 110415Z AUTO 00000KT 40SM 07/M07 A3006 RMK AO1 T00721071






000
SXUS55 KMSO 110413
OSOMSO
MONTANA AWOS SUMMARY
NATIONAL WEATHER SERVICE MISSOULA MT
913 PM MST WED FEB 10 2016

Montana AWOS Reports

PLAINS      |KS34 110355Z AUTO 00000KT 25SM 03/01 A3021 RMK AO1 T00330006
SCOBEY      |K9S2 110355Z AUTO 34005KT 15SM M03/M07 A3009 RMK AO1 T10321071
EKALAKA     |K97M 110355Z AUTO 00000KT 25SM M02/M04 A3005 RMK AO1 T10161043






000
SXUS55 KMSO 110403
OSOMSO
MONTANA AWOS SUMMARY
NATIONAL WEATHER SERVICE MISSOULA MT
903 PM MST WED FEB 10 2016

Montana AWOS Reports

ROUNDUP     |KRPX 110355Z AUTO 00000KT 40SM 04/M04 A2997 RMK AO1 T00391043
LAUREL      |K6S8 110355Z AUTO 00000KT 40SM 08/M07 A3006 RMK AO1 T00831071






000
SXUS55 KMSO 110353
OSOMSO
MONTANA AWOS SUMMARY
NATIONAL WEATHER SERVICE MISSOULA MT
852 PM MST WED FEB 10 2016

Montana AWOS Reports

LAUREL      |K6S8 110335Z AUTO 00000KT 40SM 09/M06 A3006 RMK AO1 T00941060
TWIN BRIDGES|K7S1 110335Z AUTO 11006KT 40SM 03/M03 A3018 RMK AO1 T00331032
ROUNDUP     |KRPX 110335Z AUTO 00000KT 40SM 03/M05 A2997 RMK AO1 T00281049
EKALAKA     |K97M 110255Z AUTO 00000KT 40SM M01/M03 A3007 RMK AO1 T10051032






000
SXUS55 KMSO 110323
OSOMSO
MONTANA AWOS SUMMARY
NATIONAL WEATHER SERVICE MISSOULA MT
823 PM MST WED FEB 10 2016

Montana AWOS Reports

ROUNDUP     |KRPX 110315Z AUTO 00000KT 40SM 04/M04 A2997 RMK AO1 T00441038
LAUREL      |K6S8 110315Z AUTO 00000KT 40SM 11/M07 A3006 RMK AO1 T01061071






000
SXUS55 KMSO 110313
OSOMSO
MONTANA AWOS SUMMARY
NATIONAL WEATHER SERVICE MISSOULA MT
813 PM MST WED FEB 10 2016

Montana AWOS Reports

LAUREL      |K6S8 110255Z AUTO 00000KT 40SM 11/M07 A3005 RMK AO1 T01061071






000
SXUS55 KMSO 110304
OSOMSO
MONTANA AWOS SUMMARY
NATIONAL WEATHER SERVICE MISSOULA MT
803 PM MST WED FEB 10 2016

Montana AWOS Reports

LAUREL      |K6S8 110255Z AUTO 00000KT 40SM 11/M07 A3005 RMK AO1 T01061071
TWIN BRIDGES|K7S1 110255Z AUTO 12009KT 40SM 04/M03 A3018 RMK AO1 T00391032
SCOBEY      |K9S2 110255Z AUTO 34005KT 15SM M03/M08 A3010 RMK AO1 T10321077
PLAINS      |KS34 110255Z AUTO 00000KT 25SM 03/00 A3021 RMK AO1 T00280000






000
SXUS55 KMSO 110304
OSOMSO
MONTANA AWOS SUMMARY
NATIONAL WEATHER SERVICE MISSOULA MT
803 PM MST WED FEB 10 2016

Montana AWOS Reports

LAUREL      |K6S8 110255Z AUTO 00000KT 40SM 11/M07 A3005 RMK AO1 T01061071
TWIN BRIDGES|K7S1 110255Z AUTO 12009KT 40SM 04/M03 A3018 RMK AO1 T00391032
SCOBEY      |K9S2 110255Z AUTO 34005KT 15SM M03/M08 A3010 RMK AO1 T10321077
PLAINS      |KS34 110255Z AUTO 00000KT 25SM 03/00 A3021 RMK AO1 T00280000






000
SXUS55 KMSO 110243
OSOMSO
MONTANA AWOS SUMMARY
NATIONAL WEATHER SERVICE MISSOULA MT
743 PM MST WED FEB 10 2016

Montana AWOS Reports

LAUREL      |K6S8 110235Z AUTO 00000KT 40SM 10/M07 A3005 RMK AO1 T01001071
ROUNDUP     |KRPX 110235Z AUTO 00000KT 40SM 04/M04 A2998 RMK AO1 T00441043






000
SXUS55 KMSO 110223
OSOMSO
MONTANA AWOS SUMMARY
NATIONAL WEATHER SERVICE MISSOULA MT
723 PM MST WED FEB 10 2016

Montana AWOS Reports

ROUNDUP     |KRPX 110215Z AUTO 00000KT 40SM 04/M04 A2998 RMK AO1 T00441043
LAUREL      |K6S8 110215Z AUTO 00000KT 40SM 09/M08 A3006 RMK AO1 T00891077
TWIN BRIDGES|K7S1 110215Z AUTO 11005KT 40SM 02/M04 A3019 RMK AO1 T00221038
MALTA       |KM75 110215Z AUTO 25SM A3008 RMK AO1 T1027155727






000
SXUS55 KMSO 110223
OSOMSO
MONTANA AWOS SUMMARY
NATIONAL WEATHER SERVICE MISSOULA MT
723 PM MST WED FEB 10 2016

Montana AWOS Reports

ROUNDUP     |KRPX 110215Z AUTO 00000KT 40SM 04/M04 A2998 RMK AO1 T00441043
LAUREL      |K6S8 110215Z AUTO 00000KT 40SM 09/M08 A3006 RMK AO1 T00891077
TWIN BRIDGES|K7S1 110215Z AUTO 11005KT 40SM 02/M04 A3019 RMK AO1 T00221038
MALTA       |KM75 110215Z AUTO 25SM A3008 RMK AO1 T1027155727






000
SXUS55 KMSO 110213
OSOMSO
MONTANA AWOS SUMMARY
NATIONAL WEATHER SERVICE MISSOULA MT
712 PM MST WED FEB 10 2016

Montana AWOS Reports

SCOBEY      |K9S2 110155Z AUTO 00000KT 25SM M03/M08 A3011 RMK AO1 T10271077
LAUREL      |K6S8 110155Z AUTO 00000KT 40SM 09/M07 A3006 RMK AO1 T00891071
PLAINS      |KS34 110155Z AUTO 00000KT 25SM 03/M01 A3021 RMK AO1 T00331005
TWIN BRIDGES|K7S1 110155Z AUTO 09005KT 40SM 02/M04 A3019 RMK AO1 T00171043






000
SXUS55 KMSO 110213
OSOMSO
MONTANA AWOS SUMMARY
NATIONAL WEATHER SERVICE MISSOULA MT
712 PM MST WED FEB 10 2016

Montana AWOS Reports

SCOBEY      |K9S2 110155Z AUTO 00000KT 25SM M03/M08 A3011 RMK AO1 T10271077
LAUREL      |K6S8 110155Z AUTO 00000KT 40SM 09/M07 A3006 RMK AO1 T00891071
PLAINS      |KS34 110155Z AUTO 00000KT 25SM 03/M01 A3021 RMK AO1 T00331005
TWIN BRIDGES|K7S1 110155Z AUTO 09005KT 40SM 02/M04 A3019 RMK AO1 T00171043






000
SXUS55 KMSO 110203
OSOMSO
MONTANA AWOS SUMMARY
NATIONAL WEATHER SERVICE MISSOULA MT
703 PM MST WED FEB 10 2016

Montana AWOS Reports

LAUREL      |K6S8 110155Z AUTO 00000KT 40SM 09/M07 A3006 RMK AO1 T00891071
MALTA       |KM75 110155Z AUTO 25SM A3008 RMK AO1 T1027155727






000
SXUS55 KMSO 110203
OSOMSO
MONTANA AWOS SUMMARY
NATIONAL WEATHER SERVICE MISSOULA MT
703 PM MST WED FEB 10 2016

Montana AWOS Reports

LAUREL      |K6S8 110155Z AUTO 00000KT 40SM 09/M07 A3006 RMK AO1 T00891071
MALTA       |KM75 110155Z AUTO 25SM A3008 RMK AO1 T1027155727






000
SXUS55 KMSO 110144
OSOMSO
MONTANA AWOS SUMMARY
NATIONAL WEATHER SERVICE MISSOULA MT
643 PM MST WED FEB 10 2016

Montana AWOS Reports

LAUREL      |K6S8 110135Z AUTO 00000KT 40SM 09/M07 A3007 RMK AO1 T00891071
ROUNDUP     |KRPX 110135Z AUTO 00000KT 40SM 06/M04 A2999 RMK AO1 T00611043






000
SXUS55 KMSO 110144
OSOMSO
MONTANA AWOS SUMMARY
NATIONAL WEATHER SERVICE MISSOULA MT
643 PM MST WED FEB 10 2016

Montana AWOS Reports

LAUREL      |K6S8 110135Z AUTO 00000KT 40SM 09/M07 A3007 RMK AO1 T00891071
ROUNDUP     |KRPX 110135Z AUTO 00000KT 40SM 06/M04 A2999 RMK AO1 T00611043






000
SXUS55 KMSO 110123
OSOMSO
MONTANA AWOS SUMMARY
NATIONAL WEATHER SERVICE MISSOULA MT
623 PM MST WED FEB 10 2016

Montana AWOS Reports

ROUNDUP     |KRPX 110115Z AUTO 00000KT 40SM 07/M04 A3000 RMK AO1 T00721043
LAUREL      |K6S8 110115Z AUTO 00000KT 40SM 11/M07 A3008 RMK AO1 T01061066
TWIN BRIDGES|K7S1 110115Z AUTO 11005KT 40SM 02/M03 A3018 RMK AO1 T00221032






000
SXUS55 KMSO 110123
OSOMSO
MONTANA AWOS SUMMARY
NATIONAL WEATHER SERVICE MISSOULA MT
623 PM MST WED FEB 10 2016

Montana AWOS Reports

ROUNDUP     |KRPX 110115Z AUTO 00000KT 40SM 07/M04 A3000 RMK AO1 T00721043
LAUREL      |K6S8 110115Z AUTO 00000KT 40SM 11/M07 A3008 RMK AO1 T01061066
TWIN BRIDGES|K7S1 110115Z AUTO 11005KT 40SM 02/M03 A3018 RMK AO1 T00221032






000
SXUS55 KMSO 110114
OSOMSO
MONTANA AWOS SUMMARY
NATIONAL WEATHER SERVICE MISSOULA MT
613 PM MST WED FEB 10 2016

Montana AWOS Reports

LAUREL      |K6S8 110055Z AUTO 00000KT 40SM 10/M07 A3008 RMK AO1 T01001066
SCOBEY      |K9S2 110055Z AUTO 00000KT 25SM M02/M07 A3009 RMK AO1 T10211071






000
SXUS55 KMSO 110114
OSOMSO
MONTANA AWOS SUMMARY
NATIONAL WEATHER SERVICE MISSOULA MT
613 PM MST WED FEB 10 2016

Montana AWOS Reports

LAUREL      |K6S8 110055Z AUTO 00000KT 40SM 10/M07 A3008 RMK AO1 T01001066
SCOBEY      |K9S2 110055Z AUTO 00000KT 25SM M02/M07 A3009 RMK AO1 T10211071






000
SXUS55 KMSO 110103
OSOMSO
MONTANA AWOS SUMMARY
NATIONAL WEATHER SERVICE MISSOULA MT
603 PM MST WED FEB 10 2016

Montana AWOS Reports

ROUNDUP     |KRPX 110055Z AUTO 00000KT 40SM 07/M04 A3000 RMK AO1 T00721043






000
SXUS55 KMSO 110103
OSOMSO
MONTANA AWOS SUMMARY
NATIONAL WEATHER SERVICE MISSOULA MT
603 PM MST WED FEB 10 2016

Montana AWOS Reports

ROUNDUP     |KRPX 110055Z AUTO 00000KT 40SM 07/M04 A3000 RMK AO1 T00721043






000
SXUS55 KMSO 110044
OSOMSO
MONTANA AWOS SUMMARY
NATIONAL WEATHER SERVICE MISSOULA MT
543 PM MST WED FEB 10 2016

Montana AWOS Reports

LAUREL      |K6S8 110035Z AUTO 00000KT 40SM 11/M07 A3007 RMK AO1 T01061066
TWIN BRIDGES|K7S1 110035Z AUTO 00000KT 40SM 03/M04 A3018 RMK AO1 T00331038






000
SXUS55 KMSO 110044
OSOMSO
MONTANA AWOS SUMMARY
NATIONAL WEATHER SERVICE MISSOULA MT
543 PM MST WED FEB 10 2016

Montana AWOS Reports

LAUREL      |K6S8 110035Z AUTO 00000KT 40SM 11/M07 A3007 RMK AO1 T01061066
TWIN BRIDGES|K7S1 110035Z AUTO 00000KT 40SM 03/M04 A3018 RMK AO1 T00331038






000
SXUS55 KMSO 110023
OSOMSO
MONTANA AWOS SUMMARY
NATIONAL WEATHER SERVICE MISSOULA MT
523 PM MST WED FEB 10 2016

Montana AWOS Reports

LAUREL      |K6S8 110015Z AUTO 00000KT 40SM 13/M06 A3007 RMK AO1 T01281060
ROUNDUP     |KRPX 110015Z AUTO 00000KT 40SM 09/M04 A2999 RMK AO1 T00891038






000
SXUS55 KMSO 110023
OSOMSO
MONTANA AWOS SUMMARY
NATIONAL WEATHER SERVICE MISSOULA MT
523 PM MST WED FEB 10 2016

Montana AWOS Reports

LAUREL      |K6S8 110015Z AUTO 00000KT 40SM 13/M06 A3007 RMK AO1 T01281060
ROUNDUP     |KRPX 110015Z AUTO 00000KT 40SM 09/M04 A2999 RMK AO1 T00891038






000
SXUS55 KMSO 110003
OSOMSO
MONTANA AWOS SUMMARY
NATIONAL WEATHER SERVICE MISSOULA MT
503 PM MST WED FEB 10 2016

Montana AWOS Reports

LAUREL      |K6S8 102355Z AUTO 28006KT 40SM 15/M06 A3007 RMK AO1 T01501060
ROUNDUP     |KRPX 102355Z AUTO 05005KT 40SM 11/M03 A2998 RMK AO1 T01111032
PLAINS      |KS34 102355Z AUTO 00000KT 25SM 07/01 A3021 RMK AO1 T00670011
TWIN BRIDGES|K7S1 102355Z AUTO VRB04KT 40SM 04/M03 A3019 RMK AO1 T00391027
SCOBEY      |K9S2 102355Z AUTO 34011G15KT 40SM M01/M07 A3009 RMK AO1 T10101071






000
SXUS55 KMSO 110003
OSOMSO
MONTANA AWOS SUMMARY
NATIONAL WEATHER SERVICE MISSOULA MT
503 PM MST WED FEB 10 2016

Montana AWOS Reports

LAUREL      |K6S8 102355Z AUTO 28006KT 40SM 15/M06 A3007 RMK AO1 T01501060
ROUNDUP     |KRPX 102355Z AUTO 05005KT 40SM 11/M03 A2998 RMK AO1 T01111032
PLAINS      |KS34 102355Z AUTO 00000KT 25SM 07/01 A3021 RMK AO1 T00670011
TWIN BRIDGES|K7S1 102355Z AUTO VRB04KT 40SM 04/M03 A3019 RMK AO1 T00391027
SCOBEY      |K9S2 102355Z AUTO 34011G15KT 40SM M01/M07 A3009 RMK AO1 T10101071






000
SXUS55 KMSO 102353
OSOMSO
MONTANA AWOS SUMMARY
NATIONAL WEATHER SERVICE MISSOULA MT
453 PM MST WED FEB 10 2016

Montana AWOS Reports

LAUREL      |K6S8 102335Z AUTO 29005KT 40SM 16/M06 A3007 RMK AO1 T01611060
TWIN BRIDGES|K7S1 102335Z AUTO 07006KT 40SM 03/M03 A3019 RMK AO1 T00331027






000
SXUS55 KMSO 102353
OSOMSO
MONTANA AWOS SUMMARY
NATIONAL WEATHER SERVICE MISSOULA MT
453 PM MST WED FEB 10 2016

Montana AWOS Reports

LAUREL      |K6S8 102335Z AUTO 29005KT 40SM 16/M06 A3007 RMK AO1 T01611060
TWIN BRIDGES|K7S1 102335Z AUTO 07006KT 40SM 03/M03 A3019 RMK AO1 T00331027






000
SXUS55 KMSO 102343
OSOMSO
MONTANA AWOS SUMMARY
NATIONAL WEATHER SERVICE MISSOULA MT
443 PM MST WED FEB 10 2016

Montana AWOS Reports

ROUNDUP     |KRPX 102335Z AUTO 06006KT 40SM 12/M03 A2998 RMK AO1 T01171032






000
SXUS55 KMSO 102343
OSOMSO
MONTANA AWOS SUMMARY
NATIONAL WEATHER SERVICE MISSOULA MT
443 PM MST WED FEB 10 2016

Montana AWOS Reports

ROUNDUP     |KRPX 102335Z AUTO 06006KT 40SM 12/M03 A2998 RMK AO1 T01171032






000
SXUS55 KMSO 102323
OSOMSO
MONTANA AWOS SUMMARY
NATIONAL WEATHER SERVICE MISSOULA MT
423 PM MST WED FEB 10 2016

Montana AWOS Reports

ROUNDUP     |KRPX 102315Z AUTO 00000KT 40SM 12/M04 A2998 RMK AO1 T01221038
LAUREL      |K6S8 102315Z AUTO 31008KT 40SM 17/M06 A3007 RMK AO1 T01671055






000
SXUS55 KMSO 102323
OSOMSO
MONTANA AWOS SUMMARY
NATIONAL WEATHER SERVICE MISSOULA MT
423 PM MST WED FEB 10 2016

Montana AWOS Reports

ROUNDUP     |KRPX 102315Z AUTO 00000KT 40SM 12/M04 A2998 RMK AO1 T01221038
LAUREL      |K6S8 102315Z AUTO 31008KT 40SM 17/M06 A3007 RMK AO1 T01671055






000
SXUS55 KMSO 102313
OSOMSO
MONTANA AWOS SUMMARY
NATIONAL WEATHER SERVICE MISSOULA MT
413 PM MST WED FEB 10 2016

Montana AWOS Reports

EKALAKA     |K97M 102255Z AUTO 34010G15KT 40SM 07/M02 A3002 RMK AO1 T00721021
LAUREL      |K6S8 102255Z AUTO 30005KT 40SM 17/M06 A3007 RMK AO1 T01671060






000
SXUS55 KMSO 102313
OSOMSO
MONTANA AWOS SUMMARY
NATIONAL WEATHER SERVICE MISSOULA MT
413 PM MST WED FEB 10 2016

Montana AWOS Reports

EKALAKA     |K97M 102255Z AUTO 34010G15KT 40SM 07/M02 A3002 RMK AO1 T00721021
LAUREL      |K6S8 102255Z AUTO 30005KT 40SM 17/M06 A3007 RMK AO1 T01671060






000
SXUS55 KMSO 102303
OSOMSO
MONTANA AWOS SUMMARY
NATIONAL WEATHER SERVICE MISSOULA MT
403 PM MST WED FEB 10 2016

Montana AWOS Reports

LAUREL      |K6S8 102255Z AUTO 30005KT 40SM 17/M06 A3007 RMK AO1 T01671060
TWIN BRIDGES|K7S1 102255Z AUTO 00000KT 40SM 04/M03 A3019 RMK AO1 T00391027
SCOBEY      |K9S2 102255Z AUTO 34011G18KT 40SM M01/M07 A3009 RMK AO1 T10101071
PLAINS      |KS34 102255Z AUTO 00000KT 40SM 07/02 A3018 RMK AO1 T00670017






000
SXUS55 KMSO 102303
OSOMSO
MONTANA AWOS SUMMARY
NATIONAL WEATHER SERVICE MISSOULA MT
403 PM MST WED FEB 10 2016

Montana AWOS Reports

LAUREL      |K6S8 102255Z AUTO 30005KT 40SM 17/M06 A3007 RMK AO1 T01671060
TWIN BRIDGES|K7S1 102255Z AUTO 00000KT 40SM 04/M03 A3019 RMK AO1 T00391027
SCOBEY      |K9S2 102255Z AUTO 34011G18KT 40SM M01/M07 A3009 RMK AO1 T10101071
PLAINS      |KS34 102255Z AUTO 00000KT 40SM 07/02 A3018 RMK AO1 T00670017






000
SXUS55 KMSO 102243
OSOMSO
MONTANA AWOS SUMMARY
NATIONAL WEATHER SERVICE MISSOULA MT
343 PM MST WED FEB 10 2016

Montana AWOS Reports

LAUREL      |K6S8 102235Z AUTO 27013G19KT 40SM 18/M06 A3006 RMK AO1 T01781055
TWIN BRIDGES|K7S1 102235Z AUTO 06005KT 40SM 03/M03 A3019 RMK AO1 T00331027






000
SXUS55 KMSO 102233
OSOMSO
MONTANA AWOS SUMMARY
NATIONAL WEATHER SERVICE MISSOULA MT
332 PM MST WED FEB 10 2016

Montana AWOS Reports

TWIN BRIDGES|K7S1 102215Z AUTO 00000KT 40SM 04/M03 A3020 RMK AO1 T00441027






000
SXUS55 KMSO 102223
OSOMSO
MONTANA AWOS SUMMARY
NATIONAL WEATHER SERVICE MISSOULA MT
322 PM MST WED FEB 10 2016

Montana AWOS Reports

EKALAKA     |K97M 102155Z AUTO 32011G16KT 40SM 09/M03 A3000 RMK AO1 T00891027
LAUREL      |K6S8 102215Z AUTO 25014G20KT 40SM 18/M05 A3006 RMK AO1 T01781049
ROUNDUP     |KRPX 102215Z AUTO 00000KT 40SM 14/M04 A2999 RMK AO1 T01391043






000
SXUS55 KMSO 102213
OSOMSO
MONTANA AWOS SUMMARY
NATIONAL WEATHER SERVICE MISSOULA MT
313 PM MST WED FEB 10 2016

Montana AWOS Reports

LAUREL      |K6S8 102155Z AUTO 27014G19KT 40SM 18/M06 A3005 RMK AO1 T01781055






000
SXUS55 KMSO 102203
OSOMSO
MONTANA AWOS SUMMARY
NATIONAL WEATHER SERVICE MISSOULA MT
302 PM MST WED FEB 10 2016

Montana AWOS Reports

LAUREL      |K6S8 102155Z AUTO 27014G19KT 40SM 18/M06 A3005 RMK AO1 T01781055
ROUNDUP     |KRPX 102155Z AUTO 17009G15KT 080V260 40SM 14/M04 A2998 RMK AO1 T01391043
PLAINS      |KS34 102155Z AUTO 00000KT 40SM 05/02 A3020 RMK AO1 T00500022
SCOBEY      |K9S2 102155Z AUTO 32012G19KT 40SM M01/M06 A3008 RMK AO1 T10051060
TWIN BRIDGES|K7S1 102155Z AUTO 23007KT 40SM 05/M03 A3019 RMK AO1 T00501032






000
SXUS55 KMSO 102143
OSOMSO
MONTANA AWOS SUMMARY
NATIONAL WEATHER SERVICE MISSOULA MT
243 PM MST WED FEB 10 2016

Montana AWOS Reports

LAUREL      |K6S8 102135Z AUTO 28011G16KT 40SM 19/M06 A3005 RMK AO1 T01891055
ROUNDUP     |KRPX 102135Z AUTO 34009G14KT 40SM 14/M04 A2998 RMK AO1 T01441043






000
SXUS55 KMSO 102124
OSOMSO
MONTANA AWOS SUMMARY
NATIONAL WEATHER SERVICE MISSOULA MT
223 PM MST WED FEB 10 2016

Montana AWOS Reports

LAUREL      |K6S8 102115Z AUTO 27014G23KT 40SM 19/M06 A3005 RMK AO1 T01891055
ROUNDUP     |KRPX 102115Z AUTO 31021G26KT 40SM 16/M05 A2997 RMK AO1 T01561049
TWIN BRIDGES|K7S1 102115Z AUTO 00000KT 40SM 06/M03 A3020 RMK AO1 T00611027






000
SXUS55 KMSO 102124
OSOMSO
MONTANA AWOS SUMMARY
NATIONAL WEATHER SERVICE MISSOULA MT
223 PM MST WED FEB 10 2016

Montana AWOS Reports

LAUREL      |K6S8 102115Z AUTO 27014G23KT 40SM 19/M06 A3005 RMK AO1 T01891055
ROUNDUP     |KRPX 102115Z AUTO 31021G26KT 40SM 16/M05 A2997 RMK AO1 T01561049
TWIN BRIDGES|K7S1 102115Z AUTO 00000KT 40SM 06/M03 A3020 RMK AO1 T00611027






000
SXUS55 KMSO 102113
OSOMSO
MONTANA AWOS SUMMARY
NATIONAL WEATHER SERVICE MISSOULA MT
212 PM MST WED FEB 10 2016

Montana AWOS Reports

LAUREL      |K6S8 102055Z AUTO 27013G18KT 40SM 19/M06 A3005 RMK AO1 T01891055
TWIN BRIDGES|K7S1 102055Z AUTO 00000KT 40SM 05/M03 A3021 RMK AO1 T00501027
PLAINS      |KS34 102055Z AUTO 00000KT 25SM 02/01 A3022 RMK AO1 T00220006






000
SXUS55 KMSO 102113
OSOMSO
MONTANA AWOS SUMMARY
NATIONAL WEATHER SERVICE MISSOULA MT
212 PM MST WED FEB 10 2016

Montana AWOS Reports

LAUREL      |K6S8 102055Z AUTO 27013G18KT 40SM 19/M06 A3005 RMK AO1 T01891055
TWIN BRIDGES|K7S1 102055Z AUTO 00000KT 40SM 05/M03 A3021 RMK AO1 T00501027
PLAINS      |KS34 102055Z AUTO 00000KT 25SM 02/01 A3022 RMK AO1 T00220006






000
SXUS55 KMSO 102103
OSOMSO
MONTANA AWOS SUMMARY
NATIONAL WEATHER SERVICE MISSOULA MT
203 PM MST WED FEB 10 2016

Montana AWOS Reports

ROUNDUP     |KRPX 102055Z AUTO 28012G17KT 40SM 16/M05 A2998 RMK AO1 T01561049
SCOBEY      |K9S2 102055Z AUTO 32015G19KT 40SM 00/M06 A3007 RMK AO1 T00001055






000
SXUS55 KMSO 102103
OSOMSO
MONTANA AWOS SUMMARY
NATIONAL WEATHER SERVICE MISSOULA MT
203 PM MST WED FEB 10 2016

Montana AWOS Reports

ROUNDUP     |KRPX 102055Z AUTO 28012G17KT 40SM 16/M05 A2998 RMK AO1 T01561049
SCOBEY      |K9S2 102055Z AUTO 32015G19KT 40SM 00/M06 A3007 RMK AO1 T00001055






000
SXUS55 KMSO 102043
OSOMSO
MONTANA AWOS SUMMARY
NATIONAL WEATHER SERVICE MISSOULA MT
143 PM MST WED FEB 10 2016

Montana AWOS Reports

LAUREL      |K6S8 102035Z AUTO 28016G21KT 40SM 18/M09 A3005 RMK AO1 T01831088
TWIN BRIDGES|K7S1 102035Z AUTO 00000KT 40SM 04/M03 A3022 RMK AO1 T00441027






000
SXUS55 KMSO 102023
OSOMSO
MONTANA AWOS SUMMARY
NATIONAL WEATHER SERVICE MISSOULA MT
123 PM MST WED FEB 10 2016

Montana AWOS Reports

ROUNDUP     |KRPX 102015Z AUTO 29014G22KT 40SM 15/M06 A2997 RMK AO1 T01501055
LAUREL      |K6S8 102015Z AUTO 27014G22KT 40SM 18/M04 A3006 RMK AO1 T01781043
MALTA       |KM75 102015Z AUTO 40SM A3007 RMK AO1 T0028155727






000
SXUS55 KMSO 102013
OSOMSO
MONTANA AWOS SUMMARY
NATIONAL WEATHER SERVICE MISSOULA MT
112 PM MST WED FEB 10 2016

Montana AWOS Reports

LAUREL      |K6S8 101955Z AUTO 27019G24KT 40SM 17/M05 A3005 RMK AO1 T01671049






000
SXUS55 KMSO 102003
OSOMSO
MONTANA AWOS SUMMARY
NATIONAL WEATHER SERVICE MISSOULA MT
103 PM MST WED FEB 10 2016

Montana AWOS Reports

LAUREL      |K6S8 101955Z AUTO 27019G24KT 40SM 17/M05 A3005 RMK AO1 T01671049
SCOBEY      |K9S2 101955Z AUTO 31013G17KT 25SM 00/M04 A3006 RMK AO1 T00001043
EKALAKA     |K97M 101955Z AUTO 29012G20KT 40SM 11/M03 A2997 RMK AO1 T01061027
PLAINS      |KS34 101955Z AUTO 00000KT 7SM 01/M01 A3024 RMK AO1 T00061010
TWIN BRIDGES|K7S1 101955Z AUTO 00000KT 40SM 03/M03 A3023 RMK AO1 T00331032






000
SXUS55 KMSO 101943
OSOMSO
MONTANA AWOS SUMMARY
NATIONAL WEATHER SERVICE MISSOULA MT
1243 PM MST WED FEB 10 2016

Montana AWOS Reports

LAUREL      |K6S8 101935Z AUTO 26016G20KT 40SM 17/M04 A3005 RMK AO1 T01721043
ROUNDUP     |KRPX 101935Z AUTO 29012G19KT 40SM 15/M06 A2998 RMK AO1 T01501055
TWIN BRIDGES|K7S1 101935Z AUTO 00000KT 40SM 03/M04 A3022 RMK AO1 T00281038






000
SXUS55 KMSO 101923
OSOMSO
MONTANA AWOS SUMMARY
NATIONAL WEATHER SERVICE MISSOULA MT
1223 PM MST WED FEB 10 2016

Montana AWOS Reports

LAUREL      |K6S8 101915Z AUTO 26022G28KT 40SM 17/M04 A3005 RMK AO1 T01721043
ROUNDUP     |KRPX 101915Z AUTO 30010KT 40SM 15/M06 A2998 RMK AO1 T01501060






000
SXUS55 KMSO 101913
OSOMSO
MONTANA AWOS SUMMARY
NATIONAL WEATHER SERVICE MISSOULA MT
1213 PM MST WED FEB 10 2016

Montana AWOS Reports

PLAINS      |KS34 101855Z AUTO 00000KT 1 1/2SM BR 00/M02 A3025 RMK AO1 T00001016
SCOBEY      |K9S2 101855Z AUTO 32014KT 15SM 00/M04 A3004 RMK AO1 T00001038
EKALAKA     |K97M 101855Z AUTO 30009G17KT 40SM 10/M04 A2997 RMK AO1 T01001038






000
SXUS55 KMSO 101913
OSOMSO
MONTANA AWOS SUMMARY
NATIONAL WEATHER SERVICE MISSOULA MT
1213 PM MST WED FEB 10 2016

Montana AWOS Reports

PLAINS      |KS34 101855Z AUTO 00000KT 1 1/2SM BR 00/M02 A3025 RMK AO1 T00001016
SCOBEY      |K9S2 101855Z AUTO 32014KT 15SM 00/M04 A3004 RMK AO1 T00001038
EKALAKA     |K97M 101855Z AUTO 30009G17KT 40SM 10/M04 A2997 RMK AO1 T01001038






000
SXUS55 KMSO 101903
OSOMSO
MONTANA AWOS SUMMARY
NATIONAL WEATHER SERVICE MISSOULA MT
1203 PM MST WED FEB 10 2016

Montana AWOS Reports

LAUREL      |K6S8 101855Z AUTO 25016G26KT 40SM 17/M06 A3004 RMK AO1 T01671060
ROUNDUP     |KRPX 101855Z AUTO 00000KT 40SM 14/M07 A2998 RMK AO1 T01441066






000
SXUS55 KMSO 101843
OSOMSO
MONTANA AWOS SUMMARY
NATIONAL WEATHER SERVICE MISSOULA MT
1143 AM MST WED FEB 10 2016

Montana AWOS Reports

LAUREL      |K6S8 101835Z AUTO 25015G21KT 40SM 16/M07 A3005 RMK AO1 T01561066
ROUNDUP     |KRPX 101835Z AUTO 00000KT 40SM 14/M07 A2998 RMK AO1 T01391066






000
SXUS55 KMSO 101843
OSOMSO
MONTANA AWOS SUMMARY
NATIONAL WEATHER SERVICE MISSOULA MT
1143 AM MST WED FEB 10 2016

Montana AWOS Reports

LAUREL      |K6S8 101835Z AUTO 25015G21KT 40SM 16/M07 A3005 RMK AO1 T01561066
ROUNDUP     |KRPX 101835Z AUTO 00000KT 40SM 14/M07 A2998 RMK AO1 T01391066






000
SXUS55 KMSO 101823
OSOMSO
MONTANA AWOS SUMMARY
NATIONAL WEATHER SERVICE MISSOULA MT
1123 AM MST WED FEB 10 2016

Montana AWOS Reports

ROUNDUP     |KRPX 101815Z AUTO 00000KT 40SM 14/M07 A2998 RMK AO1 T01391066
LAUREL      |K6S8 101815Z AUTO 25015G19KT 40SM 14/M08 A3005 RMK AO1 T01391077
TWIN BRIDGES|K7S1 101815Z AUTO 12005KT 40SM 02/M05 A3024 RMK AO1 T00171049






000
SXUS55 KMSO 101823
OSOMSO
MONTANA AWOS SUMMARY
NATIONAL WEATHER SERVICE MISSOULA MT
1123 AM MST WED FEB 10 2016

Montana AWOS Reports

ROUNDUP     |KRPX 101815Z AUTO 00000KT 40SM 14/M07 A2998 RMK AO1 T01391066
LAUREL      |K6S8 101815Z AUTO 25015G19KT 40SM 14/M08 A3005 RMK AO1 T01391077
TWIN BRIDGES|K7S1 101815Z AUTO 12005KT 40SM 02/M05 A3024 RMK AO1 T00171049






000
SXUS55 KMSO 101813
OSOMSO
MONTANA AWOS SUMMARY
NATIONAL WEATHER SERVICE MISSOULA MT
1113 AM MST WED FEB 10 2016

Montana AWOS Reports

SCOBEY      |K9S2 101755Z AUTO 32009G13KT 10SM 00/M04 A3003 RMK AO1 T00001038
LAUREL      |K6S8 101755Z AUTO 20005KT 40SM 09/M06 A3006 RMK AO1 T00941055
PLAINS      |KS34 101755Z AUTO 00000KT 1/4SM FZFG M01/M02 A3027 RMK AO1 T10051021
EKALAKA     |K97M 101755Z AUTO 31010KT 40SM 08/M05 A2996 RMK AO1 T00831049






000
SXUS55 KMSO 101813
OSOMSO
MONTANA AWOS SUMMARY
NATIONAL WEATHER SERVICE MISSOULA MT
1113 AM MST WED FEB 10 2016

Montana AWOS Reports

SCOBEY      |K9S2 101755Z AUTO 32009G13KT 10SM 00/M04 A3003 RMK AO1 T00001038
LAUREL      |K6S8 101755Z AUTO 20005KT 40SM 09/M06 A3006 RMK AO1 T00941055
PLAINS      |KS34 101755Z AUTO 00000KT 1/4SM FZFG M01/M02 A3027 RMK AO1 T10051021
EKALAKA     |K97M 101755Z AUTO 31010KT 40SM 08/M05 A2996 RMK AO1 T00831049






000
SXUS55 KMSO 101803
OSOMSO
MONTANA AWOS SUMMARY
NATIONAL WEATHER SERVICE MISSOULA MT
1103 AM MST WED FEB 10 2016

Montana AWOS Reports

LAUREL      |K6S8 101755Z AUTO 20005KT 40SM 09/M06 A3006 RMK AO1 T00941055
TWIN BRIDGES|K7S1 101755Z AUTO 11005KT 40SM M01/M06 A3024 RMK AO1 T10051055
ROUNDUP     |KRPX 101755Z AUTO 00000KT 40SM 14/M07 A2997 RMK AO1 T01391071






000
SXUS55 KMSO 101803
OSOMSO
MONTANA AWOS SUMMARY
NATIONAL WEATHER SERVICE MISSOULA MT
1103 AM MST WED FEB 10 2016

Montana AWOS Reports

LAUREL      |K6S8 101755Z AUTO 20005KT 40SM 09/M06 A3006 RMK AO1 T00941055
TWIN BRIDGES|K7S1 101755Z AUTO 11005KT 40SM M01/M06 A3024 RMK AO1 T10051055
ROUNDUP     |KRPX 101755Z AUTO 00000KT 40SM 14/M07 A2997 RMK AO1 T01391071






000
SXUS55 KMSO 101743
OSOMSO
MONTANA AWOS SUMMARY
NATIONAL WEATHER SERVICE MISSOULA MT
1043 AM MST WED FEB 10 2016

Montana AWOS Reports

LAUREL      |K6S8 101735Z AUTO 21007KT 40SM 08/M06 A3005 RMK AO1 T00781055






000
SXUS55 KMSO 101743
OSOMSO
MONTANA AWOS SUMMARY
NATIONAL WEATHER SERVICE MISSOULA MT
1043 AM MST WED FEB 10 2016

Montana AWOS Reports

LAUREL      |K6S8 101735Z AUTO 21007KT 40SM 08/M06 A3005 RMK AO1 T00781055






000
SXUS55 KMSO 101733
OSOMSO
MONTANA AWOS SUMMARY
NATIONAL WEATHER SERVICE MISSOULA MT
1033 AM MST WED FEB 10 2016

Montana AWOS Reports

TWIN BRIDGES|K7S1 101715Z AUTO 10007KT 40SM M02/M07 A3024 RMK AO1 T10161066






000
SXUS55 KMSO 101723
OSOMSO
MONTANA AWOS SUMMARY
NATIONAL WEATHER SERVICE MISSOULA MT
1023 AM MST WED FEB 10 2016

Montana AWOS Reports

LAUREL      |K6S8 101715Z AUTO 21009KT 40SM 06/M06 A3005 RMK AO1 T00611060
ROUNDUP     |KRPX 101715Z AUTO 00000KT 40SM 13/M07 A2997 RMK AO1 T01281066






000
SXUS55 KMSO 101713
OSOMSO
MONTANA AWOS SUMMARY
NATIONAL WEATHER SERVICE MISSOULA MT
1013 AM MST WED FEB 10 2016

Montana AWOS Reports

LAUREL      |K6S8 101655Z AUTO 00000KT 40SM 06/M06 A3006 RMK AO1 T00611060






000
SXUS55 KMSO 101704
OSOMSO
MONTANA AWOS SUMMARY
NATIONAL WEATHER SERVICE MISSOULA MT
1003 AM MST WED FEB 10 2016

Montana AWOS Reports

LAUREL      |K6S8 101655Z AUTO 00000KT 40SM 06/M06 A3006 RMK AO1 T00611060
ROUNDUP     |KRPX 101655Z AUTO 00000KT 40SM 13/M07 A2996 RMK AO1 T01281066
SCOBEY      |K9S2 101655Z AUTO 32008KT 4SM HZ 00/M04 A3000 RMK AO1 T00001038
PLAINS      |KS34 101655Z AUTO 00000KT 1/2SM FZFG M01/M03 A3026 RMK AO1 T10101027
TWIN BRIDGES|K7S1 101655Z AUTO 13005KT 40SM M03/M07 A3024 RMK AO1 T10271071
EKALAKA     |K97M 101655Z AUTO 31009G14KT 40SM 07/M06 A2996 RMK AO1 T00721060






000
SXUS55 KMSO 101704
OSOMSO
MONTANA AWOS SUMMARY
NATIONAL WEATHER SERVICE MISSOULA MT
1003 AM MST WED FEB 10 2016

Montana AWOS Reports

LAUREL      |K6S8 101655Z AUTO 00000KT 40SM 06/M06 A3006 RMK AO1 T00611060
ROUNDUP     |KRPX 101655Z AUTO 00000KT 40SM 13/M07 A2996 RMK AO1 T01281066
SCOBEY      |K9S2 101655Z AUTO 32008KT 4SM HZ 00/M04 A3000 RMK AO1 T00001038
PLAINS      |KS34 101655Z AUTO 00000KT 1/2SM FZFG M01/M03 A3026 RMK AO1 T10101027
TWIN BRIDGES|K7S1 101655Z AUTO 13005KT 40SM M03/M07 A3024 RMK AO1 T10271071
EKALAKA     |K97M 101655Z AUTO 31009G14KT 40SM 07/M06 A2996 RMK AO1 T00721060






000
SXUS55 KMSO 101643
OSOMSO
MONTANA AWOS SUMMARY
NATIONAL WEATHER SERVICE MISSOULA MT
943 AM MST WED FEB 10 2016

Montana AWOS Reports

LAUREL      |K6S8 101635Z AUTO 21004KT 40SM 06/M07 A3004 RMK AO1 T00611071
ROUNDUP     |KRPX 101635Z AUTO 00000KT 40SM 13/M07 A2995 RMK AO1 T01281066
TWIN BRIDGES|K7S1 101635Z AUTO 12005KT 40SM M03/M08 A3023 RMK AO1 T10321077






000
SXUS55 KMSO 101633
OSOMSO
MONTANA AWOS SUMMARY
NATIONAL WEATHER SERVICE MISSOULA MT
932 AM MST WED FEB 10 2016

Montana AWOS Reports

EKALAKA     |K97M 101555Z AUTO 27007KT 40SM 06/M07 A2993 RMK AO1 T00611066






000
SXUS55 KMSO 101624
OSOMSO
MONTANA AWOS SUMMARY
NATIONAL WEATHER SERVICE MISSOULA MT
923 AM MST WED FEB 10 2016

Montana AWOS Reports

LAUREL      |K6S8 101615Z AUTO 22004KT 40SM 06/M07 A3005 RMK AO1 T00561066
TWIN BRIDGES|K7S1 101615Z AUTO 00000KT 15SM M04/M08 A3023 RMK AO1 T10381082
ROUNDUP     |KRPX 101615Z AUTO 20005KT 40SM 12/M07 A2995 RMK AO1 T01171066






000
SXUS55 KMSO 101624
OSOMSO
MONTANA AWOS SUMMARY
NATIONAL WEATHER SERVICE MISSOULA MT
923 AM MST WED FEB 10 2016

Montana AWOS Reports

LAUREL      |K6S8 101615Z AUTO 22004KT 40SM 06/M07 A3005 RMK AO1 T00561066
TWIN BRIDGES|K7S1 101615Z AUTO 00000KT 15SM M04/M08 A3023 RMK AO1 T10381082
ROUNDUP     |KRPX 101615Z AUTO 20005KT 40SM 12/M07 A2995 RMK AO1 T01171066






000
SXUS55 KMSO 101613
OSOMSO
MONTANA AWOS SUMMARY
NATIONAL WEATHER SERVICE MISSOULA MT
913 AM MST WED FEB 10 2016

Montana AWOS Reports

LAUREL      |K6S8 101555Z AUTO 22007KT 40SM 06/M07 A3004 RMK AO1 T00561066






000
SXUS55 KMSO 101613
OSOMSO
MONTANA AWOS SUMMARY
NATIONAL WEATHER SERVICE MISSOULA MT
913 AM MST WED FEB 10 2016

Montana AWOS Reports

LAUREL      |K6S8 101555Z AUTO 22007KT 40SM 06/M07 A3004 RMK AO1 T00561066






000
SXUS55 KMSO 101604
OSOMSO
MONTANA AWOS SUMMARY
NATIONAL WEATHER SERVICE MISSOULA MT
903 AM MST WED FEB 10 2016

Montana AWOS Reports

LAUREL      |K6S8 101555Z AUTO 22007KT 40SM 06/M07 A3004 RMK AO1 T00561066
TWIN BRIDGES|K7S1 101555Z AUTO 11004KT 40SM M03/M09 A3023 RMK AO1 T10321088
ROUNDUP     |KRPX 101555Z AUTO 22004KT 40SM 11/M07 A2994 RMK AO1 T01061071
PLAINS      |KS34 101555Z AUTO 00000KT 1/4SM FZFG M02/M04 A3027 RMK AO1 T10211043
SCOBEY      |K9S2 101555Z AUTO 32009KT 10SM 01/M04 A2996 RMK AO1 T00061038






000
SXUS55 KMSO 101543
OSOMSO
MONTANA AWOS SUMMARY
NATIONAL WEATHER SERVICE MISSOULA MT
843 AM MST WED FEB 10 2016

Montana AWOS Reports

LAUREL      |K6S8 101535Z AUTO 23009G14KT 40SM 04/M07 A3003 RMK AO1 T00441066






000
SXUS55 KMSO 101524
OSOMSO
MONTANA AWOS SUMMARY
NATIONAL WEATHER SERVICE MISSOULA MT
823 AM MST WED FEB 10 2016

Montana AWOS Reports

ROUNDUP     |KRPX 101515Z AUTO 22005KT 40SM 08/M08 A2994 RMK AO1 T00831082
LAUREL      |K6S8 101515Z AUTO 21007KT 40SM 05/M07 A3003 RMK AO1 T00501066






000
SXUS55 KMSO 101524
OSOMSO
MONTANA AWOS SUMMARY
NATIONAL WEATHER SERVICE MISSOULA MT
823 AM MST WED FEB 10 2016

Montana AWOS Reports

ROUNDUP     |KRPX 101515Z AUTO 22005KT 40SM 08/M08 A2994 RMK AO1 T00831082
LAUREL      |K6S8 101515Z AUTO 21007KT 40SM 05/M07 A3003 RMK AO1 T00501066






000
SXUS55 KMSO 101513
OSOMSO
MONTANA AWOS SUMMARY
NATIONAL WEATHER SERVICE MISSOULA MT
813 AM MST WED FEB 10 2016

Montana AWOS Reports

LAUREL      |K6S8 101455Z AUTO 22010KT 40SM 06/M07 A3003 RMK AO1 T00561071






000
SXUS55 KMSO 101503
OSOMSO
MONTANA AWOS SUMMARY
NATIONAL WEATHER SERVICE MISSOULA MT
803 AM MST WED FEB 10 2016

Montana AWOS Reports

ROUNDUP     |KRPX 101455Z AUTO 21007KT 40SM 07/M08 A2993 RMK AO1 T00721082






000
SXUS55 KMSO 101443
OSOMSO
MONTANA AWOS SUMMARY
NATIONAL WEATHER SERVICE MISSOULA MT
743 AM MST WED FEB 10 2016

Montana AWOS Reports

LAUREL      |K6S8 101435Z AUTO 23007KT 40SM 04/M08 A3004 RMK AO1 T00391077
MALTA       |KM75 101435Z AUTO 40SM A2997 RMK AO1 T0006155727
TWIN BRIDGES|K7S1 101435Z AUTO 11005KT 40SM M03/M08 A3021 RMK AO1 T10271082






000
SXUS55 KMSO 101423
OSOMSO
MONTANA AWOS SUMMARY
NATIONAL WEATHER SERVICE MISSOULA MT
723 AM MST WED FEB 10 2016

Montana AWOS Reports

LAUREL      |K6S8 101415Z AUTO 23009KT 40SM 05/M07 A3004 RMK AO1 T00501071
ROUNDUP     |KRPX 101415Z AUTO 22006KT 40SM 08/M09 A2993 RMK AO1 T00781088
MALTA       |KM75 101415Z AUTO 40SM A2996 RMK AO1 T1055155727
TWIN BRIDGES|K7S1 101415Z AUTO 07007KT 40SM M04/M11 A3022 RMK AO1 T10431105






000
SXUS55 KMSO 101423
OSOMSO
MONTANA AWOS SUMMARY
NATIONAL WEATHER SERVICE MISSOULA MT
723 AM MST WED FEB 10 2016

Montana AWOS Reports

LAUREL      |K6S8 101415Z AUTO 23009KT 40SM 05/M07 A3004 RMK AO1 T00501071
ROUNDUP     |KRPX 101415Z AUTO 22006KT 40SM 08/M09 A2993 RMK AO1 T00781088
MALTA       |KM75 101415Z AUTO 40SM A2996 RMK AO1 T1055155727
TWIN BRIDGES|K7S1 101415Z AUTO 07007KT 40SM M04/M11 A3022 RMK AO1 T10431105






000
SXUS55 KMSO 101413
OSOMSO
MONTANA AWOS SUMMARY
NATIONAL WEATHER SERVICE MISSOULA MT
713 AM MST WED FEB 10 2016

Montana AWOS Reports

LAUREL      |K6S8 101355Z AUTO 23008KT 40SM 04/M07 A3003 RMK AO1 T00391071






000
SXUS55 KMSO 101413
OSOMSO
MONTANA AWOS SUMMARY
NATIONAL WEATHER SERVICE MISSOULA MT
713 AM MST WED FEB 10 2016

Montana AWOS Reports

LAUREL      |K6S8 101355Z AUTO 23008KT 40SM 04/M07 A3003 RMK AO1 T00391071






000
SXUS55 KMSO 101403
OSOMSO
MONTANA AWOS SUMMARY
NATIONAL WEATHER SERVICE MISSOULA MT
703 AM MST WED FEB 10 2016

Montana AWOS Reports

LAUREL      |K6S8 101355Z AUTO 23008KT 40SM 04/M07 A3003 RMK AO1 T00391071
TWIN BRIDGES|K7S1 101355Z AUTO 07005KT 40SM M06/M11 A3022 RMK AO1 T10551105
SCOBEY      |K9S2 101355Z AUTO 33013KT 15SM 01/M04 A2988 RMK AO1 T00111043
PLAINS      |KS34 101355Z AUTO 00000KT 1/4SM FZFG M02/M04 A3026 RMK AO1 T10211043
EKALAKA     |K97M 101355Z AUTO 26010G14KT 40SM 05/M07 A2990 RMK AO1 T00501071






000
SXUS55 KMSO 101343
OSOMSO
MONTANA AWOS SUMMARY
NATIONAL WEATHER SERVICE MISSOULA MT
643 AM MST WED FEB 10 2016

Montana AWOS Reports

LAUREL      |K6S8 101335Z AUTO 21013G19KT 40SM 04/M07 A3002 RMK AO1 T00441071
ROUNDUP     |KRPX 101335Z AUTO 00000KT 40SM 07/M09 A2993 RMK AO1 T00671088
TWIN BRIDGES|K7S1 101335Z AUTO 07008KT 40SM M06/M11 A3022 RMK AO1 T10551110






000
SXUS55 KMSO 101323
OSOMSO
MONTANA AWOS SUMMARY
NATIONAL WEATHER SERVICE MISSOULA MT
623 AM MST WED FEB 10 2016

Montana AWOS Reports

EKALAKA     |K97M 101255Z AUTO 25006KT 40SM 04/M07 A2990 RMK AO1 T00391071
LAUREL      |K6S8 101315Z AUTO 21014G20KT 40SM 06/M07 A3002 RMK AO1 T00611071
ROUNDUP     |KRPX 101315Z AUTO 00000KT 40SM 08/M09 A2993 RMK AO1 T00831093
PLAINS      |KS34 101255Z AUTO 00000KT 1/4SM FZFG M03/M05 A3026 RMK AO1 T10271049
TWIN BRIDGES|K7S1 101315Z AUTO 11004KT 40SM M05/M11 A3021 RMK AO1 T10491105






000
SXUS55 KMSO 101323
OSOMSO
MONTANA AWOS SUMMARY
NATIONAL WEATHER SERVICE MISSOULA MT
623 AM MST WED FEB 10 2016

Montana AWOS Reports

EKALAKA     |K97M 101255Z AUTO 25006KT 40SM 04/M07 A2990 RMK AO1 T00391071
LAUREL      |K6S8 101315Z AUTO 21014G20KT 40SM 06/M07 A3002 RMK AO1 T00611071
ROUNDUP     |KRPX 101315Z AUTO 00000KT 40SM 08/M09 A2993 RMK AO1 T00831093
PLAINS      |KS34 101255Z AUTO 00000KT 1/4SM FZFG M03/M05 A3026 RMK AO1 T10271049
TWIN BRIDGES|K7S1 101315Z AUTO 11004KT 40SM M05/M11 A3021 RMK AO1 T10491105






000
SXUS55 KMSO 101313
OSOMSO
MONTANA AWOS SUMMARY
NATIONAL WEATHER SERVICE MISSOULA MT
613 AM MST WED FEB 10 2016

Montana AWOS Reports

LAUREL      |K6S8 101255Z AUTO 22011G18KT 40SM 06/M07 A3002 RMK AO1 T00611071
ROUNDUP     |KRPX 101255Z AUTO 00000KT 40SM 07/M09 A2992 RMK AO1 T00721088
SCOBEY      |K9S2 101255Z AUTO 29008KT 25SM 01/M04 A2987 RMK AO1 T00111043






000
SXUS55 KMSO 101313
OSOMSO
MONTANA AWOS SUMMARY
NATIONAL WEATHER SERVICE MISSOULA MT
613 AM MST WED FEB 10 2016

Montana AWOS Reports

LAUREL      |K6S8 101255Z AUTO 22011G18KT 40SM 06/M07 A3002 RMK AO1 T00611071
ROUNDUP     |KRPX 101255Z AUTO 00000KT 40SM 07/M09 A2992 RMK AO1 T00721088
SCOBEY      |K9S2 101255Z AUTO 29008KT 25SM 01/M04 A2987 RMK AO1 T00111043






000
SXUS55 KMSO 101243
OSOMSO
MONTANA AWOS SUMMARY
NATIONAL WEATHER SERVICE MISSOULA MT
543 AM MST WED FEB 10 2016

Montana AWOS Reports

LAUREL      |K6S8 101235Z AUTO 22013G21KT 40SM 07/M07 A3002 RMK AO1 T00671071
ROUNDUP     |KRPX 101235Z AUTO 00000KT 40SM 08/M09 A2992 RMK AO1 T00781093
TWIN BRIDGES|K7S1 101235Z AUTO 00000KT 40SM M05/M10 A3021 RMK AO1 T10491099






000
SXUS55 KMSO 101234
OSOMSO
MONTANA AWOS SUMMARY
NATIONAL WEATHER SERVICE MISSOULA MT
533 AM MST WED FEB 10 2016

Montana AWOS Reports

TWIN BRIDGES|K7S1 101215Z AUTO 00000KT 40SM M07/M11 A3020 RMK AO1 T10661110






000
SXUS55 KMSO 101224
OSOMSO
MONTANA AWOS SUMMARY
NATIONAL WEATHER SERVICE MISSOULA MT
523 AM MST WED FEB 10 2016

Montana AWOS Reports

LAUREL      |K6S8 101215Z AUTO 22016G24KT 40SM 07/M07 A3001 RMK AO1 T00721071
ROUNDUP     |KRPX 101215Z AUTO 00000KT 40SM 08/M09 A2991 RMK AO1 T00831093






000
SXUS55 KMSO 101213
OSOMSO
MONTANA AWOS SUMMARY
NATIONAL WEATHER SERVICE MISSOULA MT
512 AM MST WED FEB 10 2016

Montana AWOS Reports

LAUREL      |K6S8 101155Z AUTO 22016G20KT 40SM 08/M07 A3002 RMK AO1 T00781066






000
SXUS55 KMSO 101213
OSOMSO
MONTANA AWOS SUMMARY
NATIONAL WEATHER SERVICE MISSOULA MT
512 AM MST WED FEB 10 2016

Montana AWOS Reports

LAUREL      |K6S8 101155Z AUTO 22016G20KT 40SM 08/M07 A3002 RMK AO1 T00781066






000
SXUS55 KMSO 101204
OSOMSO
MONTANA AWOS SUMMARY
NATIONAL WEATHER SERVICE MISSOULA MT
503 AM MST WED FEB 10 2016

Montana AWOS Reports

LAUREL      |K6S8 101155Z AUTO 22016G20KT 40SM 08/M07 A3002 RMK AO1 T00781066
ROUNDUP     |KRPX 101155Z AUTO 00000KT 40SM 09/M09 A2990 RMK AO1 T00891093
TWIN BRIDGES|K7S1 101155Z AUTO 10005KT 40SM M06/M11 A3021 RMK AO1 T10601105
SCOBEY      |K9S2 101155Z AUTO 00000KT 40SM 01/M04 A2986 RMK AO1 T00111043
EKALAKA     |K97M 101155Z AUTO 00000KT 40SM 03/M07 A2990 RMK AO1 T00331071
PLAINS      |KS34 101155Z AUTO 00000KT 1/4SM FZFG M02/M04 A3025 RMK AO1 T10211043






000
SXUS55 KMSO 101204
OSOMSO
MONTANA AWOS SUMMARY
NATIONAL WEATHER SERVICE MISSOULA MT
503 AM MST WED FEB 10 2016

Montana AWOS Reports

LAUREL      |K6S8 101155Z AUTO 22016G20KT 40SM 08/M07 A3002 RMK AO1 T00781066
ROUNDUP     |KRPX 101155Z AUTO 00000KT 40SM 09/M09 A2990 RMK AO1 T00891093
TWIN BRIDGES|K7S1 101155Z AUTO 10005KT 40SM M06/M11 A3021 RMK AO1 T10601105
SCOBEY      |K9S2 101155Z AUTO 00000KT 40SM 01/M04 A2986 RMK AO1 T00111043
EKALAKA     |K97M 101155Z AUTO 00000KT 40SM 03/M07 A2990 RMK AO1 T00331071
PLAINS      |KS34 101155Z AUTO 00000KT 1/4SM FZFG M02/M04 A3025 RMK AO1 T10211043






000
SXUS55 KMSO 101153
OSOMSO
MONTANA AWOS SUMMARY
NATIONAL WEATHER SERVICE MISSOULA MT
453 AM MST WED FEB 10 2016

Montana AWOS Reports

LAUREL      |K6S8 101135Z AUTO 23010G14KT 40SM 07/M07 A3002 RMK AO1 T00721066
TWIN BRIDGES|K7S1 101135Z AUTO 00000KT 40SM M06/M09 A3021 RMK AO1 T10551093






000
SXUS55 KMSO 101153
OSOMSO
MONTANA AWOS SUMMARY
NATIONAL WEATHER SERVICE MISSOULA MT
453 AM MST WED FEB 10 2016

Montana AWOS Reports

LAUREL      |K6S8 101135Z AUTO 23010G14KT 40SM 07/M07 A3002 RMK AO1 T00721066
TWIN BRIDGES|K7S1 101135Z AUTO 00000KT 40SM M06/M09 A3021 RMK AO1 T10551093






000
SXUS55 KMSO 101143
OSOMSO
MONTANA AWOS SUMMARY
NATIONAL WEATHER SERVICE MISSOULA MT
442 AM MST WED FEB 10 2016

Montana AWOS Reports

ROUNDUP     |KRPX 101135Z AUTO 23004KT 40SM 09/M09 A2991 RMK AO1 T00891093






000
SXUS55 KMSO 101143
OSOMSO
MONTANA AWOS SUMMARY
NATIONAL WEATHER SERVICE MISSOULA MT
442 AM MST WED FEB 10 2016

Montana AWOS Reports

ROUNDUP     |KRPX 101135Z AUTO 23004KT 40SM 09/M09 A2991 RMK AO1 T00891093






000
SXUS55 KMSO 101124
OSOMSO
MONTANA AWOS SUMMARY
NATIONAL WEATHER SERVICE MISSOULA MT
423 AM MST WED FEB 10 2016

Montana AWOS Reports

ROUNDUP     |KRPX 101115Z AUTO 40SM 08/M08 A2991 RMK AO1 T00781082
LAUREL      |K6S8 101115Z AUTO 24010KT 40SM 07/M07 A3002 RMK AO1 T00721066






000
SXUS55 KMSO 101113
OSOMSO
MONTANA AWOS SUMMARY
NATIONAL WEATHER SERVICE MISSOULA MT
412 AM MST WED FEB 10 2016

Montana AWOS Reports

LAUREL      |K6S8 101055Z AUTO 24011G15KT 40SM 07/M07 A3002 RMK AO1 T00721071






000
SXUS55 KMSO 101113
OSOMSO
MONTANA AWOS SUMMARY
NATIONAL WEATHER SERVICE MISSOULA MT
412 AM MST WED FEB 10 2016

Montana AWOS Reports

LAUREL      |K6S8 101055Z AUTO 24011G15KT 40SM 07/M07 A3002 RMK AO1 T00721071






000
SXUS55 KMSO 101104
OSOMSO
MONTANA AWOS SUMMARY
NATIONAL WEATHER SERVICE MISSOULA MT
403 AM MST WED FEB 10 2016

Montana AWOS Reports

LAUREL      |K6S8 101055Z AUTO 24011G15KT 40SM 07/M07 A3002 RMK AO1 T00721071
TWIN BRIDGES|K7S1 101055Z AUTO 13006KT 40SM M06/M11 A3021 RMK AO1 T10601110
PLAINS      |KS34 101055Z AUTO 00000KT 1/4SM FZFG M03/M05 A3024 RMK AO1 T10271049
SCOBEY      |K9S2 101055Z AUTO 00000KT 40SM M01/M06 A2982 RMK AO1 T10051055
EKALAKA     |K97M 101055Z AUTO 24012G16KT 40SM 05/M07 A2989 RMK AO1 T00501066






000
SXUS55 KMSO 101104
OSOMSO
MONTANA AWOS SUMMARY
NATIONAL WEATHER SERVICE MISSOULA MT
403 AM MST WED FEB 10 2016

Montana AWOS Reports

LAUREL      |K6S8 101055Z AUTO 24011G15KT 40SM 07/M07 A3002 RMK AO1 T00721071
TWIN BRIDGES|K7S1 101055Z AUTO 13006KT 40SM M06/M11 A3021 RMK AO1 T10601110
PLAINS      |KS34 101055Z AUTO 00000KT 1/4SM FZFG M03/M05 A3024 RMK AO1 T10271049
SCOBEY      |K9S2 101055Z AUTO 00000KT 40SM M01/M06 A2982 RMK AO1 T10051055
EKALAKA     |K97M 101055Z AUTO 24012G16KT 40SM 05/M07 A2989 RMK AO1 T00501066






000
SXUS55 KMSO 101043
OSOMSO
MONTANA AWOS SUMMARY
NATIONAL WEATHER SERVICE MISSOULA MT
342 AM MST WED FEB 10 2016

Montana AWOS Reports

LAUREL      |K6S8 101035Z AUTO 24010G14KT 40SM 07/M07 A3002 RMK AO1 T00721071
ROUNDUP     |KRPX 101035Z AUTO 00000KT 40SM 07/M09 A2991 RMK AO1 T00721088
TWIN BRIDGES|K7S1 101035Z AUTO 09007KT 40SM M04/M09 A3021 RMK AO1 T10381093






000
SXUS55 KMSO 101043
OSOMSO
MONTANA AWOS SUMMARY
NATIONAL WEATHER SERVICE MISSOULA MT
342 AM MST WED FEB 10 2016

Montana AWOS Reports

LAUREL      |K6S8 101035Z AUTO 24010G14KT 40SM 07/M07 A3002 RMK AO1 T00721071
ROUNDUP     |KRPX 101035Z AUTO 00000KT 40SM 07/M09 A2991 RMK AO1 T00721088
TWIN BRIDGES|K7S1 101035Z AUTO 09007KT 40SM M04/M09 A3021 RMK AO1 T10381093






000
SXUS55 KMSO 101023
OSOMSO
MONTANA AWOS SUMMARY
NATIONAL WEATHER SERVICE MISSOULA MT
323 AM MST WED FEB 10 2016

Montana AWOS Reports

LAUREL      |K6S8 101015Z AUTO 23014G21KT 40SM 07/M07 A3001 RMK AO1 T00671066
ROUNDUP     |KRPX 101015Z AUTO 21004KT 40SM 08/M09 A2991 RMK AO1 T00831088
TWIN BRIDGES|K7S1 101015Z AUTO 07007KT 40SM M06/M11 A3021 RMK AO1 T10601105






000
SXUS55 KMSO 101023
OSOMSO
MONTANA AWOS SUMMARY
NATIONAL WEATHER SERVICE MISSOULA MT
323 AM MST WED FEB 10 2016

Montana AWOS Reports

LAUREL      |K6S8 101015Z AUTO 23014G21KT 40SM 07/M07 A3001 RMK AO1 T00671066
ROUNDUP     |KRPX 101015Z AUTO 21004KT 40SM 08/M09 A2991 RMK AO1 T00831088
TWIN BRIDGES|K7S1 101015Z AUTO 07007KT 40SM M06/M11 A3021 RMK AO1 T10601105






000
SXUS55 KMSO 101013
OSOMSO
MONTANA AWOS SUMMARY
NATIONAL WEATHER SERVICE MISSOULA MT
312 AM MST WED FEB 10 2016

Montana AWOS Reports

LAUREL      |K6S8 100955Z AUTO 22019G24KT 40SM 07/M06 A3000 RMK AO1 T00671060






000
SXUS55 KMSO 101013
OSOMSO
MONTANA AWOS SUMMARY
NATIONAL WEATHER SERVICE MISSOULA MT
312 AM MST WED FEB 10 2016

Montana AWOS Reports

LAUREL      |K6S8 100955Z AUTO 22019G24KT 40SM 07/M06 A3000 RMK AO1 T00671060






000
SXUS55 KMSO 101003
OSOMSO
MONTANA AWOS SUMMARY
NATIONAL WEATHER SERVICE MISSOULA MT
303 AM MST WED FEB 10 2016

Montana AWOS Reports

LAUREL      |K6S8 100955Z AUTO 22019G24KT 40SM 07/M06 A3000 RMK AO1 T00671060
ROUNDUP     |KRPX 100955Z AUTO 21006KT 40SM 08/M09 A2991 RMK AO1 T00831088
SCOBEY      |K9S2 100955Z AUTO 00000KT 40SM M02/M06 A2983 RMK AO1 T10161060
EKALAKA     |K97M 100955Z AUTO 24012G16KT 40SM 06/M06 A2989 RMK AO1 T00611055
PLAINS      |KS34 100955Z AUTO 00000KT 1/4SM FZFG M03/M05 A3025 RMK AO1 T10271049
TWIN BRIDGES|K7S1 100955Z AUTO 07006KT 40SM M05/M10 A3022 RMK AO1 T10491099






000
SXUS55 KMSO 100943
OSOMSO
MONTANA AWOS SUMMARY
NATIONAL WEATHER SERVICE MISSOULA MT
243 AM MST WED FEB 10 2016

Montana AWOS Reports

LAUREL      |K6S8 100935Z AUTO 22015G20KT 40SM 06/M06 A3001 RMK AO1 T00611060
ROUNDUP     |KRPX 100935Z AUTO 22005KT 40SM 08/M08 A2991 RMK AO1 T00831082
TWIN BRIDGES|K7S1 100935Z AUTO 13004KT 40SM M04/M10 A3022 RMK AO1 T10431099






000
SXUS55 KMSO 100923
OSOMSO
MONTANA AWOS SUMMARY
NATIONAL WEATHER SERVICE MISSOULA MT
223 AM MST WED FEB 10 2016

Montana AWOS Reports

LAUREL      |K6S8 100915Z AUTO 21014G19KT 40SM 07/M06 A3001 RMK AO1 T00721060
TWIN BRIDGES|K7S1 100915Z AUTO 00000KT 40SM M02/M08 A3021 RMK AO1 T10211082






000
SXUS55 KMSO 100913
OSOMSO
MONTANA AWOS SUMMARY
NATIONAL WEATHER SERVICE MISSOULA MT
213 AM MST WED FEB 10 2016

Montana AWOS Reports

LAUREL      |K6S8 100855Z AUTO 22018G23KT 40SM 07/M06 A3001 RMK AO1 T00721060






000
SXUS55 KMSO 100903
OSOMSO
MONTANA AWOS SUMMARY
NATIONAL WEATHER SERVICE MISSOULA MT
203 AM MST WED FEB 10 2016

Montana AWOS Reports

LAUREL      |K6S8 100855Z AUTO 22018G23KT 40SM 07/M06 A3001 RMK AO1 T00721060
TWIN BRIDGES|K7S1 100855Z AUTO 00000KT 40SM M03/M08 A3021 RMK AO1 T10271082
MALTA       |KM75 100855Z AUTO 40SM A2987 RMK AO1 T1066155727
SCOBEY      |K9S2 100855Z AUTO 00000KT 40SM M01/M05 A2982 RMK AO1 T10101049
EKALAKA     |K97M 100855Z AUTO 23011G18KT 40SM 07/M05 A2989 RMK AO1 T00671049
PLAINS      |KS34 100855Z AUTO 00000KT 1SM BR M02/M04 A3024 RMK AO1 T10211043






000
SXUS55 KMSO 100843
OSOMSO
MONTANA AWOS SUMMARY
NATIONAL WEATHER SERVICE MISSOULA MT
143 AM MST WED FEB 10 2016

Montana AWOS Reports

LAUREL      |K6S8 100835Z AUTO 21017G22KT 40SM 07/M07 A3001 RMK AO1 T00671066
MALTA       |KM75 100835Z AUTO 40SM A2988 RMK AO1 T1066155727






000
SXUS55 KMSO 100843
OSOMSO
MONTANA AWOS SUMMARY
NATIONAL WEATHER SERVICE MISSOULA MT
143 AM MST WED FEB 10 2016

Montana AWOS Reports

LAUREL      |K6S8 100835Z AUTO 21017G22KT 40SM 07/M07 A3001 RMK AO1 T00671066
MALTA       |KM75 100835Z AUTO 40SM A2988 RMK AO1 T1066155727






000
SXUS55 KMSO 100823
OSOMSO
MONTANA AWOS SUMMARY
NATIONAL WEATHER SERVICE MISSOULA MT
122 AM MST WED FEB 10 2016

Montana AWOS Reports

LAUREL      |K6S8 100815Z AUTO 22018KT 40SM 06/M07 A3002 RMK AO1 T00611066
ROUNDUP     |KRPX 100815Z AUTO 23010G18KT 40SM 09/M08 A2991 RMK AO1 T00941082






000
SXUS55 KMSO 100813
OSOMSO
MONTANA AWOS SUMMARY
NATIONAL WEATHER SERVICE MISSOULA MT
113 AM MST WED FEB 10 2016

Montana AWOS Reports

LAUREL      |K6S8 100755Z AUTO 21014G20KT 40SM 06/M07 A3003 RMK AO1 T00561066
PLAINS      |KS34 100755Z AUTO 00000KT 5SM BR M03/M05 A3024 RMK AO1 T10271049
SCOBEY      |K9S2 100755Z AUTO 00000KT 40SM M01/M06 A2983 RMK AO1 T10051055
EKALAKA     |K97M 100755Z AUTO 24008KT 40SM 07/M05 A2992 RMK AO1 T00671049






000
SXUS55 KMSO 100803
OSOMSO
MONTANA AWOS SUMMARY
NATIONAL WEATHER SERVICE MISSOULA MT
103 AM MST WED FEB 10 2016

Montana AWOS Reports

LAUREL      |K6S8 100755Z AUTO 21014G20KT 40SM 06/M07 A3003 RMK AO1 T00561066
ROUNDUP     |KRPX 100755Z AUTO 22011KT 40SM 09/M08 A2992 RMK AO1 T00891077
TWIN BRIDGES|K7S1 100755Z AUTO 10007KT 40SM M02/M08 A3022 RMK AO1 T10161077






000
SXUS55 KMSO 100743
OSOMSO
MONTANA AWOS SUMMARY
NATIONAL WEATHER SERVICE MISSOULA MT
1243 AM MST WED FEB 10 2016

Montana AWOS Reports

LAUREL      |K6S8 100735Z AUTO 21013G18KT 40SM 06/M07 A3004 RMK AO1 T00561066
TWIN BRIDGES|K7S1 100735Z AUTO 11005KT 40SM M03/M08 A3023 RMK AO1 T10271077
ROUNDUP     |KRPX 100735Z AUTO 22004KT 40SM 08/M08 A2993 RMK AO1 T00831077






000
SXUS55 KMSO 100733
OSOMSO
MONTANA AWOS SUMMARY
NATIONAL WEATHER SERVICE MISSOULA MT
1233 AM MST WED FEB 10 2016

Montana AWOS Reports

LAUREL      |K6S8 100715Z AUTO 00000KT 40SM 04/M07 A3005 RMK AO1 T00441071
TWIN BRIDGES|K7S1 100715Z AUTO 11005KT 25SM M05/M09 A3023 RMK AO1 T10491093
ROUNDUP     |KRPX 100715Z AUTO 00000KT 40SM 07/M08 A2993 RMK AO1 T00671077






000
SXUS55 KMSO 100733
OSOMSO
MONTANA AWOS SUMMARY
NATIONAL WEATHER SERVICE MISSOULA MT
1233 AM MST WED FEB 10 2016

Montana AWOS Reports

LAUREL      |K6S8 100715Z AUTO 00000KT 40SM 04/M07 A3005 RMK AO1 T00441071
TWIN BRIDGES|K7S1 100715Z AUTO 11005KT 25SM M05/M09 A3023 RMK AO1 T10491093
ROUNDUP     |KRPX 100715Z AUTO 00000KT 40SM 07/M08 A2993 RMK AO1 T00671077






000
SXUS55 KMSO 100713
OSOMSO
MONTANA AWOS SUMMARY
NATIONAL WEATHER SERVICE MISSOULA MT
1212 AM MST WED FEB 10 2016

Montana AWOS Reports

LAUREL      |K6S8 100655Z AUTO 00000KT 40SM 06/M07 A3006 RMK AO1 T00561066






000
SXUS55 KMSO 100703
OSOMSO
MONTANA AWOS SUMMARY
NATIONAL WEATHER SERVICE MISSOULA MT
1203 AM MST WED FEB 10 2016

Montana AWOS Reports

LAUREL      |K6S8 100655Z AUTO 00000KT 40SM 06/M07 A3006 RMK AO1 T00561066
PLAINS      |KS34 100655Z AUTO 00000KT 7SM M02/M05 A3024 RMK AO1 T10211049
TWIN BRIDGES|K7S1 100655Z AUTO 13006KT 40SM M04/M09 A3023 RMK AO1 T10381088
ROUNDUP     |KRPX 100655Z AUTO 00000KT 40SM 06/M07 A2994 RMK AO1 T00611071
SCOBEY      |K9S2 100655Z AUTO 00000KT 40SM M02/M06 A2986 RMK AO1 T10161055
EKALAKA     |K97M 100655Z AUTO 19005KT 40SM 06/M04 A2994 RMK AO1 T00561043






000
SXUS55 KMSO 100644
OSOMSO
MONTANA AWOS SUMMARY
NATIONAL WEATHER SERVICE MISSOULA MT
1143 PM MST TUE FEB 9 2016

Montana AWOS Reports

LAUREL      |K6S8 100635Z AUTO 00000KT 40SM 06/M07 A3006 RMK AO1 T00611071
ROUNDUP     |KRPX 100635Z AUTO 19004KT 40SM 07/M07 A2995 RMK AO1 T00671066






000
SXUS55 KMSO 100644
OSOMSO
MONTANA AWOS SUMMARY
NATIONAL WEATHER SERVICE MISSOULA MT
1143 PM MST TUE FEB 9 2016

Montana AWOS Reports

LAUREL      |K6S8 100635Z AUTO 00000KT 40SM 06/M07 A3006 RMK AO1 T00611071
ROUNDUP     |KRPX 100635Z AUTO 19004KT 40SM 07/M07 A2995 RMK AO1 T00671066






000
SXUS55 KMSO 100623
OSOMSO
MONTANA AWOS SUMMARY
NATIONAL WEATHER SERVICE MISSOULA MT
1123 PM MST TUE FEB 9 2016

Montana AWOS Reports

LAUREL      |K6S8 100615Z AUTO 20011G16KT 40SM 07/M06 A3005 RMK AO1 T00721060
TWIN BRIDGES|K7S1 100615Z AUTO 11004KT 40SM M03/M08 A3024 RMK AO1 T10271077
ROUNDUP     |KRPX 100615Z AUTO 19006KT 40SM 06/M07 A2995 RMK AO1 T00611071






000
SXUS55 KMSO 100623
OSOMSO
MONTANA AWOS SUMMARY
NATIONAL WEATHER SERVICE MISSOULA MT
1123 PM MST TUE FEB 9 2016

Montana AWOS Reports

LAUREL      |K6S8 100615Z AUTO 20011G16KT 40SM 07/M06 A3005 RMK AO1 T00721060
TWIN BRIDGES|K7S1 100615Z AUTO 11004KT 40SM M03/M08 A3024 RMK AO1 T10271077
ROUNDUP     |KRPX 100615Z AUTO 19006KT 40SM 06/M07 A2995 RMK AO1 T00611071






000
SXUS55 KMSO 100613
OSOMSO
MONTANA AWOS SUMMARY
NATIONAL WEATHER SERVICE MISSOULA MT
1113 PM MST TUE FEB 9 2016

Montana AWOS Reports

LAUREL      |K6S8 100555Z AUTO 21010KT 40SM 06/M06 A3006 RMK AO1 T00611060






000
SXUS55 KMSO 100613
OSOMSO
MONTANA AWOS SUMMARY
NATIONAL WEATHER SERVICE MISSOULA MT
1113 PM MST TUE FEB 9 2016

Montana AWOS Reports

LAUREL      |K6S8 100555Z AUTO 21010KT 40SM 06/M06 A3006 RMK AO1 T00611060






000
SXUS55 KMSO 100604
OSOMSO
MONTANA AWOS SUMMARY
NATIONAL WEATHER SERVICE MISSOULA MT
1103 PM MST TUE FEB 9 2016

Montana AWOS Reports

LAUREL      |K6S8 100555Z AUTO 21010KT 40SM 06/M06 A3006 RMK AO1 T00611060
EKALAKA     |K97M 100555Z AUTO 21005KT 40SM 06/M04 A2997 RMK AO1 T00561038
TWIN BRIDGES|K7S1 100555Z AUTO 12007KT 40SM 00/M06 A3024 RMK AO1 T00001060
ROUNDUP     |KRPX 100555Z AUTO 00000KT 40SM 06/M07 A2996 RMK AO1 T00611066
SCOBEY      |K9S2 100555Z AUTO 00000KT 40SM 00/M04 A2988 RMK AO1 T00001043
PLAINS      |KS34 100555Z AUTO 00000KT 7SM M02/M05 A3025 RMK AO1 T10211049






000
SXUS55 KMSO 100604
OSOMSO
MONTANA AWOS SUMMARY
NATIONAL WEATHER SERVICE MISSOULA MT
1103 PM MST TUE FEB 9 2016

Montana AWOS Reports

LAUREL      |K6S8 100555Z AUTO 21010KT 40SM 06/M06 A3006 RMK AO1 T00611060
EKALAKA     |K97M 100555Z AUTO 21005KT 40SM 06/M04 A2997 RMK AO1 T00561038
TWIN BRIDGES|K7S1 100555Z AUTO 12007KT 40SM 00/M06 A3024 RMK AO1 T00001060
ROUNDUP     |KRPX 100555Z AUTO 00000KT 40SM 06/M07 A2996 RMK AO1 T00611066
SCOBEY      |K9S2 100555Z AUTO 00000KT 40SM 00/M04 A2988 RMK AO1 T00001043
PLAINS      |KS34 100555Z AUTO 00000KT 7SM M02/M05 A3025 RMK AO1 T10211049






000
SXUS55 KMSO 100543
OSOMSO
MONTANA AWOS SUMMARY
NATIONAL WEATHER SERVICE MISSOULA MT
1043 PM MST TUE FEB 9 2016

Montana AWOS Reports

LAUREL      |K6S8 100535Z AUTO 00000KT 40SM 05/M07 A3007 RMK AO1 T00501071
ROUNDUP     |KRPX 100535Z AUTO 20005KT 40SM 07/M07 A2996 RMK AO1 T00721066






000
SXUS55 KMSO 100543
OSOMSO
MONTANA AWOS SUMMARY
NATIONAL WEATHER SERVICE MISSOULA MT
1043 PM MST TUE FEB 9 2016

Montana AWOS Reports

LAUREL      |K6S8 100535Z AUTO 00000KT 40SM 05/M07 A3007 RMK AO1 T00501071
ROUNDUP     |KRPX 100535Z AUTO 20005KT 40SM 07/M07 A2996 RMK AO1 T00721066






000
SXUS55 KMSO 100534
OSOMSO
MONTANA AWOS SUMMARY
NATIONAL WEATHER SERVICE MISSOULA MT
1033 PM MST TUE FEB 9 2016

Montana AWOS Reports

TWIN BRIDGES|K7S1 100515Z AUTO 11007KT 40SM 00/M06 A3024 RMK AO1 T00001055
EKALAKA     |K97M 100455Z AUTO 00000KT 40SM 04/M04 A2999 RMK AO1 T00391043






000
SXUS55 KMSO 100534
OSOMSO
MONTANA AWOS SUMMARY
NATIONAL WEATHER SERVICE MISSOULA MT
1033 PM MST TUE FEB 9 2016

Montana AWOS Reports

TWIN BRIDGES|K7S1 100515Z AUTO 11007KT 40SM 00/M06 A3024 RMK AO1 T00001055
EKALAKA     |K97M 100455Z AUTO 00000KT 40SM 04/M04 A2999 RMK AO1 T00391043






000
SXUS55 KMSO 100523
OSOMSO
MONTANA AWOS SUMMARY
NATIONAL WEATHER SERVICE MISSOULA MT
1023 PM MST TUE FEB 9 2016

Montana AWOS Reports

SCOBEY      |K9S2 100455Z AUTO 00000KT 40SM M01/M06 A2991 RMK AO1 T10101055
LAUREL      |K6S8 100515Z AUTO 40SM 06/M07 A3008 RMK AO1 T00561066
ROUNDUP     |KRPX 100515Z AUTO 00000KT 40SM 07/M07 A2997 RMK AO1 T00671066






000
SXUS55 KMSO 100513
OSOMSO
MONTANA AWOS SUMMARY
NATIONAL WEATHER SERVICE MISSOULA MT
1013 PM MST TUE FEB 9 2016

Montana AWOS Reports

LAUREL      |K6S8 100455Z AUTO 20009G15KT 40SM 07/M06 A3008 RMK AO1 T00671060
PLAINS      |KS34 100455Z AUTO 00000KT 10SM M02/M04 A3025 RMK AO1 T10161043
TWIN BRIDGES|K7S1 100455Z AUTO 10006KT 40SM M03/M07 A3024 RMK AO1 T10271071






000
SXUS55 KMSO 100503
OSOMSO
MONTANA AWOS SUMMARY
NATIONAL WEATHER SERVICE MISSOULA MT
1003 PM MST TUE FEB 9 2016

Montana AWOS Reports

LAUREL      |K6S8 100455Z AUTO 20009G15KT 40SM 07/M06 A3008 RMK AO1 T00671060
ROUNDUP     |KRPX 100455Z AUTO 00000KT 40SM 06/M08 A2998 RMK AO1 T00561077






000
SXUS55 KMSO 100503
OSOMSO
MONTANA AWOS SUMMARY
NATIONAL WEATHER SERVICE MISSOULA MT
1003 PM MST TUE FEB 9 2016

Montana AWOS Reports

LAUREL      |K6S8 100455Z AUTO 20009G15KT 40SM 07/M06 A3008 RMK AO1 T00671060
ROUNDUP     |KRPX 100455Z AUTO 00000KT 40SM 06/M08 A2998 RMK AO1 T00561077






000
SXUS55 KMSO 100443
OSOMSO
MONTANA AWOS SUMMARY
NATIONAL WEATHER SERVICE MISSOULA MT
943 PM MST TUE FEB 9 2016

Montana AWOS Reports

LAUREL      |K6S8 100435Z AUTO 21013KT 40SM 07/M06 A3008 RMK AO1 T00721060
ROUNDUP     |KRPX 100435Z AUTO 00000KT 40SM 06/M07 A2998 RMK AO1 T00611071
TWIN BRIDGES|K7S1 100435Z AUTO 10004KT 40SM M02/M07 A3024 RMK AO1 T10211066






000
SXUS55 KMSO 100443
OSOMSO
MONTANA AWOS SUMMARY
NATIONAL WEATHER SERVICE MISSOULA MT
943 PM MST TUE FEB 9 2016

Montana AWOS Reports

LAUREL      |K6S8 100435Z AUTO 21013KT 40SM 07/M06 A3008 RMK AO1 T00721060
ROUNDUP     |KRPX 100435Z AUTO 00000KT 40SM 06/M07 A2998 RMK AO1 T00611071
TWIN BRIDGES|K7S1 100435Z AUTO 10004KT 40SM M02/M07 A3024 RMK AO1 T10211066






000
SXUS55 KMSO 100423
OSOMSO
MONTANA AWOS SUMMARY
NATIONAL WEATHER SERVICE MISSOULA MT
923 PM MST TUE FEB 9 2016

Montana AWOS Reports

LAUREL      |K6S8 100415Z AUTO 21015G19KT 40SM 07/M06 A3008 RMK AO1 T00721060
ROUNDUP     |KRPX 100415Z AUTO 00000KT 40SM 07/M07 A2998 RMK AO1 T00671066






000
SXUS55 KMSO 100423
OSOMSO
MONTANA AWOS SUMMARY
NATIONAL WEATHER SERVICE MISSOULA MT
923 PM MST TUE FEB 9 2016

Montana AWOS Reports

LAUREL      |K6S8 100415Z AUTO 21015G19KT 40SM 07/M06 A3008 RMK AO1 T00721060
ROUNDUP     |KRPX 100415Z AUTO 00000KT 40SM 07/M07 A2998 RMK AO1 T00671066






000
SXUS55 KMSO 100413
OSOMSO
MONTANA AWOS SUMMARY
NATIONAL WEATHER SERVICE MISSOULA MT
913 PM MST TUE FEB 9 2016

Montana AWOS Reports

PLAINS      |KS34 100355Z AUTO 00000KT 15SM M01/M03 A3025 RMK AO1 T10051032
SCOBEY      |K9S2 100355Z AUTO 00000KT 40SM 00/M04 A2992 RMK AO1 T00001043
LAUREL      |K6S8 100355Z AUTO 21011G16KT 40SM 07/M06 A3008 RMK AO1 T00671060
EKALAKA     |K97M 100355Z AUTO 00000KT 40SM 04/M04 A3000 RMK AO1 T00391043






000
SXUS55 KMSO 100404
OSOMSO
MONTANA AWOS SUMMARY
NATIONAL WEATHER SERVICE MISSOULA MT
903 PM MST TUE FEB 9 2016

Montana AWOS Reports

LAUREL      |K6S8 100355Z AUTO 21011G16KT 40SM 07/M06 A3008 RMK AO1 T00671060
ROUNDUP     |KRPX 100355Z AUTO 00000KT 40SM 07/M07 A2998 RMK AO1 T00721066
TWIN BRIDGES|K7S1 100355Z AUTO 14006KT 40SM M02/M06 A3024 RMK AO1 T10161055






000
SXUS55 KMSO 100343
OSOMSO
MONTANA AWOS SUMMARY
NATIONAL WEATHER SERVICE MISSOULA MT
843 PM MST TUE FEB 9 2016

Montana AWOS Reports

LAUREL      |K6S8 100335Z AUTO 21013G21KT 40SM 07/M06 A3008 RMK AO1 T00671060
ROUNDUP     |KRPX 100335Z AUTO 00000KT 40SM 07/M07 A2998 RMK AO1 T00671066
TWIN BRIDGES|K7S1 100335Z AUTO 13008KT 40SM M02/M06 A3024 RMK AO1 T10161060






000
SXUS55 KMSO 100343
OSOMSO
MONTANA AWOS SUMMARY
NATIONAL WEATHER SERVICE MISSOULA MT
843 PM MST TUE FEB 9 2016

Montana AWOS Reports

LAUREL      |K6S8 100335Z AUTO 21013G21KT 40SM 07/M06 A3008 RMK AO1 T00671060
ROUNDUP     |KRPX 100335Z AUTO 00000KT 40SM 07/M07 A2998 RMK AO1 T00671066
TWIN BRIDGES|K7S1 100335Z AUTO 13008KT 40SM M02/M06 A3024 RMK AO1 T10161060






000
SXUS55 KMSO 100333
OSOMSO
MONTANA AWOS SUMMARY
NATIONAL WEATHER SERVICE MISSOULA MT
833 PM MST TUE FEB 9 2016

Montana AWOS Reports

TWIN BRIDGES|K7S1 100315Z AUTO 11006KT 40SM M02/M06 A3025 RMK AO1 T10161060
ROUNDUP     |KRPX 100315Z AUTO 20004KT 40SM 08/M06 A2999 RMK AO1 T00781060






000
SXUS55 KMSO 100333
OSOMSO
MONTANA AWOS SUMMARY
NATIONAL WEATHER SERVICE MISSOULA MT
833 PM MST TUE FEB 9 2016

Montana AWOS Reports

TWIN BRIDGES|K7S1 100315Z AUTO 11006KT 40SM M02/M06 A3025 RMK AO1 T10161060
ROUNDUP     |KRPX 100315Z AUTO 20004KT 40SM 08/M06 A2999 RMK AO1 T00781060






000
SXUS55 KMSO 100323
OSOMSO
MONTANA AWOS SUMMARY
NATIONAL WEATHER SERVICE MISSOULA MT
823 PM MST TUE FEB 9 2016

Montana AWOS Reports

LAUREL      |K6S8 100315Z AUTO 22009G14KT 40SM 07/M06 A3009 RMK AO1 T00671060






000
SXUS55 KMSO 100313
OSOMSO
MONTANA AWOS SUMMARY
NATIONAL WEATHER SERVICE MISSOULA MT
813 PM MST TUE FEB 9 2016

Montana AWOS Reports

LAUREL      |K6S8 100255Z AUTO 22008KT 40SM 06/M06 A3010 RMK AO1 T00611055
SCOBEY      |K9S2 100255Z AUTO 00000KT 40SM 01/M04 A2995 RMK AO1 T00061043
PLAINS      |KS34 100255Z AUTO 00000KT 25SM 01/M03 A3025 RMK AO1 T00061027
EKALAKA     |K97M 100255Z AUTO 25008KT 40SM 06/M04 A3002 RMK AO1 T00561038






000
SXUS55 KMSO 100303
OSOMSO
MONTANA AWOS SUMMARY
NATIONAL WEATHER SERVICE MISSOULA MT
803 PM MST TUE FEB 9 2016

Montana AWOS Reports

LAUREL      |K6S8 100255Z AUTO 22008KT 40SM 06/M06 A3010 RMK AO1 T00611055
MALTA       |KM75 100255Z AUTO 40SM A2996 RMK AO1 T1055155727
TWIN BRIDGES|K7S1 100255Z AUTO 13005KT 40SM M02/M07 A3026 RMK AO1 T10161066
ROUNDUP     |KRPX 100255Z AUTO 00000KT 40SM 08/M06 A2999 RMK AO1 T00781060






000
SXUS55 KMSO 100303
OSOMSO
MONTANA AWOS SUMMARY
NATIONAL WEATHER SERVICE MISSOULA MT
803 PM MST TUE FEB 9 2016

Montana AWOS Reports

LAUREL      |K6S8 100255Z AUTO 22008KT 40SM 06/M06 A3010 RMK AO1 T00611055
MALTA       |KM75 100255Z AUTO 40SM A2996 RMK AO1 T1055155727
TWIN BRIDGES|K7S1 100255Z AUTO 13005KT 40SM M02/M07 A3026 RMK AO1 T10161066
ROUNDUP     |KRPX 100255Z AUTO 00000KT 40SM 08/M06 A2999 RMK AO1 T00781060






000
SXUS55 KMSO 100243
OSOMSO
MONTANA AWOS SUMMARY
NATIONAL WEATHER SERVICE MISSOULA MT
743 PM MST TUE FEB 9 2016

Montana AWOS Reports

LAUREL      |K6S8 100235Z AUTO 20007KT 40SM 06/M07 A3011 RMK AO1 T00611066
TWIN BRIDGES|K7S1 100235Z AUTO 00000KT 40SM 02/M05 A3026 RMK AO1 T00221049
ROUNDUP     |KRPX 100235Z AUTO 00000KT 40SM 08/M06 A3000 RMK AO1 T00781060






000
SXUS55 KMSO 100223
OSOMSO
MONTANA AWOS SUMMARY
NATIONAL WEATHER SERVICE MISSOULA MT
723 PM MST TUE FEB 9 2016

Montana AWOS Reports

LAUREL      |K6S8 100215Z AUTO 19007KT 40SM 07/M06 A3012 RMK AO1 T00721060
ROUNDUP     |KRPX 100215Z AUTO 00000KT 40SM 08/M06 A3000 RMK AO1 T00831060
TWIN BRIDGES|K7S1 100215Z AUTO 11004KT 40SM 03/M04 A3026 RMK AO1 T00281043






000
SXUS55 KMSO 100213
OSOMSO
MONTANA AWOS SUMMARY
NATIONAL WEATHER SERVICE MISSOULA MT
712 PM MST TUE FEB 9 2016

Montana AWOS Reports

LAUREL      |K6S8 100155Z AUTO 20011G15KT 40SM 08/M06 A3012 RMK AO1 T00831060
EKALAKA     |K97M 100155Z AUTO 00000KT 40SM 03/M04 A3004 RMK AO1 T00331043






000
SXUS55 KMSO 100213
OSOMSO
MONTANA AWOS SUMMARY
NATIONAL WEATHER SERVICE MISSOULA MT
712 PM MST TUE FEB 9 2016

Montana AWOS Reports

LAUREL      |K6S8 100155Z AUTO 20011G15KT 40SM 08/M06 A3012 RMK AO1 T00831060
EKALAKA     |K97M 100155Z AUTO 00000KT 40SM 03/M04 A3004 RMK AO1 T00331043






000
SXUS55 KMSO 100203
OSOMSO
MONTANA AWOS SUMMARY
NATIONAL WEATHER SERVICE MISSOULA MT
703 PM MST TUE FEB 9 2016

Montana AWOS Reports

LAUREL      |K6S8 100155Z AUTO 20011G15KT 40SM 08/M06 A3012 RMK AO1 T00831060
ROUNDUP     |KRPX 100155Z AUTO 00000KT 25SM 09/M06 A3001 RMK AO1 T00891060
TWIN BRIDGES|K7S1 100155Z AUTO 11006KT 40SM 02/M04 A3027 RMK AO1 T00221043
PLAINS      |KS34 100155Z AUTO 00000KT 15SM 02/M02 A3026 RMK AO1 T00221016
SCOBEY      |K9S2 100155Z AUTO 00000KT 40SM 01/M05 A2997 RMK AO1 T00061049






000
SXUS55 KMSO 100144
OSOMSO
MONTANA AWOS SUMMARY
NATIONAL WEATHER SERVICE MISSOULA MT
643 PM MST TUE FEB 9 2016

Montana AWOS Reports

LAUREL      |K6S8 100135Z AUTO 20010G14KT 40SM 09/M06 A3013 RMK AO1 T00891060
TWIN BRIDGES|K7S1 100135Z AUTO 11006KT 40SM 03/M04 A3027 RMK AO1 T00281038
ROUNDUP     |KRPX 100135Z AUTO 00000KT 40SM 09/M06 A3001 RMK AO1 T00941060






000
SXUS55 KMSO 100123
OSOMSO
MONTANA AWOS SUMMARY
NATIONAL WEATHER SERVICE MISSOULA MT
623 PM MST TUE FEB 9 2016

Montana AWOS Reports

LAUREL      |K6S8 100115Z AUTO 19008KT 40SM 09/M06 A3013 RMK AO1 T00891060
ROUNDUP     |KRPX 100115Z AUTO 00000KT 40SM 10/M06 A3002 RMK AO1 T01001055
TWIN BRIDGES|K7S1 100115Z AUTO 10005KT 40SM 03/M04 A3027 RMK AO1 T00281038






000
SXUS55 KMSO 100123
OSOMSO
MONTANA AWOS SUMMARY
NATIONAL WEATHER SERVICE MISSOULA MT
623 PM MST TUE FEB 9 2016

Montana AWOS Reports

LAUREL      |K6S8 100115Z AUTO 19008KT 40SM 09/M06 A3013 RMK AO1 T00891060
ROUNDUP     |KRPX 100115Z AUTO 00000KT 40SM 10/M06 A3002 RMK AO1 T01001055
TWIN BRIDGES|K7S1 100115Z AUTO 10005KT 40SM 03/M04 A3027 RMK AO1 T00281038






000
SXUS55 KMSO 100113
OSOMSO
MONTANA AWOS SUMMARY
NATIONAL WEATHER SERVICE MISSOULA MT
613 PM MST TUE FEB 9 2016

Montana AWOS Reports

LAUREL      |K6S8 100055Z AUTO 20005KT 40SM 09/M06 A3014 RMK AO1 T00941055






000
SXUS55 KMSO 100113
OSOMSO
MONTANA AWOS SUMMARY
NATIONAL WEATHER SERVICE MISSOULA MT
613 PM MST TUE FEB 9 2016

Montana AWOS Reports

LAUREL      |K6S8 100055Z AUTO 20005KT 40SM 09/M06 A3014 RMK AO1 T00941055






000
SXUS55 KMSO 100104
OSOMSO
MONTANA AWOS SUMMARY
NATIONAL WEATHER SERVICE MISSOULA MT
603 PM MST TUE FEB 9 2016

Montana AWOS Reports

LAUREL      |K6S8 100055Z AUTO 20005KT 40SM 09/M06 A3014 RMK AO1 T00941055
ROUNDUP     |KRPX 100055Z AUTO 21004KT 40SM 12/M05 A3003 RMK AO1 T01171049
PLAINS      |KS34 100055Z AUTO 00000KT 25SM 04/M01 A3028 RMK AO1 T00441005
TWIN BRIDGES|K7S1 100055Z AUTO 11005KT 40SM 03/M04 A3027 RMK AO1 T00281038
SCOBEY      |K9S2 100055Z AUTO 00000KT 40SM 02/M04 A3000 RMK AO1 T00171043
EKALAKA     |K97M 100055Z AUTO 23005KT 40SM 06/M03 A3006 RMK AO1 T00561032






000
SXUS55 KMSO 100104
OSOMSO
MONTANA AWOS SUMMARY
NATIONAL WEATHER SERVICE MISSOULA MT
603 PM MST TUE FEB 9 2016

Montana AWOS Reports

LAUREL      |K6S8 100055Z AUTO 20005KT 40SM 09/M06 A3014 RMK AO1 T00941055
ROUNDUP     |KRPX 100055Z AUTO 21004KT 40SM 12/M05 A3003 RMK AO1 T01171049
PLAINS      |KS34 100055Z AUTO 00000KT 25SM 04/M01 A3028 RMK AO1 T00441005
TWIN BRIDGES|K7S1 100055Z AUTO 11005KT 40SM 03/M04 A3027 RMK AO1 T00281038
SCOBEY      |K9S2 100055Z AUTO 00000KT 40SM 02/M04 A3000 RMK AO1 T00171043
EKALAKA     |K97M 100055Z AUTO 23005KT 40SM 06/M03 A3006 RMK AO1 T00561032






000
SXUS55 KMSO 100054
OSOMSO
MONTANA AWOS SUMMARY
NATIONAL WEATHER SERVICE MISSOULA MT
553 PM MST TUE FEB 9 2016

Montana AWOS Reports

LAUREL      |K6S8 100035Z AUTO 21010G18KT 40SM 10/M06 A3014 RMK AO1 T01001055
ROUNDUP     |KRPX 100035Z AUTO 24004KT 40SM 13/M05 A3003 RMK AO1 T01281049






000
SXUS55 KMSO 100054
OSOMSO
MONTANA AWOS SUMMARY
NATIONAL WEATHER SERVICE MISSOULA MT
553 PM MST TUE FEB 9 2016

Montana AWOS Reports

LAUREL      |K6S8 100035Z AUTO 21010G18KT 40SM 10/M06 A3014 RMK AO1 T01001055
ROUNDUP     |KRPX 100035Z AUTO 24004KT 40SM 13/M05 A3003 RMK AO1 T01281049






000
SXUS55 KMSO 100024
OSOMSO
MONTANA AWOS SUMMARY
NATIONAL WEATHER SERVICE MISSOULA MT
523 PM MST TUE FEB 9 2016

Montana AWOS Reports

LAUREL      |K6S8 100015Z AUTO 20006KT 40SM 11/M05 A3015 RMK AO1 T01061049
ROUNDUP     |KRPX 100015Z AUTO 24004KT 40SM 14/M05 A3004 RMK AO1 T01391049






000
SXUS55 KMSO 100024
OSOMSO
MONTANA AWOS SUMMARY
NATIONAL WEATHER SERVICE MISSOULA MT
523 PM MST TUE FEB 9 2016

Montana AWOS Reports

LAUREL      |K6S8 100015Z AUTO 20006KT 40SM 11/M05 A3015 RMK AO1 T01061049
ROUNDUP     |KRPX 100015Z AUTO 24004KT 40SM 14/M05 A3004 RMK AO1 T01391049






000
SXUS55 KMSO 100013
OSOMSO
MONTANA AWOS SUMMARY
NATIONAL WEATHER SERVICE MISSOULA MT
513 PM MST TUE FEB 9 2016

Montana AWOS Reports

ROUNDUP     |KRPX 092355Z AUTO 25005KT 40SM 15/M04 A3004 RMK AO1 T01501043
TWIN BRIDGES|K7S1 092355Z AUTO 10005KT 40SM 04/M03 A3028 RMK AO1 T00391027






000
SXUS55 KMSO 100013
OSOMSO
MONTANA AWOS SUMMARY
NATIONAL WEATHER SERVICE MISSOULA MT
513 PM MST TUE FEB 9 2016

Montana AWOS Reports

ROUNDUP     |KRPX 092355Z AUTO 25005KT 40SM 15/M04 A3004 RMK AO1 T01501043
TWIN BRIDGES|K7S1 092355Z AUTO 10005KT 40SM 04/M03 A3028 RMK AO1 T00391027






000
SXUS55 KMSO 100003
OSOMSO
MONTANA AWOS SUMMARY
NATIONAL WEATHER SERVICE MISSOULA MT
502 PM MST TUE FEB 9 2016

Montana AWOS Reports

LAUREL      |K6S8 092355Z AUTO 19007KT 40SM 12/M04 A3016 RMK AO1 T01171043
SCOBEY      |K9S2 092355Z AUTO 00000KT 40SM 03/M04 A3002 RMK AO1 T00331043
EKALAKA     |K97M 092355Z AUTO 28006KT 40SM 08/M03 A3007 RMK AO1 T00781032
PLAINS      |KS34 092355Z AUTO 11004KT 40SM 08/01 A3029 RMK AO1 T00830006






000
SXUS55 KMSO 100003
OSOMSO
MONTANA AWOS SUMMARY
NATIONAL WEATHER SERVICE MISSOULA MT
502 PM MST TUE FEB 9 2016

Montana AWOS Reports

LAUREL      |K6S8 092355Z AUTO 19007KT 40SM 12/M04 A3016 RMK AO1 T01171043
SCOBEY      |K9S2 092355Z AUTO 00000KT 40SM 03/M04 A3002 RMK AO1 T00331043
EKALAKA     |K97M 092355Z AUTO 28006KT 40SM 08/M03 A3007 RMK AO1 T00781032
PLAINS      |KS34 092355Z AUTO 11004KT 40SM 08/01 A3029 RMK AO1 T00830006






000
SXUS55 KMSO 092343
OSOMSO
MONTANA AWOS SUMMARY
NATIONAL WEATHER SERVICE MISSOULA MT
443 PM MST TUE FEB 9 2016

Montana AWOS Reports

LAUREL      |K6S8 092335Z AUTO 18006KT 40SM 13/M04 A3016 RMK AO1 T01281043
ROUNDUP     |KRPX 092335Z AUTO 23007KT 40SM 16/M04 A3005 RMK AO1 T01611043






000
SXUS55 KMSO 092323
OSOMSO
MONTANA AWOS SUMMARY
NATIONAL WEATHER SERVICE MISSOULA MT
422 PM MST TUE FEB 9 2016

Montana AWOS Reports

LAUREL      |K6S8 092315Z AUTO 18004KT 40SM 14/M04 A3016 RMK AO1 T01441038
ROUNDUP     |KRPX 092315Z AUTO 22006KT 40SM 18/M04 A3005 RMK AO1 T01781043






000
SXUS55 KMSO 092323
OSOMSO
MONTANA AWOS SUMMARY
NATIONAL WEATHER SERVICE MISSOULA MT
422 PM MST TUE FEB 9 2016

Montana AWOS Reports

LAUREL      |K6S8 092315Z AUTO 18004KT 40SM 14/M04 A3016 RMK AO1 T01441038
ROUNDUP     |KRPX 092315Z AUTO 22006KT 40SM 18/M04 A3005 RMK AO1 T01781043






000
SXUS55 KMSO 092313
OSOMSO
MONTANA AWOS SUMMARY
NATIONAL WEATHER SERVICE MISSOULA MT
413 PM MST TUE FEB 9 2016

Montana AWOS Reports

LAUREL      |K6S8 092255Z AUTO 18005KT 40SM 15/M04 A3016 RMK AO1 T01501038






000
SXUS55 KMSO 092304
OSOMSO
MONTANA AWOS SUMMARY
NATIONAL WEATHER SERVICE MISSOULA MT
403 PM MST TUE FEB 9 2016

Montana AWOS Reports

LAUREL      |K6S8 092255Z AUTO 18005KT 40SM 15/M04 A3016 RMK AO1 T01501038
ROUNDUP     |KRPX 092255Z AUTO 25005KT 40SM 18/M05 A3005 RMK AO1 T01781049
SCOBEY      |K9S2 092255Z AUTO 00000KT 40SM 06/M03 A3003 RMK AO1 T00561032
EKALAKA     |K97M 092255Z AUTO 28012KT 40SM 10/M03 A3007 RMK AO1 T01001027
PLAINS      |KS34 092255Z AUTO 00000KT 40SM 10/01 A3030 RMK AO1 T01000011
TWIN BRIDGES|K7S1 092255Z AUTO 13005KT 40SM 05/M02 A3029 RMK AO1 T00501021






000
SXUS55 KMSO 092304
OSOMSO
MONTANA AWOS SUMMARY
NATIONAL WEATHER SERVICE MISSOULA MT
403 PM MST TUE FEB 9 2016

Montana AWOS Reports

LAUREL      |K6S8 092255Z AUTO 18005KT 40SM 15/M04 A3016 RMK AO1 T01501038
ROUNDUP     |KRPX 092255Z AUTO 25005KT 40SM 18/M05 A3005 RMK AO1 T01781049
SCOBEY      |K9S2 092255Z AUTO 00000KT 40SM 06/M03 A3003 RMK AO1 T00561032
EKALAKA     |K97M 092255Z AUTO 28012KT 40SM 10/M03 A3007 RMK AO1 T01001027
PLAINS      |KS34 092255Z AUTO 00000KT 40SM 10/01 A3030 RMK AO1 T01000011
TWIN BRIDGES|K7S1 092255Z AUTO 13005KT 40SM 05/M02 A3029 RMK AO1 T00501021






000
SXUS55 KMSO 092243
OSOMSO
MONTANA AWOS SUMMARY
NATIONAL WEATHER SERVICE MISSOULA MT
343 PM MST TUE FEB 9 2016

Montana AWOS Reports

LAUREL      |K6S8 092235Z AUTO 19010G16KT 40SM 16/M03 A3016 RMK AO1 T01561032
ROUNDUP     |KRPX 092235Z AUTO 25006KT 40SM 18/M04 A3005 RMK AO1 T01831043






000
SXUS55 KMSO 092223
OSOMSO
MONTANA AWOS SUMMARY
NATIONAL WEATHER SERVICE MISSOULA MT
323 PM MST TUE FEB 9 2016

Montana AWOS Reports

LAUREL      |K6S8 092215Z AUTO 18010G17KT 40SM 16/M04 A3016 RMK AO1 T01561038
ROUNDUP     |KRPX 092215Z AUTO 25009G13KT 40SM 18/M04 A3006 RMK AO1 T01831043






000
SXUS55 KMSO 092213
OSOMSO
MONTANA AWOS SUMMARY
NATIONAL WEATHER SERVICE MISSOULA MT
313 PM MST TUE FEB 9 2016

Montana AWOS Reports

SCOBEY      |K9S2 092155Z AUTO 00000KT 40SM 06/M03 A3004 RMK AO1 T00611032
LAUREL      |K6S8 092155Z AUTO 19007KT 40SM 16/M04 A3016 RMK AO1 T01561038
PLAINS      |KS34 092155Z AUTO 00000KT 40SM 10/01 A3032 RMK AO1 T01000011
EKALAKA     |K97M 092155Z AUTO 28010KT 40SM 08/M02 A3008 RMK AO1 T00831021






000
SXUS55 KMSO 092213
OSOMSO
MONTANA AWOS SUMMARY
NATIONAL WEATHER SERVICE MISSOULA MT
313 PM MST TUE FEB 9 2016

Montana AWOS Reports

SCOBEY      |K9S2 092155Z AUTO 00000KT 40SM 06/M03 A3004 RMK AO1 T00611032
LAUREL      |K6S8 092155Z AUTO 19007KT 40SM 16/M04 A3016 RMK AO1 T01561038
PLAINS      |KS34 092155Z AUTO 00000KT 40SM 10/01 A3032 RMK AO1 T01000011
EKALAKA     |K97M 092155Z AUTO 28010KT 40SM 08/M02 A3008 RMK AO1 T00831021






000
SXUS55 KMSO 092204
OSOMSO
MONTANA AWOS SUMMARY
NATIONAL WEATHER SERVICE MISSOULA MT
303 PM MST TUE FEB 9 2016

Montana AWOS Reports

LAUREL      |K6S8 092155Z AUTO 19007KT 40SM 16/M04 A3016 RMK AO1 T01561038
TWIN BRIDGES|K7S1 092155Z AUTO 17006KT 40SM 05/M03 A3030 RMK AO1 T00501027
ROUNDUP     |KRPX 092155Z AUTO 25005KT 40SM 18/M05 A3006 RMK AO1 T01781049






000
SXUS55 KMSO 092204
OSOMSO
MONTANA AWOS SUMMARY
NATIONAL WEATHER SERVICE MISSOULA MT
303 PM MST TUE FEB 9 2016

Montana AWOS Reports

LAUREL      |K6S8 092155Z AUTO 19007KT 40SM 16/M04 A3016 RMK AO1 T01561038
TWIN BRIDGES|K7S1 092155Z AUTO 17006KT 40SM 05/M03 A3030 RMK AO1 T00501027
ROUNDUP     |KRPX 092155Z AUTO 25005KT 40SM 18/M05 A3006 RMK AO1 T01781049






000
SXUS55 KMSO 092143
OSOMSO
MONTANA AWOS SUMMARY
NATIONAL WEATHER SERVICE MISSOULA MT
243 PM MST TUE FEB 9 2016

Montana AWOS Reports

LAUREL      |K6S8 092135Z AUTO 19011G16KT 40SM 16/M04 A3017 RMK AO1 T01561043
TWIN BRIDGES|K7S1 092135Z AUTO 00000KT 40SM 05/M02 A3031 RMK AO1 T00501021
ROUNDUP     |KRPX 092135Z AUTO 26008KT 40SM 18/M04 A3006 RMK AO1 T01831043






000
SXUS55 KMSO 092143
OSOMSO
MONTANA AWOS SUMMARY
NATIONAL WEATHER SERVICE MISSOULA MT
243 PM MST TUE FEB 9 2016

Montana AWOS Reports

LAUREL      |K6S8 092135Z AUTO 19011G16KT 40SM 16/M04 A3017 RMK AO1 T01561043
TWIN BRIDGES|K7S1 092135Z AUTO 00000KT 40SM 05/M02 A3031 RMK AO1 T00501021
ROUNDUP     |KRPX 092135Z AUTO 26008KT 40SM 18/M04 A3006 RMK AO1 T01831043






000
SXUS55 KMSO 092123
OSOMSO
MONTANA AWOS SUMMARY
NATIONAL WEATHER SERVICE MISSOULA MT
223 PM MST TUE FEB 9 2016

Montana AWOS Reports

LAUREL      |K6S8 092115Z AUTO 19010G16KT 40SM 16/M04 A3017 RMK AO1 T01561038
ROUNDUP     |KRPX 092115Z AUTO 00000KT 40SM 19/M06 A3007 RMK AO1 T01891060






000
SXUS55 KMSO 092114
OSOMSO
MONTANA AWOS SUMMARY
NATIONAL WEATHER SERVICE MISSOULA MT
213 PM MST TUE FEB 9 2016

Montana AWOS Reports

SCOBEY      |K9S2 092055Z AUTO 19007KT 40SM 05/M04 A3006 RMK AO1 T00501043
EKALAKA     |K97M 092055Z AUTO 28011KT 40SM 08/M02 A3010 RMK AO1 T00831021
LAUREL      |K6S8 092055Z AUTO 18010G15KT 40SM 15/M03 A3018 RMK AO1 T01501032
TWIN BRIDGES|K7S1 092055Z AUTO 11004KT 40SM 04/M02 A3032 RMK AO1 T00391021
PLAINS      |KS34 092055Z AUTO 00000KT 25SM 08/02 A3036 RMK AO1 T00830017






000
SXUS55 KMSO 092103
OSOMSO
MONTANA AWOS SUMMARY
NATIONAL WEATHER SERVICE MISSOULA MT
203 PM MST TUE FEB 9 2016

Montana AWOS Reports

MALTA       |KM75 092055Z AUTO 40SM A3007 RMK AO1 T1043155727






000
SXUS55 KMSO 092044
OSOMSO
MONTANA AWOS SUMMARY
NATIONAL WEATHER SERVICE MISSOULA MT
143 PM MST TUE FEB 9 2016

Montana AWOS Reports

LAUREL      |K6S8 092035Z AUTO 18009G16KT 40SM 15/M04 A3018 RMK AO1 T01501038
ROUNDUP     |KRPX 092035Z AUTO 30005KT 40SM 18/M06 A3008 RMK AO1 T01831060






000
SXUS55 KMSO 092023
OSOMSO
MONTANA AWOS SUMMARY
NATIONAL WEATHER SERVICE MISSOULA MT
123 PM MST TUE FEB 9 2016

Montana AWOS Reports

LAUREL      |K6S8 092015Z AUTO 18008KT 40SM 14/M04 A3019 RMK AO1 T01391038
ROUNDUP     |KRPX 092015Z AUTO 27008KT 40SM 18/M07 A3009 RMK AO1 T01781066






000
SXUS55 KMSO 092014
OSOMSO
MONTANA AWOS SUMMARY
NATIONAL WEATHER SERVICE MISSOULA MT
113 PM MST TUE FEB 9 2016

Montana AWOS Reports

EKALAKA     |K97M 091955Z AUTO 28006KT 40SM 07/M03 A3013 RMK AO1 T00671027
PLAINS      |KS34 091955Z AUTO 00000KT 40SM 04/01 A3039 RMK AO1 T00440011






000
SXUS55 KMSO 092003
OSOMSO
MONTANA AWOS SUMMARY
NATIONAL WEATHER SERVICE MISSOULA MT
103 PM MST TUE FEB 9 2016

Montana AWOS Reports

LAUREL      |K6S8 091955Z AUTO 19010G17KT 40SM 13/M04 A3020 RMK AO1 T01331043
ROUNDUP     |KRPX 091955Z AUTO 27004KT 40SM 18/M06 A3010 RMK AO1 T01781055
TWIN BRIDGES|K7S1 091955Z AUTO 16004KT 40SM 04/M03 A3035 RMK AO1 T00391027
SCOBEY      |K9S2 091955Z AUTO 00000KT 40SM 05/M06 A3010 RMK AO1 T00501055
LAUREL      |K6S8 091955Z AUTO 19010G17KT 40SM 13/M04 A3020 RMK AO1 T01331043






000
SXUS55 KMSO 091944
OSOMSO
MONTANA AWOS SUMMARY
NATIONAL WEATHER SERVICE MISSOULA MT
1243 PM MST TUE FEB 9 2016

Montana AWOS Reports

LAUREL      |K6S8 091935Z AUTO 18007KT 40SM 13/M04 A3022 RMK AO1 T01281038
ROUNDUP     |KRPX 091935Z AUTO 28009G14KT 40SM 17/M06 A3011 RMK AO1 T01721060
TWIN BRIDGES|K7S1 091935Z AUTO 18008KT 40SM 03/M03 A3036 RMK AO1 T00331032






000
SXUS55 KMSO 091923
OSOMSO
MONTANA AWOS SUMMARY
NATIONAL WEATHER SERVICE MISSOULA MT
1223 PM MST TUE FEB 9 2016

Montana AWOS Reports

LAUREL      |K6S8 091915Z AUTO 19010G18KT 40SM 12/M04 A3023 RMK AO1 T01221043
TWIN BRIDGES|K7S1 091915Z AUTO 18006KT 40SM 03/M03 A3037 RMK AO1 T00281027
ROUNDUP     |KRPX 091915Z AUTO 25010G15KT 40SM 17/M04 A3012 RMK AO1 T01671043






000
SXUS55 KMSO 091913
OSOMSO
MONTANA AWOS SUMMARY
NATIONAL WEATHER SERVICE MISSOULA MT
1213 PM MST TUE FEB 9 2016

Montana AWOS Reports

EKALAKA     |K97M 091855Z AUTO 31007KT 40SM 06/M02 A3016 RMK AO1 T00611021
LAUREL      |K6S8 091855Z AUTO 21013KT 40SM 12/M04 A3024 RMK AO1 T01171043






000
SXUS55 KMSO 091913
OSOMSO
MONTANA AWOS SUMMARY
NATIONAL WEATHER SERVICE MISSOULA MT
1213 PM MST TUE FEB 9 2016

Montana AWOS Reports

EKALAKA     |K97M 091855Z AUTO 31007KT 40SM 06/M02 A3016 RMK AO1 T00611021
LAUREL      |K6S8 091855Z AUTO 21013KT 40SM 12/M04 A3024 RMK AO1 T01171043






000
SXUS55 KMSO 091903
OSOMSO
MONTANA AWOS SUMMARY
NATIONAL WEATHER SERVICE MISSOULA MT
1203 PM MST TUE FEB 9 2016

Montana AWOS Reports

LAUREL      |K6S8 091855Z AUTO 21013KT 40SM 12/M04 A3024 RMK AO1 T01171043
ROUNDUP     |KRPX 091855Z AUTO 24012G17KT 40SM 16/M04 A3013 RMK AO1 T01611038
PLAINS      |KS34 091855Z AUTO 00000KT 25SM 02/M01 A3043 RMK AO1 T00171005
SCOBEY      |K9S2 091855Z AUTO 00000KT 40SM 04/M06 A3013 RMK AO1 T00391060
TWIN BRIDGES|K7S1 091855Z AUTO 18006KT 40SM 03/M03 A3038 RMK AO1 T00281027






000
SXUS55 KMSO 091903
OSOMSO
MONTANA AWOS SUMMARY
NATIONAL WEATHER SERVICE MISSOULA MT
1203 PM MST TUE FEB 9 2016

Montana AWOS Reports

LAUREL      |K6S8 091855Z AUTO 21013KT 40SM 12/M04 A3024 RMK AO1 T01171043
ROUNDUP     |KRPX 091855Z AUTO 24012G17KT 40SM 16/M04 A3013 RMK AO1 T01611038
PLAINS      |KS34 091855Z AUTO 00000KT 25SM 02/M01 A3043 RMK AO1 T00171005
SCOBEY      |K9S2 091855Z AUTO 00000KT 40SM 04/M06 A3013 RMK AO1 T00391060
TWIN BRIDGES|K7S1 091855Z AUTO 18006KT 40SM 03/M03 A3038 RMK AO1 T00281027






000
SXUS55 KMSO 091843
OSOMSO
MONTANA AWOS SUMMARY
NATIONAL WEATHER SERVICE MISSOULA MT
1143 AM MST TUE FEB 9 2016

Montana AWOS Reports

LAUREL      |K6S8 091835Z AUTO 20011G15KT 40SM 12/M04 A3025 RMK AO1 T01171043
TWIN BRIDGES|K7S1 091835Z AUTO 19006KT 40SM 02/M03 A3039 RMK AO1 T00221032
ROUNDUP     |KRPX 091835Z AUTO 25011KT 40SM 16/M03 A3014 RMK AO1 T01561032






000
SXUS55 KMSO 091843
OSOMSO
MONTANA AWOS SUMMARY
NATIONAL WEATHER SERVICE MISSOULA MT
1143 AM MST TUE FEB 9 2016

Montana AWOS Reports

LAUREL      |K6S8 091835Z AUTO 20011G15KT 40SM 12/M04 A3025 RMK AO1 T01171043
TWIN BRIDGES|K7S1 091835Z AUTO 19006KT 40SM 02/M03 A3039 RMK AO1 T00221032
ROUNDUP     |KRPX 091835Z AUTO 25011KT 40SM 16/M03 A3014 RMK AO1 T01561032






000
SXUS55 KMSO 091823
OSOMSO
MONTANA AWOS SUMMARY
NATIONAL WEATHER SERVICE MISSOULA MT
1123 AM MST TUE FEB 9 2016

Montana AWOS Reports

LAUREL      |K6S8 091815Z AUTO 20012G17KT 40SM 10/M05 A3025 RMK AO1 T01001049
ROUNDUP     |KRPX 091815Z AUTO 25008KT 40SM 16/M03 A3015 RMK AO1 T01561032






000
SXUS55 KMSO 091823
OSOMSO
MONTANA AWOS SUMMARY
NATIONAL WEATHER SERVICE MISSOULA MT
1123 AM MST TUE FEB 9 2016

Montana AWOS Reports

LAUREL      |K6S8 091815Z AUTO 20012G17KT 40SM 10/M05 A3025 RMK AO1 T01001049
ROUNDUP     |KRPX 091815Z AUTO 25008KT 40SM 16/M03 A3015 RMK AO1 T01561032






000
SXUS55 KMSO 091813
OSOMSO
MONTANA AWOS SUMMARY
NATIONAL WEATHER SERVICE MISSOULA MT
1113 AM MST TUE FEB 9 2016

Montana AWOS Reports

LAUREL      |K6S8 091755Z AUTO 20011G16KT 40SM 09/M05 A3026 RMK AO1 T00891049






000
SXUS55 KMSO 091813
OSOMSO
MONTANA AWOS SUMMARY
NATIONAL WEATHER SERVICE MISSOULA MT
1113 AM MST TUE FEB 9 2016

Montana AWOS Reports

LAUREL      |K6S8 091755Z AUTO 20011G16KT 40SM 09/M05 A3026 RMK AO1 T00891049






000
SXUS55 KMSO 091804
OSOMSO
MONTANA AWOS SUMMARY
NATIONAL WEATHER SERVICE MISSOULA MT
1103 AM MST TUE FEB 9 2016

Montana AWOS Reports

LAUREL      |K6S8 091755Z AUTO 20011G16KT 40SM 09/M05 A3026 RMK AO1 T00891049
SCOBEY      |K9S2 091755Z AUTO 00000KT 40SM 02/M07 A3016 RMK AO1 T00221071
TWIN BRIDGES|K7S1 091755Z AUTO 12004KT 40SM 01/M05 A3040 RMK AO1 T00061049
ROUNDUP     |KRPX 091755Z AUTO 25011G16KT 40SM 14/M03 A3015 RMK AO1 T01441032
EKALAKA     |K97M 091755Z AUTO 28005KT 40SM 04/M03 A3018 RMK AO1 T00441027
PLAINS      |KS34 091755Z AUTO 00000KT 10SM 00/M02 A3046 RMK AO1 T00001021
TWIN BRIDGES|K7S1 091755Z AUTO 12004KT 40SM 01/M05 A3040 RMK AO1 T00061049






000
SXUS55 KMSO 091804
OSOMSO
MONTANA AWOS SUMMARY
NATIONAL WEATHER SERVICE MISSOULA MT
1103 AM MST TUE FEB 9 2016

Montana AWOS Reports

LAUREL      |K6S8 091755Z AUTO 20011G16KT 40SM 09/M05 A3026 RMK AO1 T00891049
SCOBEY      |K9S2 091755Z AUTO 00000KT 40SM 02/M07 A3016 RMK AO1 T00221071
TWIN BRIDGES|K7S1 091755Z AUTO 12004KT 40SM 01/M05 A3040 RMK AO1 T00061049
ROUNDUP     |KRPX 091755Z AUTO 25011G16KT 40SM 14/M03 A3015 RMK AO1 T01441032
EKALAKA     |K97M 091755Z AUTO 28005KT 40SM 04/M03 A3018 RMK AO1 T00441027
PLAINS      |KS34 091755Z AUTO 00000KT 10SM 00/M02 A3046 RMK AO1 T00001021
TWIN BRIDGES|K7S1 091755Z AUTO 12004KT 40SM 01/M05 A3040 RMK AO1 T00061049






000
SXUS55 KMSO 091743
OSOMSO
MONTANA AWOS SUMMARY
NATIONAL WEATHER SERVICE MISSOULA MT
1043 AM MST TUE FEB 9 2016

Montana AWOS Reports

LAUREL      |K6S8 091735Z AUTO 20011G16KT 40SM 08/M06 A3026 RMK AO1 T00781055
TWIN BRIDGES|K7S1 091735Z AUTO 12005KT 40SM M01/M05 A3040 RMK AO1 T10051049
ROUNDUP     |KRPX 091735Z AUTO 20004KT 40SM 13/M03 A3016 RMK AO1 T01331027






000
SXUS55 KMSO 091743
OSOMSO
MONTANA AWOS SUMMARY
NATIONAL WEATHER SERVICE MISSOULA MT
1043 AM MST TUE FEB 9 2016

Montana AWOS Reports

LAUREL      |K6S8 091735Z AUTO 20011G16KT 40SM 08/M06 A3026 RMK AO1 T00781055
TWIN BRIDGES|K7S1 091735Z AUTO 12005KT 40SM M01/M05 A3040 RMK AO1 T10051049
ROUNDUP     |KRPX 091735Z AUTO 20004KT 40SM 13/M03 A3016 RMK AO1 T01331027






000
SXUS55 KMSO 091723
OSOMSO
MONTANA AWOS SUMMARY
NATIONAL WEATHER SERVICE MISSOULA MT
1023 AM MST TUE FEB 9 2016

Montana AWOS Reports

LAUREL      |K6S8 091715Z AUTO 21014KT 40SM 07/M06 A3027 RMK AO1 T00721055
ROUNDUP     |KRPX 091715Z AUTO 00000KT 40SM 12/M02 A3016 RMK AO1 T01171016






000
SXUS55 KMSO 091723
OSOMSO
MONTANA AWOS SUMMARY
NATIONAL WEATHER SERVICE MISSOULA MT
1023 AM MST TUE FEB 9 2016

Montana AWOS Reports

LAUREL      |K6S8 091715Z AUTO 21014KT 40SM 07/M06 A3027 RMK AO1 T00721055
ROUNDUP     |KRPX 091715Z AUTO 00000KT 40SM 12/M02 A3016 RMK AO1 T01171016






000
SXUS55 KMSO 091714
OSOMSO
MONTANA AWOS SUMMARY
NATIONAL WEATHER SERVICE MISSOULA MT
1013 AM MST TUE FEB 9 2016

Montana AWOS Reports

LAUREL      |K6S8 091655Z AUTO 19009G13KT 40SM 06/M05 A3027 RMK AO1 T00611049






000
SXUS55 KMSO 091714
OSOMSO
MONTANA AWOS SUMMARY
NATIONAL WEATHER SERVICE MISSOULA MT
1013 AM MST TUE FEB 9 2016

Montana AWOS Reports

LAUREL      |K6S8 091655Z AUTO 19009G13KT 40SM 06/M05 A3027 RMK AO1 T00611049






000
SXUS55 KMSO 091703
OSOMSO
MONTANA AWOS SUMMARY
NATIONAL WEATHER SERVICE MISSOULA MT
1003 AM MST TUE FEB 9 2016

Montana AWOS Reports

TWIN BRIDGES|K7S1 091655Z AUTO 12006KT 40SM M04/M08 A3040 RMK AO1 T10381082
ROUNDUP     |KRPX 091655Z AUTO 22008KT 40SM 11/M02 A3016 RMK AO1 T01111021
PLAINS      |KS34 091655Z AUTO 00000KT 1SM BR M03/M05 A3048 RMK AO1 T10271049
SCOBEY      |K9S2 091655Z AUTO 29004KT 40SM 01/M07 A3017 RMK AO1 T00111066
EKALAKA     |K97M 091655Z AUTO 26007KT 40SM 03/M03 A3018 RMK AO1 T00331027






000
SXUS55 KMSO 091644
OSOMSO
MONTANA AWOS SUMMARY
NATIONAL WEATHER SERVICE MISSOULA MT
943 AM MST TUE FEB 9 2016

Montana AWOS Reports

ROUNDUP     |KRPX 091635Z AUTO 00000KT 40SM 09/M02 A3016 RMK AO1 T00891016






000
SXUS55 KMSO 091624
OSOMSO
MONTANA AWOS SUMMARY
NATIONAL WEATHER SERVICE MISSOULA MT
923 AM MST TUE FEB 9 2016

Montana AWOS Reports

LAUREL      |K6S8 091615Z AUTO 20010KT 40SM 04/M07 A3026 RMK AO1 T00391071
ROUNDUP     |KRPX 091615Z AUTO 20005KT 40SM 08/M02 A3016 RMK AO1 T00781016






000
SXUS55 KMSO 091613
OSOMSO
MONTANA AWOS SUMMARY
NATIONAL WEATHER SERVICE MISSOULA MT
913 AM MST TUE FEB 9 2016

Montana AWOS Reports

SCOBEY      |K9S2 091555Z AUTO 00000KT 40SM 00/M07 A3017 RMK AO1 T00001066
LAUREL      |K6S8 091555Z AUTO 21009G13KT 40SM 02/M09 A3026 RMK AO1 T00221088
PLAINS      |KS34 091555Z AUTO 00000KT 1/4SM FZFG M03/M06 A3049 RMK AO1 T10321055






000
SXUS55 KMSO 091613
OSOMSO
MONTANA AWOS SUMMARY
NATIONAL WEATHER SERVICE MISSOULA MT
913 AM MST TUE FEB 9 2016

Montana AWOS Reports

SCOBEY      |K9S2 091555Z AUTO 00000KT 40SM 00/M07 A3017 RMK AO1 T00001066
LAUREL      |K6S8 091555Z AUTO 21009G13KT 40SM 02/M09 A3026 RMK AO1 T00221088
PLAINS      |KS34 091555Z AUTO 00000KT 1/4SM FZFG M03/M06 A3049 RMK AO1 T10321055






000
SXUS55 KMSO 091543
OSOMSO
MONTANA AWOS SUMMARY
NATIONAL WEATHER SERVICE MISSOULA MT
843 AM MST TUE FEB 9 2016

Montana AWOS Reports

LAUREL      |K6S8 091535Z AUTO 20007KT 40SM 01/M08 A3026 RMK AO1 T00111082
ROUNDUP     |KRPX 091535Z AUTO 00000KT 40SM 05/M02 A3016 RMK AO1 T00501021
TWIN BRIDGES|K7S1 091535Z AUTO 00000KT 40SM M06/M09 A3040 RMK AO1 T10551093






000
SXUS55 KMSO 091524
OSOMSO
MONTANA AWOS SUMMARY
NATIONAL WEATHER SERVICE MISSOULA MT
823 AM MST TUE FEB 9 2016

Montana AWOS Reports

LAUREL      |K6S8 091515Z AUTO 22009KT 40SM 00/M09 A3026 RMK AO1 T00001093
ROUNDUP     |KRPX 091515Z AUTO 00000KT 40SM 03/M03 A3016 RMK AO1 T00281032
MALTA       |KM75 091515Z AUTO 40SM A3018 RMK AO1 T1110155727






000
SXUS55 KMSO 091513
OSOMSO
MONTANA AWOS SUMMARY
NATIONAL WEATHER SERVICE MISSOULA MT
812 AM MST TUE FEB 9 2016

Montana AWOS Reports

LAUREL      |K6S8 091455Z AUTO 24007KT 40SM M01/M11 A3026 RMK AO1 T10101105
ROUNDUP     |KRPX 091455Z AUTO 00000KT 40SM 02/M04 A3016 RMK AO1 T00171038
MALTA       |KM75 091455Z AUTO 40SM A3018 RMK AO1 T1110155727
PLAINS      |KS34 091455Z AUTO 00000KT 1/4SM FZFG M04/M07 A3049 RMK AO1 T10431066
TWIN BRIDGES|K7S1 091455Z AUTO 12005KT 40SM M06/M09 A3041 RMK AO1 T10551093
SCOBEY      |K9S2 091455Z AUTO 00000KT 25SM 00/M07 A3017 RMK AO1 T00001071
MALTA       |KM75 091455Z AUTO 40SM A3018 RMK AO1 T0000155727
EKALAKA     |K97M 091455Z AUTO 25008KT 40SM 00/M04 A3016 RMK AO1 T00001038
LAUREL      |K6S8 091455Z AUTO 24007KT 40SM M01/M11 A3026 RMK AO1 T10101105






000
SXUS55 KMSO 091443
OSOMSO
MONTANA AWOS SUMMARY
NATIONAL WEATHER SERVICE MISSOULA MT
743 AM MST TUE FEB 9 2016

Montana AWOS Reports

LAUREL      |K6S8 091435Z AUTO 20010KT 40SM M01/M11 A3026 RMK AO1 T10101105
TWIN BRIDGES|K7S1 091435Z AUTO 12007KT 40SM M06/M09 A3041 RMK AO1 T10601093
ROUNDUP     |KRPX 091435Z AUTO 00000KT 40SM 02/M04 A3016 RMK AO1 T00171038






000
SXUS55 KMSO 091423
OSOMSO
MONTANA AWOS SUMMARY
NATIONAL WEATHER SERVICE MISSOULA MT
723 AM MST TUE FEB 9 2016

Montana AWOS Reports

LAUREL      |K6S8 091415Z AUTO 21010KT 40SM M01/M10 A3026 RMK AO1 T10051099
ROUNDUP     |KRPX 091415Z AUTO 00000KT 40SM 02/M04 A3016 RMK AO1 T00171038






000
SXUS55 KMSO 091423
OSOMSO
MONTANA AWOS SUMMARY
NATIONAL WEATHER SERVICE MISSOULA MT
723 AM MST TUE FEB 9 2016

Montana AWOS Reports

LAUREL      |K6S8 091415Z AUTO 21010KT 40SM M01/M10 A3026 RMK AO1 T10051099
ROUNDUP     |KRPX 091415Z AUTO 00000KT 40SM 02/M04 A3016 RMK AO1 T00171038






000
SXUS55 KMSO 091413
OSOMSO
MONTANA AWOS SUMMARY
NATIONAL WEATHER SERVICE MISSOULA MT
712 AM MST TUE FEB 9 2016

Montana AWOS Reports

LAUREL      |K6S8 091355Z AUTO 22011G18KT 40SM M01/M10 A3027 RMK AO1 T10051099






000
SXUS55 KMSO 091403
OSOMSO
MONTANA AWOS SUMMARY
NATIONAL WEATHER SERVICE MISSOULA MT
703 AM MST TUE FEB 9 2016

Montana AWOS Reports

LAUREL      |K6S8 091355Z AUTO 22011G18KT 40SM M01/M10 A3027 RMK AO1 T10051099
ROUNDUP     |KRPX 091355Z AUTO 00000KT 40SM 02/M03 A3016 RMK AO1 T00221032
SCOBEY      |K9S2 091355Z AUTO 00000KT 40SM M01/M08 A3017 RMK AO1 T10051077
EKALAKA     |K97M 091355Z AUTO 00000KT 40SM M01/M05 A3017 RMK AO1 T10101049
PLAINS      |KS34 091355Z AUTO 00000KT 1/4SM FZFG M04/M06 A3050 RMK AO1 T10381060
TWIN BRIDGES|K7S1 091355Z AUTO 13005KT 40SM M06/M09 A3041 RMK AO1 T10551093






000
SXUS55 KMSO 091403
OSOMSO
MONTANA AWOS SUMMARY
NATIONAL WEATHER SERVICE MISSOULA MT
703 AM MST TUE FEB 9 2016

Montana AWOS Reports

LAUREL      |K6S8 091355Z AUTO 22011G18KT 40SM M01/M10 A3027 RMK AO1 T10051099
ROUNDUP     |KRPX 091355Z AUTO 00000KT 40SM 02/M03 A3016 RMK AO1 T00221032
SCOBEY      |K9S2 091355Z AUTO 00000KT 40SM M01/M08 A3017 RMK AO1 T10051077
EKALAKA     |K97M 091355Z AUTO 00000KT 40SM M01/M05 A3017 RMK AO1 T10101049
PLAINS      |KS34 091355Z AUTO 00000KT 1/4SM FZFG M04/M06 A3050 RMK AO1 T10381060
TWIN BRIDGES|K7S1 091355Z AUTO 13005KT 40SM M06/M09 A3041 RMK AO1 T10551093






000
SXUS55 KMSO 091344
OSOMSO
MONTANA AWOS SUMMARY
NATIONAL WEATHER SERVICE MISSOULA MT
643 AM MST TUE FEB 9 2016

Montana AWOS Reports

LAUREL      |K6S8 091335Z AUTO 21007KT 40SM M01/M11 A3027 RMK AO1 T10101105
ROUNDUP     |KRPX 091335Z AUTO 00000KT 40SM 02/M03 A3016 RMK AO1 T00221032
TWIN BRIDGES|K7S1 091335Z AUTO 20005KT 40SM M05/M09 A3041 RMK AO1 T10491088






000
SXUS55 KMSO 091333
OSOMSO
MONTANA AWOS SUMMARY
NATIONAL WEATHER SERVICE MISSOULA MT
633 AM MST TUE FEB 9 2016

Montana AWOS Reports

TWIN BRIDGES|K7S1 091315Z AUTO 13007KT 40SM M04/M08 A3041 RMK AO1 T10431077
ROUNDUP     |KRPX 091315Z AUTO 19006KT 40SM 03/M03 A3016 RMK AO1 T00281027






000
SXUS55 KMSO 091323
OSOMSO
MONTANA AWOS SUMMARY
NATIONAL WEATHER SERVICE MISSOULA MT
623 AM MST TUE FEB 9 2016

Montana AWOS Reports

LAUREL      |K6S8 091315Z AUTO 23004KT 40SM M02/M10 A3028 RMK AO1 T10161099






000
SXUS55 KMSO 091313
OSOMSO
MONTANA AWOS SUMMARY
NATIONAL WEATHER SERVICE MISSOULA MT
613 AM MST TUE FEB 9 2016

Montana AWOS Reports

LAUREL      |K6S8 091255Z AUTO 00000KT 40SM M01/M11 A3028 RMK AO1 T10101105
EKALAKA     |K97M 091255Z AUTO 00000KT 40SM M02/M06 A3017 RMK AO1 T10161055






000
SXUS55 KMSO 091313
OSOMSO
MONTANA AWOS SUMMARY
NATIONAL WEATHER SERVICE MISSOULA MT
613 AM MST TUE FEB 9 2016

Montana AWOS Reports

LAUREL      |K6S8 091255Z AUTO 00000KT 40SM M01/M11 A3028 RMK AO1 T10101105
EKALAKA     |K97M 091255Z AUTO 00000KT 40SM M02/M06 A3017 RMK AO1 T10161055






000
SXUS55 KMSO 091303
OSOMSO
MONTANA AWOS SUMMARY
NATIONAL WEATHER SERVICE MISSOULA MT
603 AM MST TUE FEB 9 2016

Montana AWOS Reports

LAUREL      |K6S8 091255Z AUTO 00000KT 40SM M01/M11 A3028 RMK AO1 T10101105
TWIN BRIDGES|K7S1 091255Z AUTO 13006KT 40SM M05/M09 A3041 RMK AO1 T10491088
ROUNDUP     |KRPX 091255Z AUTO 20005KT 40SM 03/M03 A3016 RMK AO1 T00281027
PLAINS      |KS34 091255Z AUTO 00000KT 1/4SM FZFG M04/M06 A3050 RMK AO1 T10381060
TWIN BRIDGES|K7S1 091255Z AUTO 13006KT 40SM M05/M09 A3041 RMK AO1 T10491088
SCOBEY      |K9S2 091255Z AUTO 00000KT 40SM M01/M08 A3017 RMK AO1 T10101077






000
SXUS55 KMSO 091303
OSOMSO
MONTANA AWOS SUMMARY
NATIONAL WEATHER SERVICE MISSOULA MT
603 AM MST TUE FEB 9 2016

Montana AWOS Reports

LAUREL      |K6S8 091255Z AUTO 00000KT 40SM M01/M11 A3028 RMK AO1 T10101105
TWIN BRIDGES|K7S1 091255Z AUTO 13006KT 40SM M05/M09 A3041 RMK AO1 T10491088
ROUNDUP     |KRPX 091255Z AUTO 20005KT 40SM 03/M03 A3016 RMK AO1 T00281027
PLAINS      |KS34 091255Z AUTO 00000KT 1/4SM FZFG M04/M06 A3050 RMK AO1 T10381060
TWIN BRIDGES|K7S1 091255Z AUTO 13006KT 40SM M05/M09 A3041 RMK AO1 T10491088
SCOBEY      |K9S2 091255Z AUTO 00000KT 40SM M01/M08 A3017 RMK AO1 T10101077






000
SXUS55 KMSO 091243
OSOMSO
MONTANA AWOS SUMMARY
NATIONAL WEATHER SERVICE MISSOULA MT
543 AM MST TUE FEB 9 2016

Montana AWOS Reports

LAUREL      |K6S8 091235Z AUTO 21006KT 40SM M01/M10 A3028 RMK AO1 T10051099
TWIN BRIDGES|K7S1 091235Z AUTO 13005KT 40SM M04/M08 A3041 RMK AO1 T10431082
ROUNDUP     |KRPX 091235Z AUTO 20005KT 40SM 03/M03 A3018 RMK AO1 T00281027






000
SXUS55 KMSO 091224
OSOMSO
MONTANA AWOS SUMMARY
NATIONAL WEATHER SERVICE MISSOULA MT
523 AM MST TUE FEB 9 2016

Montana AWOS Reports

LAUREL      |K6S8 091215Z AUTO 21007KT 40SM M01/M10 A3027 RMK AO1 T10051099
ROUNDUP     |KRPX 091215Z AUTO 20009KT 40SM 03/M03 A3018 RMK AO1 T00281027






000
SXUS55 KMSO 091213
OSOMSO
MONTANA AWOS SUMMARY
NATIONAL WEATHER SERVICE MISSOULA MT
513 AM MST TUE FEB 9 2016

Montana AWOS Reports

LAUREL      |K6S8 091155Z AUTO 23007KT 40SM M01/M10 A3027 RMK AO1 T10051099






000
SXUS55 KMSO 091213
OSOMSO
MONTANA AWOS SUMMARY
NATIONAL WEATHER SERVICE MISSOULA MT
513 AM MST TUE FEB 9 2016

Montana AWOS Reports

LAUREL      |K6S8 091155Z AUTO 23007KT 40SM M01/M10 A3027 RMK AO1 T10051099






000
SXUS55 KMSO 091203
OSOMSO
MONTANA AWOS SUMMARY
NATIONAL WEATHER SERVICE MISSOULA MT
503 AM MST TUE FEB 9 2016

Montana AWOS Reports

LAUREL      |K6S8 091155Z AUTO 23007KT 40SM M01/M10 A3027 RMK AO1 T10051099
SCOBEY      |K9S2 091155Z AUTO 00000KT 40SM M01/M07 A3017 RMK AO1 T10051071
EKALAKA     |K97M 091155Z AUTO 25004KT 40SM M01/M05 A3016 RMK AO1 T10051049
PLAINS      |KS34 091155Z AUTO 00000KT 7SM M04/M06 A3050 RMK AO1 T10381060
ROUNDUP     |KRPX 091155Z AUTO 21007KT 40SM 03/M03 A3017 RMK AO1 T00281027
TWIN BRIDGES|K7S1 091155Z AUTO VRB06KT 40SM M04/M08 A3040 RMK AO1 T10381077






000
SXUS55 KMSO 091203
OSOMSO
MONTANA AWOS SUMMARY
NATIONAL WEATHER SERVICE MISSOULA MT
503 AM MST TUE FEB 9 2016

Montana AWOS Reports

LAUREL      |K6S8 091155Z AUTO 23007KT 40SM M01/M10 A3027 RMK AO1 T10051099
SCOBEY      |K9S2 091155Z AUTO 00000KT 40SM M01/M07 A3017 RMK AO1 T10051071
EKALAKA     |K97M 091155Z AUTO 25004KT 40SM M01/M05 A3016 RMK AO1 T10051049
PLAINS      |KS34 091155Z AUTO 00000KT 7SM M04/M06 A3050 RMK AO1 T10381060
ROUNDUP     |KRPX 091155Z AUTO 21007KT 40SM 03/M03 A3017 RMK AO1 T00281027
TWIN BRIDGES|K7S1 091155Z AUTO VRB06KT 40SM M04/M08 A3040 RMK AO1 T10381077






000
SXUS55 KMSO 091143
OSOMSO
MONTANA AWOS SUMMARY
NATIONAL WEATHER SERVICE MISSOULA MT
443 AM MST TUE FEB 9 2016

Montana AWOS Reports

TWIN BRIDGES|K7S1 091135Z AUTO 10008KT 40SM M04/M08 A3040 RMK AO1 T10381077
ROUNDUP     |KRPX 091135Z AUTO 21008KT 40SM 03/M03 A3017 RMK AO1 T00281032






000
SXUS55 KMSO 091123
OSOMSO
MONTANA AWOS SUMMARY
NATIONAL WEATHER SERVICE MISSOULA MT
423 AM MST TUE FEB 9 2016

Montana AWOS Reports

LAUREL      |K6S8 091115Z AUTO 00000KT 40SM M01/M07 A3027 RMK AO1 T10051071
TWIN BRIDGES|K7S1 091115Z AUTO 10007KT 40SM M04/M08 A3041 RMK AO1 T10431077
ROUNDUP     |KRPX 091115Z AUTO 00000KT 40SM 02/M04 A3017 RMK AO1 T00171038






000
SXUS55 KMSO 091103
OSOMSO
MONTANA AWOS SUMMARY
NATIONAL WEATHER SERVICE MISSOULA MT
403 AM MST TUE FEB 9 2016

Montana AWOS Reports

TWIN BRIDGES|K7S1 091055Z AUTO 11006KT 40SM M04/M07 A3041 RMK AO1 T10381071
ROUNDUP     |KRPX 091055Z AUTO 00000KT 40SM 02/M04 A3017 RMK AO1 T00221043
MALTA       |KM75 091055Z AUTO 40SM A3019 RMK AO1 T1021155727
SCOBEY      |K9S2 091055Z AUTO 29004KT 40SM M01/M07 A3016 RMK AO1 T10051071
PLAINS      |KS34 091055Z AUTO 00000KT 5SM HZ M03/M06 A3051 RMK AO1 T10321060
LAUREL      |K6S8 091055Z AUTO 20007KT 40SM 00/M07 A3026 RMK AO1 T00001071






000
SXUS55 KMSO 091103
OSOMSO
MONTANA AWOS SUMMARY
NATIONAL WEATHER SERVICE MISSOULA MT
403 AM MST TUE FEB 9 2016

Montana AWOS Reports

TWIN BRIDGES|K7S1 091055Z AUTO 11006KT 40SM M04/M07 A3041 RMK AO1 T10381071
ROUNDUP     |KRPX 091055Z AUTO 00000KT 40SM 02/M04 A3017 RMK AO1 T00221043
MALTA       |KM75 091055Z AUTO 40SM A3019 RMK AO1 T1021155727
SCOBEY      |K9S2 091055Z AUTO 29004KT 40SM M01/M07 A3016 RMK AO1 T10051071
PLAINS      |KS34 091055Z AUTO 00000KT 5SM HZ M03/M06 A3051 RMK AO1 T10321060
LAUREL      |K6S8 091055Z AUTO 20007KT 40SM 00/M07 A3026 RMK AO1 T00001071






000
SXUS55 KMSO 091043
OSOMSO
MONTANA AWOS SUMMARY
NATIONAL WEATHER SERVICE MISSOULA MT
343 AM MST TUE FEB 9 2016

Montana AWOS Reports

LAUREL      |K6S8 091035Z AUTO 00000KT 40SM 00/M07 A3027 RMK AO1 T00001071
ROUNDUP     |KRPX 091035Z AUTO 00000KT 40SM 02/M03 A3017 RMK AO1 T00221032






000
SXUS55 KMSO 091033
OSOMSO
MONTANA AWOS SUMMARY
NATIONAL WEATHER SERVICE MISSOULA MT
333 AM MST TUE FEB 9 2016

Montana AWOS Reports

TWIN BRIDGES|K7S1 091015Z AUTO 12007KT 40SM M03/M07 A3041 RMK AO1 T10321071
ROUNDUP     |KRPX 091015Z AUTO 00000KT 40SM 02/M03 A3018 RMK AO1 T00171032






000
SXUS55 KMSO 091033
OSOMSO
MONTANA AWOS SUMMARY
NATIONAL WEATHER SERVICE MISSOULA MT
333 AM MST TUE FEB 9 2016

Montana AWOS Reports

TWIN BRIDGES|K7S1 091015Z AUTO 12007KT 40SM M03/M07 A3041 RMK AO1 T10321071
ROUNDUP     |KRPX 091015Z AUTO 00000KT 40SM 02/M03 A3018 RMK AO1 T00171032






000
SXUS55 KMSO 091023
OSOMSO
MONTANA AWOS SUMMARY
NATIONAL WEATHER SERVICE MISSOULA MT
323 AM MST TUE FEB 9 2016

Montana AWOS Reports

LAUREL      |K6S8 091015Z AUTO 00000KT 40SM 00/M07 A3027 RMK AO1 T00001071






000
SXUS55 KMSO 091023
OSOMSO
MONTANA AWOS SUMMARY
NATIONAL WEATHER SERVICE MISSOULA MT
323 AM MST TUE FEB 9 2016

Montana AWOS Reports

LAUREL      |K6S8 091015Z AUTO 00000KT 40SM 00/M07 A3027 RMK AO1 T00001071






000
SXUS55 KMSO 091013
OSOMSO
MONTANA AWOS SUMMARY
NATIONAL WEATHER SERVICE MISSOULA MT
313 AM MST TUE FEB 9 2016

Montana AWOS Reports

LAUREL      |K6S8 090955Z AUTO 00000KT 40SM 01/M07 A3027 RMK AO1 T00061066






000
SXUS55 KMSO 091004
OSOMSO
MONTANA AWOS SUMMARY
NATIONAL WEATHER SERVICE MISSOULA MT
303 AM MST TUE FEB 9 2016

Montana AWOS Reports

LAUREL      |K6S8 090955Z AUTO 00000KT 40SM 01/M07 A3027 RMK AO1 T00061066
ROUNDUP     |KRPX 090955Z AUTO 00000KT 40SM 03/M03 A3018 RMK AO1 T00281032
SCOBEY      |K9S2 090955Z AUTO 00000KT 40SM M01/M08 A3017 RMK AO1 T10101077
EKALAKA     |K97M 090955Z AUTO 00000KT 40SM M01/M06 A3017 RMK AO1 T10051055
PLAINS      |KS34 090955Z AUTO 00000KT 15SM M03/M06 A3052 RMK AO1 T10321060
TWIN BRIDGES|K7S1 090955Z AUTO 11006KT 40SM M04/M08 A3041 RMK AO1 T10381077






000
SXUS55 KMSO 090943
OSOMSO
MONTANA AWOS SUMMARY
NATIONAL WEATHER SERVICE MISSOULA MT
243 AM MST TUE FEB 9 2016

Montana AWOS Reports

LAUREL      |K6S8 090935Z AUTO 29004KT 40SM 00/M07 A3028 RMK AO1 T00001071
ROUNDUP     |KRPX 090935Z AUTO 21005KT 40SM 03/M03 A3017 RMK AO1 T00331027
TWIN BRIDGES|K7S1 090935Z AUTO 13005KT 40SM M03/M07 A3041 RMK AO1 T10321066






000
SXUS55 KMSO 090923
OSOMSO
MONTANA AWOS SUMMARY
NATIONAL WEATHER SERVICE MISSOULA MT
223 AM MST TUE FEB 9 2016

Montana AWOS Reports

LAUREL      |K6S8 090915Z AUTO 29004KT 40SM 00/M09 A3027 RMK AO1 T00001093
ROUNDUP     |KRPX 090915Z AUTO 21005KT 40SM 03/M03 A3017 RMK AO1 T00331027






000
SXUS55 KMSO 090913
OSOMSO
MONTANA AWOS SUMMARY
NATIONAL WEATHER SERVICE MISSOULA MT
212 AM MST TUE FEB 9 2016

Montana AWOS Reports

LAUREL      |K6S8 090855Z AUTO 25004KT 40SM 01/M08 A3027 RMK AO1 T00061082






000
SXUS55 KMSO 090903
OSOMSO
MONTANA AWOS SUMMARY
NATIONAL WEATHER SERVICE MISSOULA MT
203 AM MST TUE FEB 9 2016

Montana AWOS Reports

LAUREL      |K6S8 090855Z AUTO 25004KT 40SM 01/M08 A3027 RMK AO1 T00061082
ROUNDUP     |KRPX 090855Z AUTO 00000KT 40SM 03/M03 A3017 RMK AO1 T00331027
SCOBEY      |K9S2 090855Z AUTO 00000KT 40SM M03/M09 A3017 RMK AO1 T10271093
PLAINS      |KS34 090855Z AUTO 00000KT 10SM M03/M06 A3051 RMK AO1 T10271055
TWIN BRIDGES|K7S1 090855Z AUTO 10006KT 40SM M04/M08 A3040 RMK AO1 T10431077
EKALAKA     |K97M 090855Z AUTO 00000KT 40SM M02/M08 A3017 RMK AO1 T10211082






000
SXUS55 KMSO 090903
OSOMSO
MONTANA AWOS SUMMARY
NATIONAL WEATHER SERVICE MISSOULA MT
203 AM MST TUE FEB 9 2016

Montana AWOS Reports

LAUREL      |K6S8 090855Z AUTO 25004KT 40SM 01/M08 A3027 RMK AO1 T00061082
ROUNDUP     |KRPX 090855Z AUTO 00000KT 40SM 03/M03 A3017 RMK AO1 T00331027
SCOBEY      |K9S2 090855Z AUTO 00000KT 40SM M03/M09 A3017 RMK AO1 T10271093
PLAINS      |KS34 090855Z AUTO 00000KT 10SM M03/M06 A3051 RMK AO1 T10271055
TWIN BRIDGES|K7S1 090855Z AUTO 10006KT 40SM M04/M08 A3040 RMK AO1 T10431077
EKALAKA     |K97M 090855Z AUTO 00000KT 40SM M02/M08 A3017 RMK AO1 T10211082






000
SXUS55 KMSO 090843
OSOMSO
MONTANA AWOS SUMMARY
NATIONAL WEATHER SERVICE MISSOULA MT
143 AM MST TUE FEB 9 2016

Montana AWOS Reports

LAUREL      |K6S8 090835Z AUTO 24006KT 40SM 01/M09 A3027 RMK AO1 T00061088
TWIN BRIDGES|K7S1 090835Z AUTO 12006KT 40SM M04/M08 A3041 RMK AO1 T10431077
ROUNDUP     |KRPX 090835Z AUTO 00000KT 40SM 03/M03 A3017 RMK AO1 T00281032






000
SXUS55 KMSO 090843
OSOMSO
MONTANA AWOS SUMMARY
NATIONAL WEATHER SERVICE MISSOULA MT
143 AM MST TUE FEB 9 2016

Montana AWOS Reports

LAUREL      |K6S8 090835Z AUTO 24006KT 40SM 01/M09 A3027 RMK AO1 T00061088
TWIN BRIDGES|K7S1 090835Z AUTO 12006KT 40SM M04/M08 A3041 RMK AO1 T10431077
ROUNDUP     |KRPX 090835Z AUTO 00000KT 40SM 03/M03 A3017 RMK AO1 T00281032






000
SXUS55 KMSO 090833
OSOMSO
MONTANA AWOS SUMMARY
NATIONAL WEATHER SERVICE MISSOULA MT
133 AM MST TUE FEB 9 2016

Montana AWOS Reports

ROUNDUP     |KRPX 090815Z AUTO 00000KT 40SM 03/M03 A3017 RMK AO1 T00331027






000
SXUS55 KMSO 090833
OSOMSO
MONTANA AWOS SUMMARY
NATIONAL WEATHER SERVICE MISSOULA MT
133 AM MST TUE FEB 9 2016

Montana AWOS Reports

ROUNDUP     |KRPX 090815Z AUTO 00000KT 40SM 03/M03 A3017 RMK AO1 T00331027






000
SXUS55 KMSO 090823
OSOMSO
MONTANA AWOS SUMMARY
NATIONAL WEATHER SERVICE MISSOULA MT
123 AM MST TUE FEB 9 2016

Montana AWOS Reports

LAUREL      |K6S8 090815Z AUTO 00000KT 40SM 01/M09 A3027 RMK AO1 T00061088






000
SXUS55 KMSO 090813
OSOMSO
MONTANA AWOS SUMMARY
NATIONAL WEATHER SERVICE MISSOULA MT
113 AM MST TUE FEB 9 2016

Montana AWOS Reports

LAUREL      |K6S8 090755Z AUTO 22007KT 40SM 01/M08 A3027 RMK AO1 T00111082






000
SXUS55 KMSO 090813
OSOMSO
MONTANA AWOS SUMMARY
NATIONAL WEATHER SERVICE MISSOULA MT
113 AM MST TUE FEB 9 2016

Montana AWOS Reports

LAUREL      |K6S8 090755Z AUTO 22007KT 40SM 01/M08 A3027 RMK AO1 T00111082






000
SXUS55 KMSO 090803
OSOMSO
MONTANA AWOS SUMMARY
NATIONAL WEATHER SERVICE MISSOULA MT
103 AM MST TUE FEB 9 2016

Montana AWOS Reports

TWIN BRIDGES|K7S1 090755Z AUTO 18005KT 40SM M03/M07 A3042 RMK AO1 T10321071
LAUREL      |K6S8 090755Z AUTO 22007KT 40SM 01/M08 A3027 RMK AO1 T00111082
ROUNDUP     |KRPX 090755Z AUTO 00000KT 40SM 03/M03 A3018 RMK AO1 T00331027
SCOBEY      |K9S2 090755Z AUTO 00000KT 40SM M04/M11 A3018 RMK AO1 T10381105
EKALAKA     |K97M 090755Z AUTO 00000KT 40SM M02/M09 A3016 RMK AO1 T10161093
PLAINS      |KS34 090755Z AUTO 00000KT 10SM M03/M06 A3052 RMK AO1 T10271055






    US Dept of Commerce
    National Oceanic and Atmospheric Administration
    National Weather Service
    1325 East West Highway
    Silver Spring, MD 20910
    Page Author: NWS Internet Services Team
Disclaimer
Information Quality
Credits
Glossary
Privacy Policy
Freedom of Information Act (FOIA)
About Us
Career Opportunities